<?xml version="1.0" encoding="UTF-8"?>
<gpx version="1.1" creator="https://www.youtrack.es" xsi:schemaLocation="http://www.topografix.com/GPX/1/1 http://www.topografix.com/GPX/1/1/gpx.xsd http://www.garmin.com/xmlschemas/GpxExtensions/v3 http://www.garmin.com/xmlschemas/GpxExtensionsv3.xsd http://www.garmin.com/xmlschemas/TrackPointExtension/v1 http://www.garmin.com/xmlschemas/TrackPointExtensionv1.xsd" xmlns:gpxtpx="http://www.garmin.com/xmlschemas/TrackPointExtension/v1" xmlns:gpxx="http://www.garmin.com/xmlschemas/GpxExtensions/v3" xmlns:xsi="http://www.w3.org/2001/XMLSchema-instance">
  <metadata>
    <author>
      <name>Tonio Navas</name>
      <email id="supernavas" domain="hotmail.com"/>
    </author>
    <link href="https://www.youtrack.es">
      <text>YouTrack.es</text>
    </link>
    <time>2026-05-10T16:51:47Z</time>
  </metadata>
  <trk>
    <src>https://www.youtrack.es</src>
    <link href="https://www.youtrack.es/ruta/9813-ruta-colowenloc">
      <text>YouTrack.es</text>
    </link>
    <trkseg>
      <trkpt lat="13.66204" lon="-89.24907">
        <ele>837.977</ele>
        <time>2019-12-07T11:15:43Z</time>
      </trkpt>
      <trkpt lat="13.662022" lon="-89.24897">
        <ele>839.119</ele>
        <time>2019-12-07T11:15:48Z</time>
      </trkpt>
      <trkpt lat="13.662053" lon="-89.24886">
        <ele>839.932</ele>
        <time>2019-12-07T11:15:53Z</time>
      </trkpt>
      <trkpt lat="13.662087" lon="-89.24877">
        <ele>840.54</ele>
        <time>2019-12-07T11:15:58Z</time>
      </trkpt>
      <trkpt lat="13.662116" lon="-89.24867">
        <ele>841.483</ele>
        <time>2019-12-07T11:16:03Z</time>
      </trkpt>
      <trkpt lat="13.662139" lon="-89.24856">
        <ele>841.719</ele>
        <time>2019-12-07T11:16:08Z</time>
      </trkpt>
      <trkpt lat="13.662153" lon="-89.248474">
        <ele>842.414</ele>
        <time>2019-12-07T11:16:13Z</time>
      </trkpt>
      <trkpt lat="13.662169" lon="-89.24839">
        <ele>843.2</ele>
        <time>2019-12-07T11:16:18Z</time>
      </trkpt>
      <trkpt lat="13.662182" lon="-89.248276">
        <ele>843.434</ele>
        <time>2019-12-07T11:16:23Z</time>
      </trkpt>
      <trkpt lat="13.662178" lon="-89.24817">
        <ele>843.7</ele>
        <time>2019-12-07T11:16:28Z</time>
      </trkpt>
      <trkpt lat="13.662174" lon="-89.24805">
        <ele>843.985</ele>
        <time>2019-12-07T11:16:33Z</time>
      </trkpt>
      <trkpt lat="13.662188" lon="-89.24794">
        <ele>843.937</ele>
        <time>2019-12-07T11:16:38Z</time>
      </trkpt>
      <trkpt lat="13.662196" lon="-89.24783">
        <ele>843.652</ele>
        <time>2019-12-07T11:16:43Z</time>
      </trkpt>
      <trkpt lat="13.662205" lon="-89.24773">
        <ele>843.36</ele>
        <time>2019-12-07T11:16:48Z</time>
      </trkpt>
      <trkpt lat="13.662204" lon="-89.24763">
        <ele>843.222</ele>
        <time>2019-12-07T11:16:53Z</time>
      </trkpt>
      <trkpt lat="13.662176" lon="-89.24761">
        <ele>842.766</ele>
        <time>2019-12-07T11:16:58Z</time>
      </trkpt>
      <trkpt lat="13.662201" lon="-89.24755">
        <ele>842.226</ele>
        <time>2019-12-07T11:17:08Z</time>
      </trkpt>
      <trkpt lat="13.662215" lon="-89.24742">
        <ele>841.908</ele>
        <time>2019-12-07T11:17:13Z</time>
      </trkpt>
      <trkpt lat="13.662224" lon="-89.24737">
        <ele>840.442</ele>
        <time>2019-12-07T11:17:18Z</time>
      </trkpt>
      <trkpt lat="13.66224" lon="-89.24725">
        <ele>839.411</ele>
        <time>2019-12-07T11:17:38Z</time>
      </trkpt>
      <trkpt lat="13.662232" lon="-89.247154">
        <ele>838.851</ele>
        <time>2019-12-07T11:17:58Z</time>
      </trkpt>
      <trkpt lat="13.662278" lon="-89.24702">
        <ele>838.603</ele>
        <time>2019-12-07T11:18:18Z</time>
      </trkpt>
      <trkpt lat="13.662318" lon="-89.24689">
        <ele>838.187</ele>
        <time>2019-12-07T11:18:23Z</time>
      </trkpt>
      <trkpt lat="13.662361" lon="-89.24676">
        <ele>837.729</ele>
        <time>2019-12-07T11:18:28Z</time>
      </trkpt>
      <trkpt lat="13.662406" lon="-89.24663">
        <ele>837.068</ele>
        <time>2019-12-07T11:18:33Z</time>
      </trkpt>
      <trkpt lat="13.66245" lon="-89.24648">
        <ele>836.962</ele>
        <time>2019-12-07T11:18:38Z</time>
      </trkpt>
      <trkpt lat="13.662483" lon="-89.246376">
        <ele>836.771</ele>
        <time>2019-12-07T11:18:43Z</time>
      </trkpt>
      <trkpt lat="13.662529" lon="-89.246254">
        <ele>836.574</ele>
        <time>2019-12-07T11:18:48Z</time>
      </trkpt>
      <trkpt lat="13.662585" lon="-89.24613">
        <ele>836.652</ele>
        <time>2019-12-07T11:18:53Z</time>
      </trkpt>
      <trkpt lat="13.66264" lon="-89.24601">
        <ele>836.564</ele>
        <time>2019-12-07T11:18:58Z</time>
      </trkpt>
      <trkpt lat="13.662674" lon="-89.245895">
        <ele>836.751</ele>
        <time>2019-12-07T11:19:03Z</time>
      </trkpt>
      <trkpt lat="13.662709" lon="-89.24579">
        <ele>837.058</ele>
        <time>2019-12-07T11:19:08Z</time>
      </trkpt>
      <trkpt lat="13.66276" lon="-89.24566">
        <ele>837.053</ele>
        <time>2019-12-07T11:19:13Z</time>
      </trkpt>
      <trkpt lat="13.662796" lon="-89.24554">
        <ele>837.79</ele>
        <time>2019-12-07T11:19:18Z</time>
      </trkpt>
      <trkpt lat="13.662845" lon="-89.24541">
        <ele>837.956</ele>
        <time>2019-12-07T11:19:23Z</time>
      </trkpt>
      <trkpt lat="13.662887" lon="-89.24528">
        <ele>838.251</ele>
        <time>2019-12-07T11:19:28Z</time>
      </trkpt>
      <trkpt lat="13.662932" lon="-89.24514">
        <ele>838.464</ele>
        <time>2019-12-07T11:19:33Z</time>
      </trkpt>
      <trkpt lat="13.662967" lon="-89.245026">
        <ele>839.081</ele>
        <time>2019-12-07T11:19:38Z</time>
      </trkpt>
      <trkpt lat="13.662996" lon="-89.2449">
        <ele>839.538</ele>
        <time>2019-12-07T11:19:43Z</time>
      </trkpt>
      <trkpt lat="13.66302" lon="-89.244774">
        <ele>840.034</ele>
        <time>2019-12-07T11:19:48Z</time>
      </trkpt>
      <trkpt lat="13.66304" lon="-89.24466">
        <ele>840.33</ele>
        <time>2019-12-07T11:19:53Z</time>
      </trkpt>
      <trkpt lat="13.663058" lon="-89.24453">
        <ele>840.912</ele>
        <time>2019-12-07T11:19:58Z</time>
      </trkpt>
      <trkpt lat="13.663075" lon="-89.24439">
        <ele>841.78</ele>
        <time>2019-12-07T11:20:03Z</time>
      </trkpt>
      <trkpt lat="13.663074" lon="-89.24426">
        <ele>842.218</ele>
        <time>2019-12-07T11:20:08Z</time>
      </trkpt>
      <trkpt lat="13.663059" lon="-89.244125">
        <ele>842.34</ele>
        <time>2019-12-07T11:20:13Z</time>
      </trkpt>
      <trkpt lat="13.663046" lon="-89.24401">
        <ele>843.435</ele>
        <time>2019-12-07T11:20:18Z</time>
      </trkpt>
      <trkpt lat="13.663023" lon="-89.24387">
        <ele>843.837</ele>
        <time>2019-12-07T11:20:23Z</time>
      </trkpt>
      <trkpt lat="13.663009" lon="-89.24377">
        <ele>844.606</ele>
        <time>2019-12-07T11:20:28Z</time>
      </trkpt>
      <trkpt lat="13.662989" lon="-89.24365">
        <ele>845.427</ele>
        <time>2019-12-07T11:20:33Z</time>
      </trkpt>
      <trkpt lat="13.662959" lon="-89.24352">
        <ele>846.136</ele>
        <time>2019-12-07T11:20:38Z</time>
      </trkpt>
      <trkpt lat="13.662928" lon="-89.243416">
        <ele>846.944</ele>
        <time>2019-12-07T11:20:43Z</time>
      </trkpt>
      <trkpt lat="13.662895" lon="-89.2433">
        <ele>847.611</ele>
        <time>2019-12-07T11:20:48Z</time>
      </trkpt>
      <trkpt lat="13.662862" lon="-89.24321">
        <ele>848.155</ele>
        <time>2019-12-07T11:20:53Z</time>
      </trkpt>
      <trkpt lat="13.662804" lon="-89.24309">
        <ele>848.411</ele>
        <time>2019-12-07T11:20:58Z</time>
      </trkpt>
      <trkpt lat="13.6627655" lon="-89.24298">
        <ele>849.048</ele>
        <time>2019-12-07T11:21:03Z</time>
      </trkpt>
      <trkpt lat="13.662711" lon="-89.242874">
        <ele>849.725</ele>
        <time>2019-12-07T11:21:08Z</time>
      </trkpt>
      <trkpt lat="13.662655" lon="-89.242775">
        <ele>850.017</ele>
        <time>2019-12-07T11:21:13Z</time>
      </trkpt>
      <trkpt lat="13.66261" lon="-89.24267">
        <ele>850.916</ele>
        <time>2019-12-07T11:21:18Z</time>
      </trkpt>
      <trkpt lat="13.662571" lon="-89.24256">
        <ele>851.581</ele>
        <time>2019-12-07T11:21:23Z</time>
      </trkpt>
      <trkpt lat="13.662532" lon="-89.24246">
        <ele>852.202</ele>
        <time>2019-12-07T11:21:28Z</time>
      </trkpt>
      <trkpt lat="13.662481" lon="-89.24236">
        <ele>852.968</ele>
        <time>2019-12-07T11:21:33Z</time>
      </trkpt>
      <trkpt lat="13.662438" lon="-89.242256">
        <ele>853.462</ele>
        <time>2019-12-07T11:21:38Z</time>
      </trkpt>
      <trkpt lat="13.662398" lon="-89.24215">
        <ele>854.013</ele>
        <time>2019-12-07T11:21:43Z</time>
      </trkpt>
      <trkpt lat="13.662347" lon="-89.242065">
        <ele>854.972</ele>
        <time>2019-12-07T11:21:48Z</time>
      </trkpt>
      <trkpt lat="13.662314" lon="-89.241974">
        <ele>855.576</ele>
        <time>2019-12-07T11:21:53Z</time>
      </trkpt>
      <trkpt lat="13.662267" lon="-89.24186">
        <ele>856.273</ele>
        <time>2019-12-07T11:21:58Z</time>
      </trkpt>
      <trkpt lat="13.6622305" lon="-89.24177">
        <ele>857.051</ele>
        <time>2019-12-07T11:22:03Z</time>
      </trkpt>
      <trkpt lat="13.662188" lon="-89.24166">
        <ele>857.755</ele>
        <time>2019-12-07T11:22:08Z</time>
      </trkpt>
      <trkpt lat="13.662164" lon="-89.241585">
        <ele>858.789</ele>
        <time>2019-12-07T11:22:13Z</time>
      </trkpt>
      <trkpt lat="13.662125" lon="-89.24148">
        <ele>859.216</ele>
        <time>2019-12-07T11:22:18Z</time>
      </trkpt>
      <trkpt lat="13.662106" lon="-89.24138">
        <ele>860.115</ele>
        <time>2019-12-07T11:22:23Z</time>
      </trkpt>
      <trkpt lat="13.662095" lon="-89.24128">
        <ele>861.263</ele>
        <time>2019-12-07T11:22:28Z</time>
      </trkpt>
      <trkpt lat="13.66208" lon="-89.24118">
        <ele>861.563</ele>
        <time>2019-12-07T11:22:33Z</time>
      </trkpt>
      <trkpt lat="13.662048" lon="-89.24106">
        <ele>862.439</ele>
        <time>2019-12-07T11:22:38Z</time>
      </trkpt>
      <trkpt lat="13.662002" lon="-89.24096">
        <ele>863.276</ele>
        <time>2019-12-07T11:22:43Z</time>
      </trkpt>
      <trkpt lat="13.661945" lon="-89.24085">
        <ele>863.963</ele>
        <time>2019-12-07T11:22:48Z</time>
      </trkpt>
      <trkpt lat="13.661902" lon="-89.24075">
        <ele>864.574</ele>
        <time>2019-12-07T11:22:53Z</time>
      </trkpt>
      <trkpt lat="13.661849" lon="-89.24065">
        <ele>865.362</ele>
        <time>2019-12-07T11:22:58Z</time>
      </trkpt>
      <trkpt lat="13.661801" lon="-89.24056">
        <ele>865.98</ele>
        <time>2019-12-07T11:23:03Z</time>
      </trkpt>
      <trkpt lat="13.661764" lon="-89.240486">
        <ele>867.146</ele>
        <time>2019-12-07T11:23:08Z</time>
      </trkpt>
      <trkpt lat="13.661731" lon="-89.24038">
        <ele>867.736</ele>
        <time>2019-12-07T11:23:13Z</time>
      </trkpt>
      <trkpt lat="13.66169" lon="-89.240265">
        <ele>868.475</ele>
        <time>2019-12-07T11:23:18Z</time>
      </trkpt>
      <trkpt lat="13.661652" lon="-89.240166">
        <ele>869.328</ele>
        <time>2019-12-07T11:23:23Z</time>
      </trkpt>
      <trkpt lat="13.661584" lon="-89.24006">
        <ele>870.106</ele>
        <time>2019-12-07T11:23:28Z</time>
      </trkpt>
      <trkpt lat="13.661546" lon="-89.23996">
        <ele>870.439</ele>
        <time>2019-12-07T11:23:33Z</time>
      </trkpt>
      <trkpt lat="13.661515" lon="-89.23985">
        <ele>871.153</ele>
        <time>2019-12-07T11:23:38Z</time>
      </trkpt>
      <trkpt lat="13.661463" lon="-89.239746">
        <ele>871.759</ele>
        <time>2019-12-07T11:23:43Z</time>
      </trkpt>
      <trkpt lat="13.661434" lon="-89.23965">
        <ele>872.35</ele>
        <time>2019-12-07T11:23:48Z</time>
      </trkpt>
      <trkpt lat="13.661389" lon="-89.239525">
        <ele>873.251</ele>
        <time>2019-12-07T11:23:53Z</time>
      </trkpt>
      <trkpt lat="13.661356" lon="-89.23941">
        <ele>873.813</ele>
        <time>2019-12-07T11:23:58Z</time>
      </trkpt>
      <trkpt lat="13.66132" lon="-89.23932">
        <ele>874.55</ele>
        <time>2019-12-07T11:24:03Z</time>
      </trkpt>
      <trkpt lat="13.661277" lon="-89.23922">
        <ele>875.067</ele>
        <time>2019-12-07T11:24:08Z</time>
      </trkpt>
      <trkpt lat="13.661235" lon="-89.23911">
        <ele>875.782</ele>
        <time>2019-12-07T11:24:13Z</time>
      </trkpt>
      <trkpt lat="13.661208" lon="-89.23902">
        <ele>876.571</ele>
        <time>2019-12-07T11:24:18Z</time>
      </trkpt>
      <trkpt lat="13.661178" lon="-89.23892">
        <ele>877.311</ele>
        <time>2019-12-07T11:24:23Z</time>
      </trkpt>
      <trkpt lat="13.66115" lon="-89.23882">
        <ele>877.801</ele>
        <time>2019-12-07T11:24:28Z</time>
      </trkpt>
      <trkpt lat="13.661099" lon="-89.23873">
        <ele>878.556</ele>
        <time>2019-12-07T11:24:33Z</time>
      </trkpt>
      <trkpt lat="13.661052" lon="-89.23863">
        <ele>879.68</ele>
        <time>2019-12-07T11:24:38Z</time>
      </trkpt>
      <trkpt lat="13.661019" lon="-89.238525">
        <ele>880.063</ele>
        <time>2019-12-07T11:24:43Z</time>
      </trkpt>
      <trkpt lat="13.660984" lon="-89.23843">
        <ele>880.982</ele>
        <time>2019-12-07T11:24:48Z</time>
      </trkpt>
      <trkpt lat="13.660954" lon="-89.23834">
        <ele>881.705</ele>
        <time>2019-12-07T11:24:53Z</time>
      </trkpt>
      <trkpt lat="13.660929" lon="-89.238235">
        <ele>882.056</ele>
        <time>2019-12-07T11:24:58Z</time>
      </trkpt>
      <trkpt lat="13.660937" lon="-89.23814">
        <ele>882.825</ele>
        <time>2019-12-07T11:25:03Z</time>
      </trkpt>
      <trkpt lat="13.660948" lon="-89.23804">
        <ele>883.289</ele>
        <time>2019-12-07T11:25:08Z</time>
      </trkpt>
      <trkpt lat="13.660942" lon="-89.23793">
        <ele>883.751</ele>
        <time>2019-12-07T11:25:13Z</time>
      </trkpt>
      <trkpt lat="13.660947" lon="-89.237854">
        <ele>883.751</ele>
        <time>2019-12-07T11:25:18Z</time>
      </trkpt>
      <trkpt lat="13.660947" lon="-89.237854">
        <ele>885.517</ele>
        <time>2019-12-07T11:25:23Z</time>
      </trkpt>
      <trkpt lat="13.660987" lon="-89.237686">
        <ele>886.612</ele>
        <time>2019-12-07T11:25:28Z</time>
      </trkpt>
      <trkpt lat="13.660967" lon="-89.237564">
        <ele>887.353</ele>
        <time>2019-12-07T11:25:33Z</time>
      </trkpt>
      <trkpt lat="13.660967" lon="-89.237564">
        <ele>888.717</ele>
        <time>2019-12-07T11:25:48Z</time>
      </trkpt>
      <trkpt lat="13.660956" lon="-89.23706">
        <ele>889.278</ele>
        <time>2019-12-07T11:25:58Z</time>
      </trkpt>
      <trkpt lat="13.660957" lon="-89.23696">
        <ele>890.016</ele>
        <time>2019-12-07T11:26:03Z</time>
      </trkpt>
      <trkpt lat="13.660965" lon="-89.23681">
        <ele>891.755</ele>
        <time>2019-12-07T11:26:08Z</time>
      </trkpt>
      <trkpt lat="13.6609" lon="-89.236534">
        <ele>893.015</ele>
        <time>2019-12-07T11:26:18Z</time>
      </trkpt>
      <trkpt lat="13.660667" lon="-89.23629">
        <ele>893.349</ele>
        <time>2019-12-07T11:26:28Z</time>
      </trkpt>
      <trkpt lat="13.660568" lon="-89.23621">
        <ele>893.625</ele>
        <time>2019-12-07T11:26:33Z</time>
      </trkpt>
      <trkpt lat="13.660457" lon="-89.23614">
        <ele>893.735</ele>
        <time>2019-12-07T11:26:38Z</time>
      </trkpt>
      <trkpt lat="13.660292" lon="-89.2361">
        <ele>894.07</ele>
        <time>2019-12-07T11:26:43Z</time>
      </trkpt>
      <trkpt lat="13.660174" lon="-89.236084">
        <ele>894.348</ele>
        <time>2019-12-07T11:26:48Z</time>
      </trkpt>
      <trkpt lat="13.660094" lon="-89.236115">
        <ele>894.399</ele>
        <time>2019-12-07T11:26:53Z</time>
      </trkpt>
      <trkpt lat="13.660045" lon="-89.23617">
        <ele>894.857</ele>
        <time>2019-12-07T11:26:58Z</time>
      </trkpt>
      <trkpt lat="13.660004" lon="-89.23619">
        <ele>895.351</ele>
        <time>2019-12-07T11:27:03Z</time>
      </trkpt>
      <trkpt lat="13.659873" lon="-89.236244">
        <ele>896.39</ele>
        <time>2019-12-07T11:27:33Z</time>
      </trkpt>
      <trkpt lat="13.659768" lon="-89.236275">
        <ele>897.38</ele>
        <time>2019-12-07T11:27:38Z</time>
      </trkpt>
      <trkpt lat="13.659652" lon="-89.236305">
        <ele>898.398</ele>
        <time>2019-12-07T11:27:43Z</time>
      </trkpt>
      <trkpt lat="13.659547" lon="-89.236336">
        <ele>900.946</ele>
        <time>2019-12-07T11:27:48Z</time>
      </trkpt>
      <trkpt lat="13.65936" lon="-89.236374">
        <ele>901.926</ele>
        <time>2019-12-07T11:27:58Z</time>
      </trkpt>
      <trkpt lat="13.659273" lon="-89.236374">
        <ele>902.315</ele>
        <time>2019-12-07T11:28:08Z</time>
      </trkpt>
      <trkpt lat="13.65931" lon="-89.23641">
        <ele>903.098</ele>
        <time>2019-12-07T11:28:18Z</time>
      </trkpt>
      <trkpt lat="13.659253" lon="-89.23638">
        <ele>903.952</ele>
        <time>2019-12-07T11:28:28Z</time>
      </trkpt>
      <trkpt lat="13.659188" lon="-89.23635">
        <ele>905.62</ele>
        <time>2019-12-07T11:28:33Z</time>
      </trkpt>
      <trkpt lat="13.65901" lon="-89.23626">
        <ele>907.405</ele>
        <time>2019-12-07T11:28:43Z</time>
      </trkpt>
      <trkpt lat="13.658833" lon="-89.23611">
        <ele>909.04</ele>
        <time>2019-12-07T11:28:53Z</time>
      </trkpt>
      <trkpt lat="13.658758" lon="-89.236015">
        <ele>910.23</ele>
        <time>2019-12-07T11:28:58Z</time>
      </trkpt>
      <trkpt lat="13.658684" lon="-89.23592">
        <ele>911.264</ele>
        <time>2019-12-07T11:29:03Z</time>
      </trkpt>
      <trkpt lat="13.658609" lon="-89.23583">
        <ele>912.801</ele>
        <time>2019-12-07T11:29:08Z</time>
      </trkpt>
      <trkpt lat="13.658544" lon="-89.23575">
        <ele>914.414</ele>
        <time>2019-12-07T11:29:13Z</time>
      </trkpt>
      <trkpt lat="13.658483" lon="-89.235664">
        <ele>917.012</ele>
        <time>2019-12-07T11:29:18Z</time>
      </trkpt>
      <trkpt lat="13.658357" lon="-89.23549">
        <ele>919.991</ele>
        <time>2019-12-07T11:29:28Z</time>
      </trkpt>
      <trkpt lat="13.658257" lon="-89.2353">
        <ele>922.637</ele>
        <time>2019-12-07T11:29:38Z</time>
      </trkpt>
      <trkpt lat="13.658157" lon="-89.2351">
        <ele>923.594</ele>
        <time>2019-12-07T11:29:48Z</time>
      </trkpt>
      <trkpt lat="13.658115" lon="-89.23503">
        <ele>924.652</ele>
        <time>2019-12-07T11:29:53Z</time>
      </trkpt>
      <trkpt lat="13.658097" lon="-89.23499">
        <ele>925.687</ele>
        <time>2019-12-07T11:29:58Z</time>
      </trkpt>
      <trkpt lat="13.658067" lon="-89.234924">
        <ele>926.94</ele>
        <time>2019-12-07T11:30:03Z</time>
      </trkpt>
      <trkpt lat="13.658037" lon="-89.23486">
        <ele>928.517</ele>
        <time>2019-12-07T11:30:08Z</time>
      </trkpt>
      <trkpt lat="13.658004" lon="-89.234764">
        <ele>930.875</ele>
        <time>2019-12-07T11:30:13Z</time>
      </trkpt>
      <trkpt lat="13.65794" lon="-89.2346">
        <ele>931.412</ele>
        <time>2019-12-07T11:30:23Z</time>
      </trkpt>
      <trkpt lat="13.657884" lon="-89.23452">
        <ele>932.644</ele>
        <time>2019-12-07T11:30:33Z</time>
      </trkpt>
      <trkpt lat="13.657886" lon="-89.23441">
        <ele>933.539</ele>
        <time>2019-12-07T11:30:43Z</time>
      </trkpt>
      <trkpt lat="13.6578865" lon="-89.23433">
        <ele>934.169</ele>
        <time>2019-12-07T11:30:48Z</time>
      </trkpt>
      <trkpt lat="13.657898" lon="-89.23423">
        <ele>935.108</ele>
        <time>2019-12-07T11:30:53Z</time>
      </trkpt>
      <trkpt lat="13.657907" lon="-89.23412">
        <ele>934.978</ele>
        <time>2019-12-07T11:30:58Z</time>
      </trkpt>
      <trkpt lat="13.6579485" lon="-89.233864">
        <ele>934.604</ele>
        <time>2019-12-07T11:31:08Z</time>
      </trkpt>
      <trkpt lat="13.657967" lon="-89.23362">
        <ele>934.555</ele>
        <time>2019-12-07T11:31:18Z</time>
      </trkpt>
      <trkpt lat="13.65798" lon="-89.2335">
        <ele>934.709</ele>
        <time>2019-12-07T11:31:23Z</time>
      </trkpt>
      <trkpt lat="13.657998" lon="-89.23337">
        <ele>934.999</ele>
        <time>2019-12-07T11:31:28Z</time>
      </trkpt>
      <trkpt lat="13.658012" lon="-89.23323">
        <ele>935.533</ele>
        <time>2019-12-07T11:31:33Z</time>
      </trkpt>
      <trkpt lat="13.658026" lon="-89.23313">
        <ele>935.606</ele>
        <time>2019-12-07T11:31:38Z</time>
      </trkpt>
      <trkpt lat="13.658032" lon="-89.23301">
        <ele>935.718</ele>
        <time>2019-12-07T11:31:43Z</time>
      </trkpt>
      <trkpt lat="13.658076" lon="-89.23273">
        <ele>934.917</ele>
        <time>2019-12-07T11:31:53Z</time>
      </trkpt>
      <trkpt lat="13.65809" lon="-89.23252">
        <ele>934.793</ele>
        <time>2019-12-07T11:32:03Z</time>
      </trkpt>
      <trkpt lat="13.658067" lon="-89.23225">
        <ele>935.1</ele>
        <time>2019-12-07T11:32:13Z</time>
      </trkpt>
      <trkpt lat="13.658051" lon="-89.23214">
        <ele>935.049</ele>
        <time>2019-12-07T11:32:18Z</time>
      </trkpt>
      <trkpt lat="13.657995" lon="-89.23206">
        <ele>935.351</ele>
        <time>2019-12-07T11:32:23Z</time>
      </trkpt>
      <trkpt lat="13.657948" lon="-89.231995">
        <ele>936.623</ele>
        <time>2019-12-07T11:32:28Z</time>
      </trkpt>
      <trkpt lat="13.657913" lon="-89.23191">
        <ele>937.067</ele>
        <time>2019-12-07T11:32:33Z</time>
      </trkpt>
      <trkpt lat="13.657881" lon="-89.23182">
        <ele>939.002</ele>
        <time>2019-12-07T11:32:38Z</time>
      </trkpt>
      <trkpt lat="13.657834" lon="-89.23159">
        <ele>939.828</ele>
        <time>2019-12-07T11:32:48Z</time>
      </trkpt>
      <trkpt lat="13.657803" lon="-89.23152">
        <ele>940.945</ele>
        <time>2019-12-07T11:32:58Z</time>
      </trkpt>
      <trkpt lat="13.657733" lon="-89.23147">
        <ele>942.754</ele>
        <time>2019-12-07T11:33:08Z</time>
      </trkpt>
      <trkpt lat="13.657668" lon="-89.23143">
        <ele>943.193</ele>
        <time>2019-12-07T11:33:13Z</time>
      </trkpt>
      <trkpt lat="13.657595" lon="-89.231415">
        <ele>944.453</ele>
        <time>2019-12-07T11:33:18Z</time>
      </trkpt>
      <trkpt lat="13.657499" lon="-89.231384">
        <ele>946.351</ele>
        <time>2019-12-07T11:33:23Z</time>
      </trkpt>
      <trkpt lat="13.657341" lon="-89.231346">
        <ele>949.522</ele>
        <time>2019-12-07T11:33:33Z</time>
      </trkpt>
      <trkpt lat="13.657174" lon="-89.23131">
        <ele>950.754</ele>
        <time>2019-12-07T11:33:43Z</time>
      </trkpt>
      <trkpt lat="13.657062" lon="-89.23129">
        <ele>952.211</ele>
        <time>2019-12-07T11:33:48Z</time>
      </trkpt>
      <trkpt lat="13.656973" lon="-89.23128">
        <ele>953.628</ele>
        <time>2019-12-07T11:33:53Z</time>
      </trkpt>
      <trkpt lat="13.656892" lon="-89.23127">
        <ele>954.303</ele>
        <time>2019-12-07T11:33:58Z</time>
      </trkpt>
      <trkpt lat="13.656805" lon="-89.231285">
        <ele>955.253</ele>
        <time>2019-12-07T11:34:03Z</time>
      </trkpt>
      <trkpt lat="13.656732" lon="-89.231316">
        <ele>955.605</ele>
        <time>2019-12-07T11:34:08Z</time>
      </trkpt>
      <trkpt lat="13.656572" lon="-89.23142">
        <ele>954.983</ele>
        <time>2019-12-07T11:34:18Z</time>
      </trkpt>
      <trkpt lat="13.656476" lon="-89.2315">
        <ele>953.59</ele>
        <time>2019-12-07T11:34:28Z</time>
      </trkpt>
      <trkpt lat="13.65633" lon="-89.23147">
        <ele>953.75</ele>
        <time>2019-12-07T11:34:38Z</time>
      </trkpt>
      <trkpt lat="13.656286" lon="-89.2314">
        <ele>953.362</ele>
        <time>2019-12-07T11:34:43Z</time>
      </trkpt>
      <trkpt lat="13.656242" lon="-89.23131">
        <ele>953.464</ele>
        <time>2019-12-07T11:34:48Z</time>
      </trkpt>
      <trkpt lat="13.656213" lon="-89.23119">
        <ele>953.31</ele>
        <time>2019-12-07T11:34:53Z</time>
      </trkpt>
      <trkpt lat="13.656155" lon="-89.23105">
        <ele>954.117</ele>
        <time>2019-12-07T11:34:58Z</time>
      </trkpt>
      <trkpt lat="13.656127" lon="-89.230934">
        <ele>956.053</ele>
        <time>2019-12-07T11:35:03Z</time>
      </trkpt>
      <trkpt lat="13.656217" lon="-89.23072">
        <ele>955.347</ele>
        <time>2019-12-07T11:35:13Z</time>
      </trkpt>
      <trkpt lat="13.656323" lon="-89.23054">
        <ele>954.096</ele>
        <time>2019-12-07T11:35:23Z</time>
      </trkpt>
      <trkpt lat="13.656363" lon="-89.23043">
        <ele>953.747</ele>
        <time>2019-12-07T11:35:28Z</time>
      </trkpt>
      <trkpt lat="13.6564045" lon="-89.23033">
        <ele>955.174</ele>
        <time>2019-12-07T11:35:33Z</time>
      </trkpt>
      <trkpt lat="13.656423" lon="-89.230255">
        <ele>957.127</ele>
        <time>2019-12-07T11:35:38Z</time>
      </trkpt>
      <trkpt lat="13.656422" lon="-89.23018">
        <ele>957.153</ele>
        <time>2019-12-07T11:35:43Z</time>
      </trkpt>
      <trkpt lat="13.656411" lon="-89.23009">
        <ele>956.281</ele>
        <time>2019-12-07T11:35:48Z</time>
      </trkpt>
      <trkpt lat="13.656326" lon="-89.229904">
        <ele>951.795</ele>
        <time>2019-12-07T11:35:58Z</time>
      </trkpt>
      <trkpt lat="13.656212" lon="-89.22973">
        <ele>951.243</ele>
        <time>2019-12-07T11:36:08Z</time>
      </trkpt>
      <trkpt lat="13.656139" lon="-89.22964">
        <ele>952.134</ele>
        <time>2019-12-07T11:36:13Z</time>
      </trkpt>
      <trkpt lat="13.65609" lon="-89.229546">
        <ele>953.754</ele>
        <time>2019-12-07T11:36:18Z</time>
      </trkpt>
      <trkpt lat="13.65605" lon="-89.22943">
        <ele>955.343</ele>
        <time>2019-12-07T11:36:23Z</time>
      </trkpt>
      <trkpt lat="13.656014" lon="-89.22931">
        <ele>955.789</ele>
        <time>2019-12-07T11:36:28Z</time>
      </trkpt>
      <trkpt lat="13.655997" lon="-89.22926">
        <ele>957.551</ele>
        <time>2019-12-07T11:36:33Z</time>
      </trkpt>
      <trkpt lat="13.655833" lon="-89.22922">
        <ele>959.701</ele>
        <time>2019-12-07T11:36:53Z</time>
      </trkpt>
      <trkpt lat="13.655685" lon="-89.22926">
        <ele>961.021</ele>
        <time>2019-12-07T11:37:03Z</time>
      </trkpt>
      <trkpt lat="13.655584" lon="-89.22929">
        <ele>962.112</ele>
        <time>2019-12-07T11:37:08Z</time>
      </trkpt>
      <trkpt lat="13.655494" lon="-89.22931">
        <ele>963.439</ele>
        <time>2019-12-07T11:37:13Z</time>
      </trkpt>
      <trkpt lat="13.655406" lon="-89.22933">
        <ele>964.304</ele>
        <time>2019-12-07T11:37:18Z</time>
      </trkpt>
      <trkpt lat="13.655302" lon="-89.22935">
        <ele>965.16</ele>
        <time>2019-12-07T11:37:23Z</time>
      </trkpt>
      <trkpt lat="13.655218" lon="-89.229355">
        <ele>966.695</ele>
        <time>2019-12-07T11:37:28Z</time>
      </trkpt>
      <trkpt lat="13.655084" lon="-89.229355">
        <ele>968.342</ele>
        <time>2019-12-07T11:37:38Z</time>
      </trkpt>
      <trkpt lat="13.654933" lon="-89.2293">
        <ele>969.28</ele>
        <time>2019-12-07T11:37:48Z</time>
      </trkpt>
      <trkpt lat="13.65483" lon="-89.22928">
        <ele>970.09</ele>
        <time>2019-12-07T11:37:53Z</time>
      </trkpt>
      <trkpt lat="13.654723" lon="-89.22926">
        <ele>970.67</ele>
        <time>2019-12-07T11:37:58Z</time>
      </trkpt>
      <trkpt lat="13.654627" lon="-89.229256">
        <ele>971.267</ele>
        <time>2019-12-07T11:38:03Z</time>
      </trkpt>
      <trkpt lat="13.654519" lon="-89.22926">
        <ele>971.951</ele>
        <time>2019-12-07T11:38:08Z</time>
      </trkpt>
      <trkpt lat="13.654418" lon="-89.22927">
        <ele>972.554</ele>
        <time>2019-12-07T11:38:13Z</time>
      </trkpt>
      <trkpt lat="13.654289" lon="-89.2293">
        <ele>972.251</ele>
        <time>2019-12-07T11:38:23Z</time>
      </trkpt>
      <trkpt lat="13.654108" lon="-89.229385">
        <ele>971.953</ele>
        <time>2019-12-07T11:38:33Z</time>
      </trkpt>
      <trkpt lat="13.654017" lon="-89.22943">
        <ele>971.811</ele>
        <time>2019-12-07T11:38:38Z</time>
      </trkpt>
      <trkpt lat="13.653914" lon="-89.22948">
        <ele>971.947</ele>
        <time>2019-12-07T11:38:43Z</time>
      </trkpt>
      <trkpt lat="13.653804" lon="-89.22952">
        <ele>971.76</ele>
        <time>2019-12-07T11:38:48Z</time>
      </trkpt>
      <trkpt lat="13.653704" lon="-89.229576">
        <ele>971.377</ele>
        <time>2019-12-07T11:38:53Z</time>
      </trkpt>
      <trkpt lat="13.653618" lon="-89.229645">
        <ele>971.078</ele>
        <time>2019-12-07T11:38:58Z</time>
      </trkpt>
      <trkpt lat="13.653382" lon="-89.22965">
        <ele>970.394</ele>
        <time>2019-12-07T11:39:08Z</time>
      </trkpt>
      <trkpt lat="13.653125" lon="-89.22959">
        <ele>969.486</ele>
        <time>2019-12-07T11:39:18Z</time>
      </trkpt>
      <trkpt lat="13.652875" lon="-89.22955">
        <ele>969.19</ele>
        <time>2019-12-07T11:39:28Z</time>
      </trkpt>
      <trkpt lat="13.652732" lon="-89.22951">
        <ele>968.767</ele>
        <time>2019-12-07T11:39:33Z</time>
      </trkpt>
      <trkpt lat="13.652615" lon="-89.229485">
        <ele>967.659</ele>
        <time>2019-12-07T11:39:38Z</time>
      </trkpt>
      <trkpt lat="13.652496" lon="-89.22949">
        <ele>967.067</ele>
        <time>2019-12-07T11:39:43Z</time>
      </trkpt>
      <trkpt lat="13.652366" lon="-89.22951">
        <ele>966.486</ele>
        <time>2019-12-07T11:39:48Z</time>
      </trkpt>
      <trkpt lat="13.652234" lon="-89.22954">
        <ele>964.822</ele>
        <time>2019-12-07T11:39:53Z</time>
      </trkpt>
      <trkpt lat="13.651997" lon="-89.22961">
        <ele>964.163</ele>
        <time>2019-12-07T11:40:03Z</time>
      </trkpt>
      <trkpt lat="13.651776" lon="-89.22969">
        <ele>964.216</ele>
        <time>2019-12-07T11:40:13Z</time>
      </trkpt>
      <trkpt lat="13.651644" lon="-89.22973">
        <ele>964.565</ele>
        <time>2019-12-07T11:40:18Z</time>
      </trkpt>
      <trkpt lat="13.651513" lon="-89.22976">
        <ele>965.336</ele>
        <time>2019-12-07T11:40:23Z</time>
      </trkpt>
      <trkpt lat="13.651403" lon="-89.22975">
        <ele>966.252</ele>
        <time>2019-12-07T11:40:28Z</time>
      </trkpt>
      <trkpt lat="13.651291" lon="-89.22973">
        <ele>966.787</ele>
        <time>2019-12-07T11:40:33Z</time>
      </trkpt>
      <trkpt lat="13.65118" lon="-89.22968">
        <ele>968.738</ele>
        <time>2019-12-07T11:40:38Z</time>
      </trkpt>
      <trkpt lat="13.650989" lon="-89.229546">
        <ele>969.899</ele>
        <time>2019-12-07T11:40:48Z</time>
      </trkpt>
      <trkpt lat="13.65087" lon="-89.22943">
        <ele>970.558</ele>
        <time>2019-12-07T11:40:58Z</time>
      </trkpt>
      <trkpt lat="13.650826" lon="-89.22938">
        <ele>971.335</ele>
        <time>2019-12-07T11:41:03Z</time>
      </trkpt>
      <trkpt lat="13.650767" lon="-89.22931">
        <ele>971.651</ele>
        <time>2019-12-07T11:41:08Z</time>
      </trkpt>
      <trkpt lat="13.650678" lon="-89.22917">
        <ele>972.6</ele>
        <time>2019-12-07T11:41:13Z</time>
      </trkpt>
      <trkpt lat="13.650595" lon="-89.22906">
        <ele>973.261</ele>
        <time>2019-12-07T11:41:18Z</time>
      </trkpt>
      <trkpt lat="13.650531" lon="-89.22895">
        <ele>973.975</ele>
        <time>2019-12-07T11:41:23Z</time>
      </trkpt>
      <trkpt lat="13.650475" lon="-89.228836">
        <ele>975.12</ele>
        <time>2019-12-07T11:41:28Z</time>
      </trkpt>
      <trkpt lat="13.650431" lon="-89.228745">
        <ele>977.717</ele>
        <time>2019-12-07T11:41:33Z</time>
      </trkpt>
      <trkpt lat="13.650311" lon="-89.22855">
        <ele>980.313</ele>
        <time>2019-12-07T11:41:43Z</time>
      </trkpt>
      <trkpt lat="13.650171" lon="-89.22841">
        <ele>981.787</ele>
        <time>2019-12-07T11:41:53Z</time>
      </trkpt>
      <trkpt lat="13.650078" lon="-89.22833">
        <ele>982.928</ele>
        <time>2019-12-07T11:41:58Z</time>
      </trkpt>
      <trkpt lat="13.649992" lon="-89.22828">
        <ele>984.461</ele>
        <time>2019-12-07T11:42:03Z</time>
      </trkpt>
      <trkpt lat="13.649917" lon="-89.22824">
        <ele>985.645</ele>
        <time>2019-12-07T11:42:08Z</time>
      </trkpt>
      <trkpt lat="13.64983" lon="-89.228195">
        <ele>986.882</ele>
        <time>2019-12-07T11:42:13Z</time>
      </trkpt>
      <trkpt lat="13.6497555" lon="-89.22818">
        <ele>989.651</ele>
        <time>2019-12-07T11:42:18Z</time>
      </trkpt>
      <trkpt lat="13.649579" lon="-89.22814">
        <ele>992.202</ele>
        <time>2019-12-07T11:42:28Z</time>
      </trkpt>
      <trkpt lat="13.649412" lon="-89.22807">
        <ele>993.404</ele>
        <time>2019-12-07T11:42:38Z</time>
      </trkpt>
      <trkpt lat="13.649354" lon="-89.22804">
        <ele>994.435</ele>
        <time>2019-12-07T11:42:43Z</time>
      </trkpt>
      <trkpt lat="13.6492815" lon="-89.228004">
        <ele>995.472</ele>
        <time>2019-12-07T11:42:48Z</time>
      </trkpt>
      <trkpt lat="13.649226" lon="-89.22797">
        <ele>996.573</ele>
        <time>2019-12-07T11:42:53Z</time>
      </trkpt>
      <trkpt lat="13.64915" lon="-89.22793">
        <ele>996.948</ele>
        <time>2019-12-07T11:42:58Z</time>
      </trkpt>
      <trkpt lat="13.649078" lon="-89.22788">
        <ele>996.546</ele>
        <time>2019-12-07T11:43:03Z</time>
      </trkpt>
      <trkpt lat="13.648961" lon="-89.22779">
        <ele>995.618</ele>
        <time>2019-12-07T11:43:13Z</time>
      </trkpt>
      <trkpt lat="13.64883" lon="-89.22764">
        <ele>995.339</ele>
        <time>2019-12-07T11:43:23Z</time>
      </trkpt>
      <trkpt lat="13.648773" lon="-89.22754">
        <ele>995.114</ele>
        <time>2019-12-07T11:43:28Z</time>
      </trkpt>
      <trkpt lat="13.64873" lon="-89.22744">
        <ele>995.248</ele>
        <time>2019-12-07T11:43:33Z</time>
      </trkpt>
      <trkpt lat="13.648697" lon="-89.22733">
        <ele>995.215</ele>
        <time>2019-12-07T11:43:38Z</time>
      </trkpt>
      <trkpt lat="13.648654" lon="-89.22722">
        <ele>995.249</ele>
        <time>2019-12-07T11:43:43Z</time>
      </trkpt>
      <trkpt lat="13.648608" lon="-89.22712">
        <ele>995.202</ele>
        <time>2019-12-07T11:43:48Z</time>
      </trkpt>
      <trkpt lat="13.6484995" lon="-89.22694">
        <ele>995.77</ele>
        <time>2019-12-07T11:43:58Z</time>
      </trkpt>
      <trkpt lat="13.648385" lon="-89.226746">
        <ele>995.762</ele>
        <time>2019-12-07T11:44:08Z</time>
      </trkpt>
      <trkpt lat="13.64821" lon="-89.22661">
        <ele>994.975</ele>
        <time>2019-12-07T11:44:18Z</time>
      </trkpt>
      <trkpt lat="13.64813" lon="-89.22655">
        <ele>994.76</ele>
        <time>2019-12-07T11:44:23Z</time>
      </trkpt>
      <trkpt lat="13.648061" lon="-89.22647">
        <ele>995.083</ele>
        <time>2019-12-07T11:44:28Z</time>
      </trkpt>
      <trkpt lat="13.647985" lon="-89.22635">
        <ele>994.962</ele>
        <time>2019-12-07T11:44:33Z</time>
      </trkpt>
      <trkpt lat="13.647902" lon="-89.22622">
        <ele>995.187</ele>
        <time>2019-12-07T11:44:38Z</time>
      </trkpt>
      <trkpt lat="13.647801" lon="-89.226074">
        <ele>995.307</ele>
        <time>2019-12-07T11:44:43Z</time>
      </trkpt>
      <trkpt lat="13.64765" lon="-89.225845">
        <ele>995.603</ele>
        <time>2019-12-07T11:44:53Z</time>
      </trkpt>
      <trkpt lat="13.647495" lon="-89.225624">
        <ele>995.625</ele>
        <time>2019-12-07T11:45:03Z</time>
      </trkpt>
      <trkpt lat="13.64742" lon="-89.225525">
        <ele>996.049</ele>
        <time>2019-12-07T11:45:08Z</time>
      </trkpt>
      <trkpt lat="13.64734" lon="-89.225426">
        <ele>996.074</ele>
        <time>2019-12-07T11:45:13Z</time>
      </trkpt>
      <trkpt lat="13.647259" lon="-89.22532">
        <ele>996.17</ele>
        <time>2019-12-07T11:45:18Z</time>
      </trkpt>
      <trkpt lat="13.64718" lon="-89.22522">
        <ele>996.46</ele>
        <time>2019-12-07T11:45:23Z</time>
      </trkpt>
      <trkpt lat="13.647098" lon="-89.22511">
        <ele>997.097</ele>
        <time>2019-12-07T11:45:28Z</time>
      </trkpt>
      <trkpt lat="13.64695" lon="-89.22493">
        <ele>997.956</ele>
        <time>2019-12-07T11:45:38Z</time>
      </trkpt>
      <trkpt lat="13.646793" lon="-89.22476">
        <ele>998.616</ele>
        <time>2019-12-07T11:45:48Z</time>
      </trkpt>
      <trkpt lat="13.646713" lon="-89.22467">
        <ele>998.756</ele>
        <time>2019-12-07T11:45:53Z</time>
      </trkpt>
      <trkpt lat="13.64663" lon="-89.224594">
        <ele>1000.012</ele>
        <time>2019-12-07T11:45:58Z</time>
      </trkpt>
      <trkpt lat="13.646567" lon="-89.22452">
        <ele>1000.465</ele>
        <time>2019-12-07T11:46:03Z</time>
      </trkpt>
      <trkpt lat="13.646534" lon="-89.22444">
        <ele>1001.275</ele>
        <time>2019-12-07T11:46:08Z</time>
      </trkpt>
      <trkpt lat="13.646504" lon="-89.22433">
        <ele>1002.359</ele>
        <time>2019-12-07T11:46:13Z</time>
      </trkpt>
      <trkpt lat="13.646473" lon="-89.22421">
        <ele>1003.821</ele>
        <time>2019-12-07T11:46:18Z</time>
      </trkpt>
      <trkpt lat="13.646441" lon="-89.22412">
        <ele>1007.45</ele>
        <time>2019-12-07T11:46:23Z</time>
      </trkpt>
      <trkpt lat="13.646437" lon="-89.223915">
        <ele>1008.37</ele>
        <time>2019-12-07T11:46:33Z</time>
      </trkpt>
      <trkpt lat="13.646446" lon="-89.22384">
        <ele>1008.493</ele>
        <time>2019-12-07T11:46:43Z</time>
      </trkpt>
      <trkpt lat="13.646402" lon="-89.22384">
        <ele>1009.53</ele>
        <time>2019-12-07T11:46:53Z</time>
      </trkpt>
      <trkpt lat="13.646466" lon="-89.22382">
        <ele>1007.609</ele>
        <time>2019-12-07T11:47:18Z</time>
      </trkpt>
      <trkpt lat="13.646413" lon="-89.22386">
        <ele>1008.984</ele>
        <time>2019-12-07T11:47:32Z</time>
      </trkpt>
      <trkpt lat="13.646483" lon="-89.22382">
        <ele>1011.193</ele>
        <time>2019-12-07T11:47:57Z</time>
      </trkpt>
      <trkpt lat="13.646549" lon="-89.22372">
        <ele>1012.193</ele>
        <time>2019-12-07T11:48:03Z</time>
      </trkpt>
      <trkpt lat="13.646647" lon="-89.22357">
        <ele>1010.992</ele>
        <time>2019-12-07T11:48:13Z</time>
      </trkpt>
      <trkpt lat="13.646711" lon="-89.22348">
        <ele>1010.333</ele>
        <time>2019-12-07T11:48:18Z</time>
      </trkpt>
      <trkpt lat="13.64679" lon="-89.22338">
        <ele>1008.285</ele>
        <time>2019-12-07T11:48:23Z</time>
      </trkpt>
      <trkpt lat="13.646879" lon="-89.22327">
        <ele>1005.459</ele>
        <time>2019-12-07T11:48:28Z</time>
      </trkpt>
      <trkpt lat="13.646962" lon="-89.22315">
        <ele>1004.199</ele>
        <time>2019-12-07T11:48:33Z</time>
      </trkpt>
      <trkpt lat="13.647032" lon="-89.22303">
        <ele>1002.695</ele>
        <time>2019-12-07T11:48:38Z</time>
      </trkpt>
      <trkpt lat="13.647113" lon="-89.22292">
        <ele>1002.334</ele>
        <time>2019-12-07T11:48:43Z</time>
      </trkpt>
      <trkpt lat="13.6471195" lon="-89.22278">
        <ele>1000.549</ele>
        <time>2019-12-07T11:48:48Z</time>
      </trkpt>
      <trkpt lat="13.646979" lon="-89.22256">
        <ele>998.946</ele>
        <time>2019-12-07T11:48:58Z</time>
      </trkpt>
      <trkpt lat="13.64689" lon="-89.22247">
        <ele>996.935</ele>
        <time>2019-12-07T11:49:03Z</time>
      </trkpt>
      <trkpt lat="13.64679" lon="-89.22241">
        <ele>995.269</ele>
        <time>2019-12-07T11:49:08Z</time>
      </trkpt>
      <trkpt lat="13.646674" lon="-89.22237">
        <ele>992.61</ele>
        <time>2019-12-07T11:49:13Z</time>
      </trkpt>
      <trkpt lat="13.646573" lon="-89.22232">
        <ele>990.854</ele>
        <time>2019-12-07T11:49:18Z</time>
      </trkpt>
      <trkpt lat="13.646475" lon="-89.22226">
        <ele>988.8</ele>
        <time>2019-12-07T11:49:23Z</time>
      </trkpt>
      <trkpt lat="13.646371" lon="-89.22219">
        <ele>986.873</ele>
        <time>2019-12-07T11:49:28Z</time>
      </trkpt>
      <trkpt lat="13.646311" lon="-89.22212">
        <ele>984.787</ele>
        <time>2019-12-07T11:49:33Z</time>
      </trkpt>
      <trkpt lat="13.646209" lon="-89.22196">
        <ele>984.157</ele>
        <time>2019-12-07T11:49:43Z</time>
      </trkpt>
      <trkpt lat="13.646055" lon="-89.2217">
        <ele>983.956</ele>
        <time>2019-12-07T11:49:53Z</time>
      </trkpt>
      <trkpt lat="13.645981" lon="-89.22157">
        <ele>983.368</ele>
        <time>2019-12-07T11:49:58Z</time>
      </trkpt>
      <trkpt lat="13.645904" lon="-89.22147">
        <ele>983.072</ele>
        <time>2019-12-07T11:50:03Z</time>
      </trkpt>
      <trkpt lat="13.645834" lon="-89.22137">
        <ele>982.562</ele>
        <time>2019-12-07T11:50:08Z</time>
      </trkpt>
      <trkpt lat="13.645738" lon="-89.22127">
        <ele>981.297</ele>
        <time>2019-12-07T11:50:13Z</time>
      </trkpt>
      <trkpt lat="13.645636" lon="-89.221214">
        <ele>980.423</ele>
        <time>2019-12-07T11:50:18Z</time>
      </trkpt>
      <trkpt lat="13.645429" lon="-89.22102">
        <ele>980.319</ele>
        <time>2019-12-07T11:50:28Z</time>
      </trkpt>
      <trkpt lat="13.645226" lon="-89.22086">
        <ele>980.619</ele>
        <time>2019-12-07T11:50:38Z</time>
      </trkpt>
      <trkpt lat="13.645106" lon="-89.220795">
        <ele>980.497</ele>
        <time>2019-12-07T11:50:43Z</time>
      </trkpt>
      <trkpt lat="13.644978" lon="-89.22074">
        <ele>980.375</ele>
        <time>2019-12-07T11:50:48Z</time>
      </trkpt>
      <trkpt lat="13.644871" lon="-89.22069">
        <ele>979.989</ele>
        <time>2019-12-07T11:50:53Z</time>
      </trkpt>
      <trkpt lat="13.644786" lon="-89.220634">
        <ele>978.592</ele>
        <time>2019-12-07T11:50:58Z</time>
      </trkpt>
      <trkpt lat="13.644688" lon="-89.22058">
        <ele>975.031</ele>
        <time>2019-12-07T11:51:03Z</time>
      </trkpt>
      <trkpt lat="13.644486" lon="-89.22052">
        <ele>974.584</ele>
        <time>2019-12-07T11:51:13Z</time>
      </trkpt>
      <trkpt lat="13.644445" lon="-89.220505">
        <ele>973.89</ele>
        <time>2019-12-07T11:51:23Z</time>
      </trkpt>
      <trkpt lat="13.644379" lon="-89.2206">
        <ele>972.304</ele>
        <time>2019-12-07T11:51:28Z</time>
      </trkpt>
      <trkpt lat="13.644259" lon="-89.22072">
        <ele>971.176</ele>
        <time>2019-12-07T11:51:33Z</time>
      </trkpt>
      <trkpt lat="13.644179" lon="-89.22076">
        <ele>969.692</ele>
        <time>2019-12-07T11:51:38Z</time>
      </trkpt>
      <trkpt lat="13.644063" lon="-89.220726">
        <ele>968.456</ele>
        <time>2019-12-07T11:51:43Z</time>
      </trkpt>
      <trkpt lat="13.643959" lon="-89.22066">
        <ele>966.095</ele>
        <time>2019-12-07T11:51:48Z</time>
      </trkpt>
      <trkpt lat="13.643846" lon="-89.22059">
        <ele>963.538</ele>
        <time>2019-12-07T11:51:53Z</time>
      </trkpt>
      <trkpt lat="13.643725" lon="-89.22053">
        <ele>960.929</ele>
        <time>2019-12-07T11:51:58Z</time>
      </trkpt>
      <trkpt lat="13.643463" lon="-89.22047">
        <ele>957.438</ele>
        <time>2019-12-07T11:52:08Z</time>
      </trkpt>
      <trkpt lat="13.643188" lon="-89.22046">
        <ele>955.918</ele>
        <time>2019-12-07T11:52:18Z</time>
      </trkpt>
      <trkpt lat="13.643067" lon="-89.220474">
        <ele>954.552</ele>
        <time>2019-12-07T11:52:23Z</time>
      </trkpt>
      <trkpt lat="13.642948" lon="-89.22052">
        <ele>952.912</ele>
        <time>2019-12-07T11:52:28Z</time>
      </trkpt>
      <trkpt lat="13.642849" lon="-89.22058">
        <ele>950.978</ele>
        <time>2019-12-07T11:52:33Z</time>
      </trkpt>
      <trkpt lat="13.642762" lon="-89.220665">
        <ele>948.936</ele>
        <time>2019-12-07T11:52:38Z</time>
      </trkpt>
      <trkpt lat="13.642691" lon="-89.22066">
        <ele>946.187</ele>
        <time>2019-12-07T11:52:43Z</time>
      </trkpt>
      <trkpt lat="13.642797" lon="-89.22044">
        <ele>943.665</ele>
        <time>2019-12-07T11:52:53Z</time>
      </trkpt>
      <trkpt lat="13.642882" lon="-89.22022">
        <ele>941.984</ele>
        <time>2019-12-07T11:53:03Z</time>
      </trkpt>
      <trkpt lat="13.642927" lon="-89.220116">
        <ele>940.149</ele>
        <time>2019-12-07T11:53:08Z</time>
      </trkpt>
      <trkpt lat="13.642983" lon="-89.22">
        <ele>938.753</ele>
        <time>2019-12-07T11:53:13Z</time>
      </trkpt>
      <trkpt lat="13.643052" lon="-89.2199">
        <ele>936.643</ele>
        <time>2019-12-07T11:53:18Z</time>
      </trkpt>
      <trkpt lat="13.643096" lon="-89.219795">
        <ele>935.237</ele>
        <time>2019-12-07T11:53:23Z</time>
      </trkpt>
      <trkpt lat="13.643145" lon="-89.21968">
        <ele>929.815</ele>
        <time>2019-12-07T11:53:28Z</time>
      </trkpt>
      <trkpt lat="13.643408" lon="-89.219696">
        <ele>927.137</ele>
        <time>2019-12-07T11:53:38Z</time>
      </trkpt>
      <trkpt lat="13.643661" lon="-89.219734">
        <ele>926.08</ele>
        <time>2019-12-07T11:53:48Z</time>
      </trkpt>
      <trkpt lat="13.643786" lon="-89.2197">
        <ele>924.664</ele>
        <time>2019-12-07T11:53:53Z</time>
      </trkpt>
      <trkpt lat="13.643873" lon="-89.21962">
        <ele>923.008</ele>
        <time>2019-12-07T11:53:58Z</time>
      </trkpt>
      <trkpt lat="13.643927" lon="-89.21951">
        <ele>921.354</ele>
        <time>2019-12-07T11:54:03Z</time>
      </trkpt>
      <trkpt lat="13.643938" lon="-89.21939">
        <ele>919.1</ele>
        <time>2019-12-07T11:54:08Z</time>
      </trkpt>
      <trkpt lat="13.643914" lon="-89.21929">
        <ele>917.847</ele>
        <time>2019-12-07T11:54:13Z</time>
      </trkpt>
      <trkpt lat="13.643925" lon="-89.21918">
        <ele>916.022</ele>
        <time>2019-12-07T11:54:18Z</time>
      </trkpt>
      <trkpt lat="13.643972" lon="-89.21908">
        <ele>913.371</ele>
        <time>2019-12-07T11:54:23Z</time>
      </trkpt>
      <trkpt lat="13.643937" lon="-89.21887">
        <ele>911.371</ele>
        <time>2019-12-07T11:54:33Z</time>
      </trkpt>
      <trkpt lat="13.643832" lon="-89.21864">
        <ele>910.461</ele>
        <time>2019-12-07T11:54:43Z</time>
      </trkpt>
      <trkpt lat="13.643732" lon="-89.218575">
        <ele>909.284</ele>
        <time>2019-12-07T11:54:48Z</time>
      </trkpt>
      <trkpt lat="13.643637" lon="-89.218506">
        <ele>907.365</ele>
        <time>2019-12-07T11:54:53Z</time>
      </trkpt>
      <trkpt lat="13.643576" lon="-89.21836">
        <ele>905.34</ele>
        <time>2019-12-07T11:54:58Z</time>
      </trkpt>
      <trkpt lat="13.643616" lon="-89.218254">
        <ele>903.729</ele>
        <time>2019-12-07T11:55:03Z</time>
      </trkpt>
      <trkpt lat="13.643712" lon="-89.218185">
        <ele>904.954</ele>
        <time>2019-12-07T11:55:08Z</time>
      </trkpt>
      <trkpt lat="13.643678" lon="-89.21805">
        <ele>907.411</ele>
        <time>2019-12-07T11:55:18Z</time>
      </trkpt>
      <trkpt lat="13.643638" lon="-89.217896">
        <ele>908.077</ele>
        <time>2019-12-07T11:55:28Z</time>
      </trkpt>
      <trkpt lat="13.643687" lon="-89.217834">
        <ele>909.045</ele>
        <time>2019-12-07T11:55:33Z</time>
      </trkpt>
      <trkpt lat="13.643738" lon="-89.21776">
        <ele>910.043</ele>
        <time>2019-12-07T11:55:38Z</time>
      </trkpt>
      <trkpt lat="13.643785" lon="-89.21768">
        <ele>911.232</ele>
        <time>2019-12-07T11:55:43Z</time>
      </trkpt>
      <trkpt lat="13.643823" lon="-89.2176">
        <ele>912.606</ele>
        <time>2019-12-07T11:55:48Z</time>
      </trkpt>
      <trkpt lat="13.643856" lon="-89.21751">
        <ele>913.645</ele>
        <time>2019-12-07T11:55:53Z</time>
      </trkpt>
      <trkpt lat="13.643951" lon="-89.217354">
        <ele>914.133</ele>
        <time>2019-12-07T11:56:03Z</time>
      </trkpt>
      <trkpt lat="13.644112" lon="-89.21719">
        <ele>913.326</ele>
        <time>2019-12-07T11:56:13Z</time>
      </trkpt>
      <trkpt lat="13.644138" lon="-89.217094">
        <ele>912.336</ele>
        <time>2019-12-07T11:56:18Z</time>
      </trkpt>
      <trkpt lat="13.644177" lon="-89.216995">
        <ele>912.529</ele>
        <time>2019-12-07T11:56:23Z</time>
      </trkpt>
      <trkpt lat="13.6442" lon="-89.216896">
        <ele>914.071</ele>
        <time>2019-12-07T11:56:28Z</time>
      </trkpt>
      <trkpt lat="13.644146" lon="-89.21684">
        <ele>914.924</ele>
        <time>2019-12-07T11:56:33Z</time>
      </trkpt>
      <trkpt lat="13.644058" lon="-89.21689">
        <ele>916.974</ele>
        <time>2019-12-07T11:56:38Z</time>
      </trkpt>
      <trkpt lat="13.643899" lon="-89.21694">
        <ele>919.151</ele>
        <time>2019-12-07T11:56:48Z</time>
      </trkpt>
      <trkpt lat="13.643769" lon="-89.21693">
        <ele>921.395</ele>
        <time>2019-12-07T11:56:58Z</time>
      </trkpt>
      <trkpt lat="13.643641" lon="-89.21685">
        <ele>922.45</ele>
        <time>2019-12-07T11:57:08Z</time>
      </trkpt>
      <trkpt lat="13.643561" lon="-89.2168">
        <ele>923.539</ele>
        <time>2019-12-07T11:57:13Z</time>
      </trkpt>
      <trkpt lat="13.643479" lon="-89.21677">
        <ele>924.555</ele>
        <time>2019-12-07T11:57:18Z</time>
      </trkpt>
      <trkpt lat="13.643396" lon="-89.21677">
        <ele>925.768</ele>
        <time>2019-12-07T11:57:23Z</time>
      </trkpt>
      <trkpt lat="13.643318" lon="-89.21678">
        <ele>926.528</ele>
        <time>2019-12-07T11:57:28Z</time>
      </trkpt>
      <trkpt lat="13.64323" lon="-89.21681">
        <ele>928.044</ele>
        <time>2019-12-07T11:57:33Z</time>
      </trkpt>
      <trkpt lat="13.643071" lon="-89.21688">
        <ele>929.879</ele>
        <time>2019-12-07T11:57:43Z</time>
      </trkpt>
      <trkpt lat="13.642996" lon="-89.21702">
        <ele>931.213</ele>
        <time>2019-12-07T11:57:53Z</time>
      </trkpt>
      <trkpt lat="13.642959" lon="-89.217094">
        <ele>931.711</ele>
        <time>2019-12-07T11:57:58Z</time>
      </trkpt>
      <trkpt lat="13.642918" lon="-89.21716">
        <ele>933.392</ele>
        <time>2019-12-07T11:58:03Z</time>
      </trkpt>
      <trkpt lat="13.642851" lon="-89.21721">
        <ele>934.721</ele>
        <time>2019-12-07T11:58:08Z</time>
      </trkpt>
      <trkpt lat="13.642778" lon="-89.21724">
        <ele>935.912</ele>
        <time>2019-12-07T11:58:13Z</time>
      </trkpt>
      <trkpt lat="13.642705" lon="-89.21725">
        <ele>938.526</ele>
        <time>2019-12-07T11:58:18Z</time>
      </trkpt>
      <trkpt lat="13.64255" lon="-89.21715">
        <ele>940.531</ele>
        <time>2019-12-07T11:58:28Z</time>
      </trkpt>
      <trkpt lat="13.642423" lon="-89.2171">
        <ele>942.495</ele>
        <time>2019-12-07T11:58:38Z</time>
      </trkpt>
      <trkpt lat="13.642364" lon="-89.21707">
        <ele>942.966</ele>
        <time>2019-12-07T11:58:43Z</time>
      </trkpt>
      <trkpt lat="13.64229" lon="-89.21705">
        <ele>943.813</ele>
        <time>2019-12-07T11:58:48Z</time>
      </trkpt>
      <trkpt lat="13.642194" lon="-89.21706">
        <ele>944.633</ele>
        <time>2019-12-07T11:58:53Z</time>
      </trkpt>
      <trkpt lat="13.642122" lon="-89.21706">
        <ele>945.309</ele>
        <time>2019-12-07T11:58:58Z</time>
      </trkpt>
      <trkpt lat="13.642049" lon="-89.21706">
        <ele>946.183</ele>
        <time>2019-12-07T11:59:03Z</time>
      </trkpt>
      <trkpt lat="13.641977" lon="-89.21705">
        <ele>947.41</ele>
        <time>2019-12-07T11:59:08Z</time>
      </trkpt>
      <trkpt lat="13.641904" lon="-89.217064">
        <ele>949.807</ele>
        <time>2019-12-07T11:59:13Z</time>
      </trkpt>
      <trkpt lat="13.64174" lon="-89.21714">
        <ele>951.31</ele>
        <time>2019-12-07T11:59:23Z</time>
      </trkpt>
      <trkpt lat="13.641624" lon="-89.21718">
        <ele>952.206</ele>
        <time>2019-12-07T11:59:33Z</time>
      </trkpt>
      <trkpt lat="13.641558" lon="-89.217186">
        <ele>953.258</ele>
        <time>2019-12-07T11:59:38Z</time>
      </trkpt>
      <trkpt lat="13.641481" lon="-89.21719">
        <ele>954.012</ele>
        <time>2019-12-07T11:59:43Z</time>
      </trkpt>
      <trkpt lat="13.641408" lon="-89.217186">
        <ele>955.167</ele>
        <time>2019-12-07T11:59:48Z</time>
      </trkpt>
      <trkpt lat="13.641319" lon="-89.217186">
        <ele>955.845</ele>
        <time>2019-12-07T11:59:53Z</time>
      </trkpt>
      <trkpt lat="13.641244" lon="-89.21718">
        <ele>957.591</ele>
        <time>2019-12-07T11:59:58Z</time>
      </trkpt>
      <trkpt lat="13.641108" lon="-89.217255">
        <ele>959.102</ele>
        <time>2019-12-07T12:00:08Z</time>
      </trkpt>
      <trkpt lat="13.640977" lon="-89.21738">
        <ele>961.767</ele>
        <time>2019-12-07T12:00:18Z</time>
      </trkpt>
      <trkpt lat="13.640938" lon="-89.21724">
        <ele>962.786</ele>
        <time>2019-12-07T12:00:57Z</time>
      </trkpt>
      <trkpt lat="13.6409235" lon="-89.21718">
        <ele>963.452</ele>
        <time>2019-12-07T12:01:03Z</time>
      </trkpt>
      <trkpt lat="13.640866" lon="-89.217186">
        <ele>961.521</ele>
        <time>2019-12-07T12:01:23Z</time>
      </trkpt>
      <trkpt lat="13.640934" lon="-89.217155">
        <ele>961.82</ele>
        <time>2019-12-07T12:03:12Z</time>
      </trkpt>
      <trkpt lat="13.64097" lon="-89.2171">
        <ele>960.259</ele>
        <time>2019-12-07T12:03:18Z</time>
      </trkpt>
      <trkpt lat="13.640966" lon="-89.217">
        <ele>958.206</ele>
        <time>2019-12-07T12:03:28Z</time>
      </trkpt>
      <trkpt lat="13.640967" lon="-89.21691">
        <ele>957.547</ele>
        <time>2019-12-07T12:03:33Z</time>
      </trkpt>
      <trkpt lat="13.640953" lon="-89.21683">
        <ele>956.637</ele>
        <time>2019-12-07T12:03:38Z</time>
      </trkpt>
      <trkpt lat="13.640907" lon="-89.21672">
        <ele>954.909</ele>
        <time>2019-12-07T12:03:43Z</time>
      </trkpt>
      <trkpt lat="13.640872" lon="-89.2166">
        <ele>953.7</ele>
        <time>2019-12-07T12:03:48Z</time>
      </trkpt>
      <trkpt lat="13.640883" lon="-89.2165">
        <ele>952.532</ele>
        <time>2019-12-07T12:03:53Z</time>
      </trkpt>
      <trkpt lat="13.640855" lon="-89.216385">
        <ele>952.642</ele>
        <time>2019-12-07T12:04:03Z</time>
      </trkpt>
      <trkpt lat="13.640666" lon="-89.21629">
        <ele>955.125</ele>
        <time>2019-12-07T12:04:13Z</time>
      </trkpt>
      <trkpt lat="13.640536" lon="-89.216125">
        <ele>956.057</ele>
        <time>2019-12-07T12:04:23Z</time>
      </trkpt>
      <trkpt lat="13.640451" lon="-89.21606">
        <ele>956.501</ele>
        <time>2019-12-07T12:04:28Z</time>
      </trkpt>
      <trkpt lat="13.640374" lon="-89.215996">
        <ele>953.9</ele>
        <time>2019-12-07T12:04:33Z</time>
      </trkpt>
      <trkpt lat="13.640291" lon="-89.21596">
        <ele>952.783</ele>
        <time>2019-12-07T12:04:38Z</time>
      </trkpt>
      <trkpt lat="13.64022" lon="-89.21592">
        <ele>953.676</ele>
        <time>2019-12-07T12:04:43Z</time>
      </trkpt>
      <trkpt lat="13.640214" lon="-89.21583">
        <ele>949.645</ele>
        <time>2019-12-07T12:04:48Z</time>
      </trkpt>
      <trkpt lat="13.64034" lon="-89.215675">
        <ele>947.747</ele>
        <time>2019-12-07T12:04:58Z</time>
      </trkpt>
      <trkpt lat="13.640443" lon="-89.21555">
        <ele>945.975</ele>
        <time>2019-12-07T12:05:08Z</time>
      </trkpt>
      <trkpt lat="13.640507" lon="-89.21547">
        <ele>943.893</ele>
        <time>2019-12-07T12:05:13Z</time>
      </trkpt>
      <trkpt lat="13.640618" lon="-89.21541">
        <ele>944.367</ele>
        <time>2019-12-07T12:05:18Z</time>
      </trkpt>
      <trkpt lat="13.640708" lon="-89.21534">
        <ele>943.395</ele>
        <time>2019-12-07T12:05:23Z</time>
      </trkpt>
      <trkpt lat="13.640753" lon="-89.215256">
        <ele>944.25</ele>
        <time>2019-12-07T12:05:28Z</time>
      </trkpt>
      <trkpt lat="13.640833" lon="-89.21514">
        <ele>943.096</ele>
        <time>2019-12-07T12:05:33Z</time>
      </trkpt>
      <trkpt lat="13.64107" lon="-89.21506">
        <ele>943.984</ele>
        <time>2019-12-07T12:05:43Z</time>
      </trkpt>
      <trkpt lat="13.641279" lon="-89.21502">
        <ele>943.663</ele>
        <time>2019-12-07T12:05:53Z</time>
      </trkpt>
      <trkpt lat="13.64135" lon="-89.21495">
        <ele>943.226</ele>
        <time>2019-12-07T12:05:58Z</time>
      </trkpt>
      <trkpt lat="13.641302" lon="-89.214905">
        <ele>943.464</ele>
        <time>2019-12-07T12:06:03Z</time>
      </trkpt>
      <trkpt lat="13.641215" lon="-89.21489">
        <ele>942.924</ele>
        <time>2019-12-07T12:06:08Z</time>
      </trkpt>
      <trkpt lat="13.641136" lon="-89.21486">
        <ele>943.236</ele>
        <time>2019-12-07T12:06:13Z</time>
      </trkpt>
      <trkpt lat="13.641031" lon="-89.21487">
        <ele>944.14</ele>
        <time>2019-12-07T12:06:18Z</time>
      </trkpt>
      <trkpt lat="13.640922" lon="-89.21482">
        <ele>944.074</ele>
        <time>2019-12-07T12:06:23Z</time>
      </trkpt>
      <trkpt lat="13.640829" lon="-89.21477">
        <ele>945.941</ele>
        <time>2019-12-07T12:06:28Z</time>
      </trkpt>
      <trkpt lat="13.640648" lon="-89.21467">
        <ele>945.749</ele>
        <time>2019-12-07T12:06:38Z</time>
      </trkpt>
      <trkpt lat="13.640504" lon="-89.214554">
        <ele>946.037</ele>
        <time>2019-12-07T12:06:48Z</time>
      </trkpt>
      <trkpt lat="13.640414" lon="-89.21448">
        <ele>946.101</ele>
        <time>2019-12-07T12:06:53Z</time>
      </trkpt>
      <trkpt lat="13.640387" lon="-89.21436">
        <ele>947.319</ele>
        <time>2019-12-07T12:06:58Z</time>
      </trkpt>
      <trkpt lat="13.640406" lon="-89.21428">
        <ele>948.457</ele>
        <time>2019-12-07T12:07:03Z</time>
      </trkpt>
      <trkpt lat="13.640437" lon="-89.21418">
        <ele>948.283</ele>
        <time>2019-12-07T12:07:08Z</time>
      </trkpt>
      <trkpt lat="13.640475" lon="-89.214096">
        <ele>949.636</ele>
        <time>2019-12-07T12:07:13Z</time>
      </trkpt>
      <trkpt lat="13.640507" lon="-89.2139">
        <ele>948.119</ele>
        <time>2019-12-07T12:07:23Z</time>
      </trkpt>
      <trkpt lat="13.640442" lon="-89.21372">
        <ele>948.195</ele>
        <time>2019-12-07T12:07:33Z</time>
      </trkpt>
      <trkpt lat="13.640383" lon="-89.21363">
        <ele>946.662</ele>
        <time>2019-12-07T12:07:38Z</time>
      </trkpt>
      <trkpt lat="13.64032" lon="-89.21353">
        <ele>945.912</ele>
        <time>2019-12-07T12:07:43Z</time>
      </trkpt>
      <trkpt lat="13.640264" lon="-89.21343">
        <ele>945.693</ele>
        <time>2019-12-07T12:07:48Z</time>
      </trkpt>
      <trkpt lat="13.64019" lon="-89.21336">
        <ele>945.939</ele>
        <time>2019-12-07T12:07:53Z</time>
      </trkpt>
      <trkpt lat="13.640086" lon="-89.213295">
        <ele>946.739</ele>
        <time>2019-12-07T12:07:58Z</time>
      </trkpt>
      <trkpt lat="13.639918" lon="-89.21319">
        <ele>948.419</ele>
        <time>2019-12-07T12:08:08Z</time>
      </trkpt>
      <trkpt lat="13.6397705" lon="-89.213066">
        <ele>948.594</ele>
        <time>2019-12-07T12:08:18Z</time>
      </trkpt>
      <trkpt lat="13.639695" lon="-89.213005">
        <ele>948.97</ele>
        <time>2019-12-07T12:08:23Z</time>
      </trkpt>
      <trkpt lat="13.6396265" lon="-89.21296">
        <ele>947.816</ele>
        <time>2019-12-07T12:08:28Z</time>
      </trkpt>
      <trkpt lat="13.639579" lon="-89.21291">
        <ele>946.245</ele>
        <time>2019-12-07T12:10:08Z</time>
      </trkpt>
      <trkpt lat="13.6395035" lon="-89.212944">
        <ele>942.718</ele>
        <time>2019-12-07T12:11:18Z</time>
      </trkpt>
      <trkpt lat="13.639319" lon="-89.21312">
        <ele>939.21</ele>
        <time>2019-12-07T12:11:28Z</time>
      </trkpt>
      <trkpt lat="13.639125" lon="-89.21323">
        <ele>938.283</ele>
        <time>2019-12-07T12:11:38Z</time>
      </trkpt>
      <trkpt lat="13.639072" lon="-89.213196">
        <ele>936.379</ele>
        <time>2019-12-07T12:11:43Z</time>
      </trkpt>
      <trkpt lat="13.638994" lon="-89.21311">
        <ele>934.985</ele>
        <time>2019-12-07T12:11:58Z</time>
      </trkpt>
      <trkpt lat="13.638911" lon="-89.21295">
        <ele>933.034</ele>
        <time>2019-12-07T12:13:02Z</time>
      </trkpt>
      <trkpt lat="13.638859" lon="-89.212845">
        <ele>931.726</ele>
        <time>2019-12-07T12:13:08Z</time>
      </trkpt>
      <trkpt lat="13.638785" lon="-89.21276">
        <ele>929.883</ele>
        <time>2019-12-07T12:13:13Z</time>
      </trkpt>
      <trkpt lat="13.638684" lon="-89.212715">
        <ele>927.992</ele>
        <time>2019-12-07T12:13:18Z</time>
      </trkpt>
      <trkpt lat="13.63858" lon="-89.2127">
        <ele>925.294</ele>
        <time>2019-12-07T12:13:23Z</time>
      </trkpt>
      <trkpt lat="13.638461" lon="-89.21268">
        <ele>923.671</ele>
        <time>2019-12-07T12:13:28Z</time>
      </trkpt>
      <trkpt lat="13.638354" lon="-89.212685">
        <ele>919.48</ele>
        <time>2019-12-07T12:13:33Z</time>
      </trkpt>
      <trkpt lat="13.638112" lon="-89.21268">
        <ele>915.235</ele>
        <time>2019-12-07T12:13:43Z</time>
      </trkpt>
      <trkpt lat="13.637937" lon="-89.21255">
        <ele>910.97</ele>
        <time>2019-12-07T12:13:53Z</time>
      </trkpt>
      <trkpt lat="13.637779" lon="-89.21234">
        <ele>910.062</ele>
        <time>2019-12-07T12:14:03Z</time>
      </trkpt>
      <trkpt lat="13.637679" lon="-89.21226">
        <ele>907.731</ele>
        <time>2019-12-07T12:14:08Z</time>
      </trkpt>
      <trkpt lat="13.637543" lon="-89.21221">
        <ele>906.422</ele>
        <time>2019-12-07T12:14:13Z</time>
      </trkpt>
      <trkpt lat="13.637399" lon="-89.212204">
        <ele>906.008</ele>
        <time>2019-12-07T12:14:18Z</time>
      </trkpt>
      <trkpt lat="13.637343" lon="-89.21221">
        <ele>905.194</ele>
        <time>2019-12-07T12:14:23Z</time>
      </trkpt>
      <trkpt lat="13.637262" lon="-89.21222">
        <ele>901.409</ele>
        <time>2019-12-07T12:14:28Z</time>
      </trkpt>
      <trkpt lat="13.637019" lon="-89.21232">
        <ele>897.265</ele>
        <time>2019-12-07T12:14:38Z</time>
      </trkpt>
      <trkpt lat="13.636786" lon="-89.21244">
        <ele>895.22</ele>
        <time>2019-12-07T12:14:48Z</time>
      </trkpt>
      <trkpt lat="13.636656" lon="-89.21249">
        <ele>893.159</ele>
        <time>2019-12-07T12:14:53Z</time>
      </trkpt>
      <trkpt lat="13.636534" lon="-89.21251">
        <ele>891.204</ele>
        <time>2019-12-07T12:14:58Z</time>
      </trkpt>
      <trkpt lat="13.636425" lon="-89.21248">
        <ele>889.45</ele>
        <time>2019-12-07T12:15:03Z</time>
      </trkpt>
      <trkpt lat="13.636289" lon="-89.21245">
        <ele>887.626</ele>
        <time>2019-12-07T12:15:08Z</time>
      </trkpt>
      <trkpt lat="13.636159" lon="-89.21241">
        <ele>884.036</ele>
        <time>2019-12-07T12:15:13Z</time>
      </trkpt>
      <trkpt lat="13.635943" lon="-89.212364">
        <ele>880.015</ele>
        <time>2019-12-07T12:15:23Z</time>
      </trkpt>
      <trkpt lat="13.635851" lon="-89.21212">
        <ele>880.068</ele>
        <time>2019-12-07T12:15:33Z</time>
      </trkpt>
      <trkpt lat="13.635902" lon="-89.21201">
        <ele>877.526</ele>
        <time>2019-12-07T12:15:38Z</time>
      </trkpt>
      <trkpt lat="13.635999" lon="-89.212006">
        <ele>875.967</ele>
        <time>2019-12-07T12:15:43Z</time>
      </trkpt>
      <trkpt lat="13.63613" lon="-89.21202">
        <ele>874.85</ele>
        <time>2019-12-07T12:15:48Z</time>
      </trkpt>
      <trkpt lat="13.636246" lon="-89.21202">
        <ele>872.973</ele>
        <time>2019-12-07T12:15:53Z</time>
      </trkpt>
      <trkpt lat="13.636373" lon="-89.211975">
        <ele>872.0</ele>
        <time>2019-12-07T12:15:58Z</time>
      </trkpt>
      <trkpt lat="13.63646" lon="-89.21193">
        <ele>870.988</ele>
        <time>2019-12-07T12:16:03Z</time>
      </trkpt>
      <trkpt lat="13.63649" lon="-89.21184">
        <ele>868.579</ele>
        <time>2019-12-07T12:16:08Z</time>
      </trkpt>
      <trkpt lat="13.636322" lon="-89.21169">
        <ele>865.204</ele>
        <time>2019-12-07T12:16:18Z</time>
      </trkpt>
      <trkpt lat="13.636147" lon="-89.21148">
        <ele>863.018</ele>
        <time>2019-12-07T12:16:28Z</time>
      </trkpt>
      <trkpt lat="13.636055" lon="-89.21136">
        <ele>860.901</ele>
        <time>2019-12-07T12:16:33Z</time>
      </trkpt>
      <trkpt lat="13.636001" lon="-89.211266">
        <ele>859.018</ele>
        <time>2019-12-07T12:16:38Z</time>
      </trkpt>
      <trkpt lat="13.635951" lon="-89.21114">
        <ele>857.238</ele>
        <time>2019-12-07T12:16:43Z</time>
      </trkpt>
      <trkpt lat="13.635944" lon="-89.211006">
        <ele>855.729</ele>
        <time>2019-12-07T12:16:48Z</time>
      </trkpt>
      <trkpt lat="13.635977" lon="-89.21093">
        <ele>851.54</ele>
        <time>2019-12-07T12:16:53Z</time>
      </trkpt>
      <trkpt lat="13.636024" lon="-89.210724">
        <ele>850.107</ele>
        <time>2019-12-07T12:17:03Z</time>
      </trkpt>
      <trkpt lat="13.636045" lon="-89.21057">
        <ele>850.052</ele>
        <time>2019-12-07T12:17:13Z</time>
      </trkpt>
      <trkpt lat="13.635986" lon="-89.21067">
        <ele>849.904</ele>
        <time>2019-12-07T12:17:28Z</time>
      </trkpt>
      <trkpt lat="13.635953" lon="-89.21071">
        <ele>849.923</ele>
        <time>2019-12-07T12:17:33Z</time>
      </trkpt>
      <trkpt lat="13.635976" lon="-89.21073">
        <ele>849.391</ele>
        <time>2019-12-07T12:17:48Z</time>
      </trkpt>
      <trkpt lat="13.636" lon="-89.210686">
        <ele>847.874</ele>
        <time>2019-12-07T12:17:58Z</time>
      </trkpt>
      <trkpt lat="13.635921" lon="-89.21077">
        <ele>846.103</ele>
        <time>2019-12-07T12:18:43Z</time>
      </trkpt>
      <trkpt lat="13.635785" lon="-89.21099">
        <ele>844.54</ele>
        <time>2019-12-07T12:18:53Z</time>
      </trkpt>
      <trkpt lat="13.635718" lon="-89.21114">
        <ele>844.791</ele>
        <time>2019-12-07T12:18:58Z</time>
      </trkpt>
      <trkpt lat="13.635627" lon="-89.21122">
        <ele>843.004</ele>
        <time>2019-12-07T12:19:03Z</time>
      </trkpt>
      <trkpt lat="13.6354685" lon="-89.21122">
        <ele>841.293</ele>
        <time>2019-12-07T12:19:08Z</time>
      </trkpt>
      <trkpt lat="13.635324" lon="-89.21126">
        <ele>839.725</ele>
        <time>2019-12-07T12:19:13Z</time>
      </trkpt>
      <trkpt lat="13.635191" lon="-89.21132">
        <ele>836.733</ele>
        <time>2019-12-07T12:19:18Z</time>
      </trkpt>
      <trkpt lat="13.635007" lon="-89.2115">
        <ele>833.721</ele>
        <time>2019-12-07T12:19:28Z</time>
      </trkpt>
      <trkpt lat="13.634867" lon="-89.21174">
        <ele>831.687</ele>
        <time>2019-12-07T12:19:38Z</time>
      </trkpt>
      <trkpt lat="13.634785" lon="-89.211876">
        <ele>829.328</ele>
        <time>2019-12-07T12:19:43Z</time>
      </trkpt>
      <trkpt lat="13.634711" lon="-89.212">
        <ele>827.383</ele>
        <time>2019-12-07T12:19:48Z</time>
      </trkpt>
      <trkpt lat="13.634645" lon="-89.2121">
        <ele>825.423</ele>
        <time>2019-12-07T12:19:53Z</time>
      </trkpt>
      <trkpt lat="13.6345825" lon="-89.212204">
        <ele>823.259</ele>
        <time>2019-12-07T12:19:58Z</time>
      </trkpt>
      <trkpt lat="13.634558" lon="-89.212326">
        <ele>818.908</ele>
        <time>2019-12-07T12:20:03Z</time>
      </trkpt>
      <trkpt lat="13.634482" lon="-89.21258">
        <ele>815.281</ele>
        <time>2019-12-07T12:20:13Z</time>
      </trkpt>
      <trkpt lat="13.634392" lon="-89.21282">
        <ele>813.684</ele>
        <time>2019-12-07T12:20:23Z</time>
      </trkpt>
      <trkpt lat="13.63434" lon="-89.21292">
        <ele>812.056</ele>
        <time>2019-12-07T12:20:28Z</time>
      </trkpt>
      <trkpt lat="13.634268" lon="-89.213005">
        <ele>810.015</ele>
        <time>2019-12-07T12:20:33Z</time>
      </trkpt>
      <trkpt lat="13.6342" lon="-89.21311">
        <ele>807.913</ele>
        <time>2019-12-07T12:20:38Z</time>
      </trkpt>
      <trkpt lat="13.634178" lon="-89.21325">
        <ele>806.29</ele>
        <time>2019-12-07T12:20:43Z</time>
      </trkpt>
      <trkpt lat="13.634137" lon="-89.21337">
        <ele>805.362</ele>
        <time>2019-12-07T12:20:48Z</time>
      </trkpt>
      <trkpt lat="13.634045" lon="-89.21349">
        <ele>805.276</ele>
        <time>2019-12-07T12:20:53Z</time>
      </trkpt>
      <trkpt lat="13.633955" lon="-89.213585">
        <ele>805.528</ele>
        <time>2019-12-07T12:20:58Z</time>
      </trkpt>
      <trkpt lat="13.633788" lon="-89.21373">
        <ele>806.296</ele>
        <time>2019-12-07T12:21:08Z</time>
      </trkpt>
      <trkpt lat="13.633598" lon="-89.213615">
        <ele>806.891</ele>
        <time>2019-12-07T12:21:18Z</time>
      </trkpt>
      <trkpt lat="13.633506" lon="-89.21353">
        <ele>806.236</ele>
        <time>2019-12-07T12:21:23Z</time>
      </trkpt>
      <trkpt lat="13.633415" lon="-89.21344">
        <ele>805.145</ele>
        <time>2019-12-07T12:21:28Z</time>
      </trkpt>
      <trkpt lat="13.6333" lon="-89.21334">
        <ele>803.893</ele>
        <time>2019-12-07T12:21:33Z</time>
      </trkpt>
      <trkpt lat="13.633209" lon="-89.21328">
        <ele>802.663</ele>
        <time>2019-12-07T12:21:38Z</time>
      </trkpt>
      <trkpt lat="13.6331" lon="-89.21323">
        <ele>799.207</ele>
        <time>2019-12-07T12:21:43Z</time>
      </trkpt>
      <trkpt lat="13.632861" lon="-89.21323">
        <ele>795.125</ele>
        <time>2019-12-07T12:21:53Z</time>
      </trkpt>
      <trkpt lat="13.6326275" lon="-89.21332">
        <ele>792.685</ele>
        <time>2019-12-07T12:22:03Z</time>
      </trkpt>
      <trkpt lat="13.632501" lon="-89.21333">
        <ele>789.828</ele>
        <time>2019-12-07T12:22:08Z</time>
      </trkpt>
      <trkpt lat="13.63238" lon="-89.21332">
        <ele>788.311</ele>
        <time>2019-12-07T12:22:13Z</time>
      </trkpt>
      <trkpt lat="13.632267" lon="-89.2133">
        <ele>786.358</ele>
        <time>2019-12-07T12:22:18Z</time>
      </trkpt>
      <trkpt lat="13.632136" lon="-89.213295">
        <ele>784.67</ele>
        <time>2019-12-07T12:22:23Z</time>
      </trkpt>
      <trkpt lat="13.632025" lon="-89.21333">
        <ele>781.635</ele>
        <time>2019-12-07T12:22:28Z</time>
      </trkpt>
      <trkpt lat="13.631822" lon="-89.21361">
        <ele>780.259</ele>
        <time>2019-12-07T12:22:38Z</time>
      </trkpt>
      <trkpt lat="13.631587" lon="-89.21372">
        <ele>779.812</ele>
        <time>2019-12-07T12:22:48Z</time>
      </trkpt>
      <trkpt lat="13.631459" lon="-89.213776">
        <ele>779.518</ele>
        <time>2019-12-07T12:22:53Z</time>
      </trkpt>
      <trkpt lat="13.631362" lon="-89.21383">
        <ele>778.772</ele>
        <time>2019-12-07T12:22:58Z</time>
      </trkpt>
      <trkpt lat="13.631257" lon="-89.213905">
        <ele>778.793</ele>
        <time>2019-12-07T12:23:03Z</time>
      </trkpt>
      <trkpt lat="13.631168" lon="-89.214">
        <ele>779.358</ele>
        <time>2019-12-07T12:23:08Z</time>
      </trkpt>
      <trkpt lat="13.631108" lon="-89.21409">
        <ele>779.501</ele>
        <time>2019-12-07T12:23:13Z</time>
      </trkpt>
      <trkpt lat="13.631062" lon="-89.21418">
        <ele>779.996</ele>
        <time>2019-12-07T12:23:18Z</time>
      </trkpt>
      <trkpt lat="13.630998" lon="-89.214294">
        <ele>778.95</ele>
        <time>2019-12-07T12:23:23Z</time>
      </trkpt>
      <trkpt lat="13.630865" lon="-89.2145">
        <ele>778.372</ele>
        <time>2019-12-07T12:23:33Z</time>
      </trkpt>
      <trkpt lat="13.630744" lon="-89.21466">
        <ele>777.91</ele>
        <time>2019-12-07T12:23:43Z</time>
      </trkpt>
      <trkpt lat="13.63066" lon="-89.21472">
        <ele>778.041</ele>
        <time>2019-12-07T12:23:48Z</time>
      </trkpt>
      <trkpt lat="13.630621" lon="-89.21473">
        <ele>777.283</ele>
        <time>2019-12-07T12:23:58Z</time>
      </trkpt>
      <trkpt lat="13.630621" lon="-89.21468">
        <ele>777.379</ele>
        <time>2019-12-07T12:24:12Z</time>
      </trkpt>
      <trkpt lat="13.630508" lon="-89.21469">
        <ele>777.266</ele>
        <time>2019-12-07T12:25:43Z</time>
      </trkpt>
      <trkpt lat="13.630428" lon="-89.21472">
        <ele>776.856</ele>
        <time>2019-12-07T12:25:48Z</time>
      </trkpt>
      <trkpt lat="13.630191" lon="-89.21489">
        <ele>777.071</ele>
        <time>2019-12-07T12:25:58Z</time>
      </trkpt>
      <trkpt lat="13.630071" lon="-89.21502">
        <ele>777.361</ele>
        <time>2019-12-07T12:26:08Z</time>
      </trkpt>
      <trkpt lat="13.630023" lon="-89.21506">
        <ele>778.304</ele>
        <time>2019-12-07T12:26:13Z</time>
      </trkpt>
      <trkpt lat="13.629961" lon="-89.21509">
        <ele>778.729</ele>
        <time>2019-12-07T12:26:18Z</time>
      </trkpt>
      <trkpt lat="13.629915" lon="-89.2151">
        <ele>779.386</ele>
        <time>2019-12-07T12:26:23Z</time>
      </trkpt>
      <trkpt lat="13.629849" lon="-89.21513">
        <ele>780.337</ele>
        <time>2019-12-07T12:26:28Z</time>
      </trkpt>
      <trkpt lat="13.629801" lon="-89.21516">
        <ele>782.458</ele>
        <time>2019-12-07T12:26:33Z</time>
      </trkpt>
      <trkpt lat="13.62968" lon="-89.21526">
        <ele>783.737</ele>
        <time>2019-12-07T12:26:53Z</time>
      </trkpt>
      <trkpt lat="13.629616" lon="-89.21534">
        <ele>785.54</ele>
        <time>2019-12-07T12:26:58Z</time>
      </trkpt>
      <trkpt lat="13.629501" lon="-89.215416">
        <ele>785.812</ele>
        <time>2019-12-07T12:27:03Z</time>
      </trkpt>
      <trkpt lat="13.629386" lon="-89.21542">
        <ele>787.639</ele>
        <time>2019-12-07T12:27:13Z</time>
      </trkpt>
      <trkpt lat="13.629271" lon="-89.2154">
        <ele>789.99</ele>
        <time>2019-12-07T12:27:18Z</time>
      </trkpt>
      <trkpt lat="13.629069" lon="-89.21536">
        <ele>791.062</ele>
        <time>2019-12-07T12:27:28Z</time>
      </trkpt>
      <trkpt lat="13.628909" lon="-89.2153">
        <ele>791.309</ele>
        <time>2019-12-07T12:27:38Z</time>
      </trkpt>
      <trkpt lat="13.628847" lon="-89.21527">
        <ele>792.078</ele>
        <time>2019-12-07T12:27:43Z</time>
      </trkpt>
      <trkpt lat="13.62876" lon="-89.215294">
        <ele>792.046</ele>
        <time>2019-12-07T12:27:48Z</time>
      </trkpt>
      <trkpt lat="13.628662" lon="-89.21541">
        <ele>793.964</ele>
        <time>2019-12-07T12:27:53Z</time>
      </trkpt>
      <trkpt lat="13.62859" lon="-89.215515">
        <ele>794.615</ele>
        <time>2019-12-07T12:27:58Z</time>
      </trkpt>
      <trkpt lat="13.628502" lon="-89.21562">
        <ele>795.773</ele>
        <time>2019-12-07T12:28:03Z</time>
      </trkpt>
      <trkpt lat="13.628412" lon="-89.215645">
        <ele>796.785</ele>
        <time>2019-12-07T12:28:08Z</time>
      </trkpt>
      <trkpt lat="13.628337" lon="-89.215614">
        <ele>798.949</ele>
        <time>2019-12-07T12:28:13Z</time>
      </trkpt>
      <trkpt lat="13.628244" lon="-89.21548">
        <ele>800.211</ele>
        <time>2019-12-07T12:28:23Z</time>
      </trkpt>
      <trkpt lat="13.628211" lon="-89.215416">
        <ele>801.046</ele>
        <time>2019-12-07T12:28:28Z</time>
      </trkpt>
      <trkpt lat="13.628174" lon="-89.21535">
        <ele>801.471</ele>
        <time>2019-12-07T12:28:33Z</time>
      </trkpt>
      <trkpt lat="13.628118" lon="-89.21529">
        <ele>801.888</ele>
        <time>2019-12-07T12:28:38Z</time>
      </trkpt>
      <trkpt lat="13.628059" lon="-89.215195">
        <ele>803.16</ele>
        <time>2019-12-07T12:28:43Z</time>
      </trkpt>
      <trkpt lat="13.628019" lon="-89.21512">
        <ele>804.526</ele>
        <time>2019-12-07T12:28:48Z</time>
      </trkpt>
      <trkpt lat="13.627921" lon="-89.21507">
        <ele>804.537</ele>
        <time>2019-12-07T12:28:53Z</time>
      </trkpt>
      <trkpt lat="13.627823" lon="-89.215065">
        <ele>804.929</ele>
        <time>2019-12-07T12:28:58Z</time>
      </trkpt>
      <trkpt lat="13.627645" lon="-89.215195">
        <ele>805.34</ele>
        <time>2019-12-07T12:29:08Z</time>
      </trkpt>
      <trkpt lat="13.62758" lon="-89.215416">
        <ele>805.909</ele>
        <time>2019-12-07T12:29:18Z</time>
      </trkpt>
      <trkpt lat="13.627519" lon="-89.21555">
        <ele>806.44</ele>
        <time>2019-12-07T12:29:23Z</time>
      </trkpt>
      <trkpt lat="13.62742" lon="-89.21564">
        <ele>806.92</ele>
        <time>2019-12-07T12:29:28Z</time>
      </trkpt>
      <trkpt lat="13.627279" lon="-89.215675">
        <ele>807.741</ele>
        <time>2019-12-07T12:29:33Z</time>
      </trkpt>
      <trkpt lat="13.627191" lon="-89.21569">
        <ele>808.908</ele>
        <time>2019-12-07T12:29:38Z</time>
      </trkpt>
      <trkpt lat="13.627085" lon="-89.21571">
        <ele>810.409</ele>
        <time>2019-12-07T12:29:43Z</time>
      </trkpt>
      <trkpt lat="13.626885" lon="-89.215706">
        <ele>812.037</ele>
        <time>2019-12-07T12:29:53Z</time>
      </trkpt>
      <trkpt lat="13.626795" lon="-89.21558">
        <time>2019-12-07T12:30:03Z</time>
      </trkpt>
      <trkpt lat="13.630486" lon="-89.20791">
        <ele>900.567</ele>
        <time>2019-12-07T12:43:49Z</time>
      </trkpt>
      <trkpt lat="13.630386" lon="-89.207756">
        <ele>901.195</ele>
        <time>2019-12-07T12:43:55Z</time>
      </trkpt>
      <trkpt lat="13.630374" lon="-89.20765">
        <ele>899.482</ele>
        <time>2019-12-07T12:44:00Z</time>
      </trkpt>
      <trkpt lat="13.630518" lon="-89.20758">
        <ele>895.289</ele>
        <time>2019-12-07T12:44:10Z</time>
      </trkpt>
      <trkpt lat="13.630707" lon="-89.20757">
        <ele>889.778</ele>
        <time>2019-12-07T12:44:20Z</time>
      </trkpt>
      <trkpt lat="13.63085" lon="-89.207565">
        <ele>885.426</ele>
        <time>2019-12-07T12:44:30Z</time>
      </trkpt>
      <trkpt lat="13.630911" lon="-89.20755">
        <ele>880.702</ele>
        <time>2019-12-07T12:44:35Z</time>
      </trkpt>
      <trkpt lat="13.630961" lon="-89.20753">
        <ele>878.333</ele>
        <time>2019-12-07T12:44:40Z</time>
      </trkpt>
      <trkpt lat="13.631009" lon="-89.2075">
        <ele>877.66</ele>
        <time>2019-12-07T12:46:25Z</time>
      </trkpt>
      <trkpt lat="13.6310425" lon="-89.20752">
        <ele>875.876</ele>
        <time>2019-12-07T12:47:20Z</time>
      </trkpt>
      <trkpt lat="13.631059" lon="-89.20765">
        <ele>874.693</ele>
        <time>2019-12-07T12:47:30Z</time>
      </trkpt>
      <trkpt lat="13.631145" lon="-89.20782">
        <ele>869.781</ele>
        <time>2019-12-07T12:47:40Z</time>
      </trkpt>
      <trkpt lat="13.631204" lon="-89.20793">
        <ele>866.17</ele>
        <time>2019-12-07T12:47:50Z</time>
      </trkpt>
      <trkpt lat="13.631238" lon="-89.20797">
        <ele>862.754</ele>
        <time>2019-12-07T12:47:55Z</time>
      </trkpt>
      <trkpt lat="13.631271" lon="-89.20804">
        <ele>860.965</ele>
        <time>2019-12-07T12:48:05Z</time>
      </trkpt>
      <trkpt lat="13.631357" lon="-89.20818">
        <ele>860.24</ele>
        <time>2019-12-07T12:48:35Z</time>
      </trkpt>
      <trkpt lat="13.631354" lon="-89.208244">
        <ele>859.39</ele>
        <time>2019-12-07T12:48:40Z</time>
      </trkpt>
      <trkpt lat="13.631323" lon="-89.20831">
        <ele>856.802</ele>
        <time>2019-12-07T12:48:50Z</time>
      </trkpt>
      <trkpt lat="13.631292" lon="-89.208405">
        <ele>855.448</ele>
        <time>2019-12-07T12:49:04Z</time>
      </trkpt>
      <trkpt lat="13.631226" lon="-89.208374">
        <ele>854.763</ele>
        <time>2019-12-07T12:49:20Z</time>
      </trkpt>
      <trkpt lat="13.631169" lon="-89.20842">
        <ele>853.169</ele>
        <time>2019-12-07T12:49:25Z</time>
      </trkpt>
      <trkpt lat="13.631169" lon="-89.2085">
        <ele>851.717</ele>
        <time>2019-12-07T12:49:30Z</time>
      </trkpt>
      <trkpt lat="13.631182" lon="-89.20857">
        <ele>849.588</ele>
        <time>2019-12-07T12:49:35Z</time>
      </trkpt>
      <trkpt lat="13.631244" lon="-89.20871">
        <ele>846.492</ele>
        <time>2019-12-07T12:49:55Z</time>
      </trkpt>
      <trkpt lat="13.631346" lon="-89.20885">
        <ele>844.309</ele>
        <time>2019-12-07T12:50:05Z</time>
      </trkpt>
      <trkpt lat="13.631397" lon="-89.20895">
        <ele>842.143</ele>
        <time>2019-12-07T12:50:10Z</time>
      </trkpt>
      <trkpt lat="13.631434" lon="-89.20904">
        <ele>840.807</ele>
        <time>2019-12-07T12:50:15Z</time>
      </trkpt>
      <trkpt lat="13.631482" lon="-89.20913">
        <ele>838.264</ele>
        <time>2019-12-07T12:50:20Z</time>
      </trkpt>
      <trkpt lat="13.631542" lon="-89.20931">
        <ele>835.214</ele>
        <time>2019-12-07T12:50:30Z</time>
      </trkpt>
      <trkpt lat="13.631676" lon="-89.20947">
        <ele>833.47</ele>
        <time>2019-12-07T12:50:40Z</time>
      </trkpt>
      <trkpt lat="13.631799" lon="-89.20964">
        <ele>830.424</ele>
        <time>2019-12-07T12:50:50Z</time>
      </trkpt>
      <trkpt lat="13.631848" lon="-89.20983">
        <ele>828.581</ele>
        <time>2019-12-07T12:51:00Z</time>
      </trkpt>
      <trkpt lat="13.631835" lon="-89.20998">
        <ele>827.592</ele>
        <time>2019-12-07T12:51:05Z</time>
      </trkpt>
      <trkpt lat="13.631704" lon="-89.21013">
        <ele>828.672</ele>
        <time>2019-12-07T12:51:15Z</time>
      </trkpt>
      <trkpt lat="13.631536" lon="-89.21021">
        <ele>829.069</ele>
        <time>2019-12-07T12:51:25Z</time>
      </trkpt>
      <trkpt lat="13.631338" lon="-89.21013">
        <ele>827.691</ele>
        <time>2019-12-07T12:51:35Z</time>
      </trkpt>
      <trkpt lat="13.631201" lon="-89.21015">
        <ele>825.167</ele>
        <time>2019-12-07T12:51:45Z</time>
      </trkpt>
      <trkpt lat="13.631249" lon="-89.21025">
        <ele>824.12</ele>
        <time>2019-12-07T12:51:50Z</time>
      </trkpt>
      <trkpt lat="13.631253" lon="-89.21033">
        <ele>820.604</ele>
        <time>2019-12-07T12:51:55Z</time>
      </trkpt>
      <trkpt lat="13.631258" lon="-89.2104">
        <ele>818.995</ele>
        <time>2019-12-07T12:52:00Z</time>
      </trkpt>
      <trkpt lat="13.631259" lon="-89.21054">
        <ele>815.903</ele>
        <time>2019-12-07T12:52:10Z</time>
      </trkpt>
      <trkpt lat="13.631284" lon="-89.21065">
        <ele>813.341</ele>
        <time>2019-12-07T12:54:25Z</time>
      </trkpt>
      <trkpt lat="13.63138" lon="-89.21077">
        <ele>810.069</ele>
        <time>2019-12-07T12:54:35Z</time>
      </trkpt>
      <trkpt lat="13.631442" lon="-89.21086">
        <ele>807.092</ele>
        <time>2019-12-07T12:54:45Z</time>
      </trkpt>
      <trkpt lat="13.63162" lon="-89.210915">
        <ele>804.345</ele>
        <time>2019-12-07T12:54:55Z</time>
      </trkpt>
      <trkpt lat="13.631709" lon="-89.21102">
        <ele>802.514</ele>
        <time>2019-12-07T12:55:00Z</time>
      </trkpt>
      <trkpt lat="13.631721" lon="-89.211235">
        <ele>798.804</ele>
        <time>2019-12-07T12:55:10Z</time>
      </trkpt>
      <trkpt lat="13.631659" lon="-89.21139">
        <ele>795.86</ele>
        <time>2019-12-07T12:55:20Z</time>
      </trkpt>
      <trkpt lat="13.631511" lon="-89.21157">
        <ele>793.627</ele>
        <time>2019-12-07T12:55:30Z</time>
      </trkpt>
      <trkpt lat="13.63134" lon="-89.21177">
        <ele>791.752</ele>
        <time>2019-12-07T12:55:40Z</time>
      </trkpt>
      <trkpt lat="13.631179" lon="-89.21198">
        <ele>790.222</ele>
        <time>2019-12-07T12:55:50Z</time>
      </trkpt>
      <trkpt lat="13.631087" lon="-89.21207">
        <ele>785.123</ele>
        <time>2019-12-07T12:55:55Z</time>
      </trkpt>
      <trkpt lat="13.6309" lon="-89.21219">
        <ele>785.055</ele>
        <time>2019-12-07T12:56:05Z</time>
      </trkpt>
      <trkpt lat="13.6307" lon="-89.21225">
        <ele>784.505</ele>
        <time>2019-12-07T12:56:15Z</time>
      </trkpt>
      <trkpt lat="13.630533" lon="-89.21238">
        <ele>785.091</ele>
        <time>2019-12-07T12:56:25Z</time>
      </trkpt>
      <trkpt lat="13.630574" lon="-89.21254">
        <ele>785.122</ele>
        <time>2019-12-07T12:56:35Z</time>
      </trkpt>
      <trkpt lat="13.630565" lon="-89.21264">
        <ele>785.589</ele>
        <time>2019-12-07T12:56:40Z</time>
      </trkpt>
      <trkpt lat="13.630455" lon="-89.21285">
        <ele>786.015</ele>
        <time>2019-12-07T12:56:50Z</time>
      </trkpt>
      <trkpt lat="13.630551" lon="-89.21307">
        <ele>784.63</ele>
        <time>2019-12-07T12:57:00Z</time>
      </trkpt>
      <trkpt lat="13.630558" lon="-89.21332">
        <ele>783.447</ele>
        <time>2019-12-07T12:57:10Z</time>
      </trkpt>
      <trkpt lat="13.630464" lon="-89.213455">
        <ele>780.976</ele>
        <time>2019-12-07T12:57:20Z</time>
      </trkpt>
      <trkpt lat="13.630415" lon="-89.21354">
        <ele>777.081</ele>
        <time>2019-12-07T12:57:25Z</time>
      </trkpt>
      <trkpt lat="13.6303835" lon="-89.21361">
        <ele>775.89</ele>
        <time>2019-12-07T12:57:30Z</time>
      </trkpt>
      <trkpt lat="13.63036" lon="-89.21368">
        <ele>776.098</ele>
        <time>2019-12-07T12:57:35Z</time>
      </trkpt>
      <trkpt lat="13.630416" lon="-89.21387">
        <ele>776.045</ele>
        <time>2019-12-07T12:57:45Z</time>
      </trkpt>
      <trkpt lat="13.630533" lon="-89.21406">
        <ele>775.995</ele>
        <time>2019-12-07T12:57:55Z</time>
      </trkpt>
      <trkpt lat="13.630459" lon="-89.21429">
        <ele>776.468</ele>
        <time>2019-12-07T12:58:05Z</time>
      </trkpt>
      <trkpt lat="13.630509" lon="-89.21448">
        <ele>777.623</ele>
        <time>2019-12-07T12:58:15Z</time>
      </trkpt>
      <trkpt lat="13.630543" lon="-89.21454">
        <ele>777.475</ele>
        <time>2019-12-07T12:58:19Z</time>
      </trkpt>
      <trkpt lat="13.630557" lon="-89.21455">
        <ele>776.567</ele>
        <time>2019-12-07T12:58:20Z</time>
      </trkpt>
      <trkpt lat="13.630667" lon="-89.214554">
        <ele>777.474</ele>
        <time>2019-12-07T12:58:30Z</time>
      </trkpt>
      <trkpt lat="13.630751" lon="-89.214455">
        <ele>777.763</ele>
        <time>2019-12-07T12:58:40Z</time>
      </trkpt>
      <trkpt lat="13.630801" lon="-89.21438">
        <ele>778.502</ele>
        <time>2019-12-07T12:58:50Z</time>
      </trkpt>
      <trkpt lat="13.63089" lon="-89.214264">
        <ele>779.569</ele>
        <time>2019-12-07T12:59:00Z</time>
      </trkpt>
      <trkpt lat="13.630964" lon="-89.21417">
        <ele>782.312</ele>
        <time>2019-12-07T12:59:05Z</time>
      </trkpt>
      <trkpt lat="13.631099" lon="-89.213974">
        <ele>784.88</ele>
        <time>2019-12-07T12:59:15Z</time>
      </trkpt>
      <trkpt lat="13.631268" lon="-89.21378">
        <ele>787.758</ele>
        <time>2019-12-07T12:59:25Z</time>
      </trkpt>
      <trkpt lat="13.631463" lon="-89.21366">
        <ele>790.911</ele>
        <time>2019-12-07T12:59:35Z</time>
      </trkpt>
      <trkpt lat="13.631684" lon="-89.213585">
        <ele>794.092</ele>
        <time>2019-12-07T12:59:45Z</time>
      </trkpt>
      <trkpt lat="13.631789" lon="-89.21354">
        <ele>795.564</ele>
        <time>2019-12-07T12:59:50Z</time>
      </trkpt>
      <trkpt lat="13.631942" lon="-89.2134">
        <ele>797.829</ele>
        <time>2019-12-07T13:00:00Z</time>
      </trkpt>
      <trkpt lat="13.63214" lon="-89.21332">
        <ele>800.068</ele>
        <time>2019-12-07T13:00:10Z</time>
      </trkpt>
      <trkpt lat="13.632353" lon="-89.2133">
        <ele>802.151</ele>
        <time>2019-12-07T13:00:20Z</time>
      </trkpt>
      <trkpt lat="13.632552" lon="-89.21331">
        <ele>803.791</ele>
        <time>2019-12-07T13:00:30Z</time>
      </trkpt>
      <trkpt lat="13.632685" lon="-89.21329">
        <ele>804.326</ele>
        <time>2019-12-07T13:00:40Z</time>
      </trkpt>
      <trkpt lat="13.632766" lon="-89.21328">
        <ele>804.483</ele>
        <time>2019-12-07T13:00:45Z</time>
      </trkpt>
      <trkpt lat="13.632928" lon="-89.21327">
        <ele>803.606</ele>
        <time>2019-12-07T13:00:55Z</time>
      </trkpt>
      <trkpt lat="13.6330805" lon="-89.213264">
        <ele>803.214</ele>
        <time>2019-12-07T13:01:05Z</time>
      </trkpt>
      <trkpt lat="13.6332035" lon="-89.21329">
        <ele>803.503</ele>
        <time>2019-12-07T13:01:15Z</time>
      </trkpt>
      <trkpt lat="13.633327" lon="-89.21335">
        <ele>803.384</ele>
        <time>2019-12-07T13:01:25Z</time>
      </trkpt>
      <trkpt lat="13.633384" lon="-89.21339">
        <ele>804.515</ele>
        <time>2019-12-07T13:01:30Z</time>
      </trkpt>
      <trkpt lat="13.633506" lon="-89.2135">
        <ele>806.627</ele>
        <time>2019-12-07T13:01:40Z</time>
      </trkpt>
      <trkpt lat="13.633598" lon="-89.21358">
        <ele>810.229</ele>
        <time>2019-12-07T13:01:54Z</time>
      </trkpt>
      <trkpt lat="13.63366" lon="-89.21357">
        <ele>812.206</ele>
        <time>2019-12-07T13:02:00Z</time>
      </trkpt>
      <trkpt lat="13.633701" lon="-89.2136">
        <ele>812.499</ele>
        <time>2019-12-07T13:02:10Z</time>
      </trkpt>
      <trkpt lat="13.633767" lon="-89.21359">
        <ele>813.561</ele>
        <time>2019-12-07T13:02:15Z</time>
      </trkpt>
      <trkpt lat="13.633847" lon="-89.213646">
        <ele>814.679</ele>
        <time>2019-12-07T13:02:39Z</time>
      </trkpt>
      <trkpt lat="13.6339035" lon="-89.21373">
        <ele>816.853</ele>
        <time>2019-12-07T13:02:45Z</time>
      </trkpt>
      <trkpt lat="13.633968" lon="-89.21386">
        <ele>818.57</ele>
        <time>2019-12-07T13:02:55Z</time>
      </trkpt>
      <trkpt lat="13.634045" lon="-89.21395">
        <ele>820.854</ele>
        <time>2019-12-07T13:03:04Z</time>
      </trkpt>
      <trkpt lat="13.634095" lon="-89.21399">
        <ele>819.459</ele>
        <time>2019-12-07T13:03:09Z</time>
      </trkpt>
      <trkpt lat="13.634129" lon="-89.21404">
        <ele>816.817</ele>
        <time>2019-12-07T13:03:14Z</time>
      </trkpt>
      <trkpt lat="13.634163" lon="-89.2141">
        <ele>814.972</ele>
        <time>2019-12-07T13:03:20Z</time>
      </trkpt>
      <trkpt lat="13.634123" lon="-89.2142">
        <ele>814.181</ele>
        <time>2019-12-07T13:03:30Z</time>
      </trkpt>
      <trkpt lat="13.634053" lon="-89.21429">
        <ele>813.094</ele>
        <time>2019-12-07T13:03:40Z</time>
      </trkpt>
      <trkpt lat="13.633998" lon="-89.21434">
        <ele>811.763</ele>
        <time>2019-12-07T13:03:49Z</time>
      </trkpt>
      <trkpt lat="13.634001" lon="-89.21439">
        <ele>809.552</ele>
        <time>2019-12-07T13:04:15Z</time>
      </trkpt>
      <trkpt lat="13.634179" lon="-89.21447">
        <ele>810.514</ele>
        <time>2019-12-07T13:04:25Z</time>
      </trkpt>
      <trkpt lat="13.634342" lon="-89.214584">
        <ele>812.039</ele>
        <time>2019-12-07T13:04:35Z</time>
      </trkpt>
      <trkpt lat="13.634441" lon="-89.21467">
        <ele>813.213</ele>
        <time>2019-12-07T13:04:40Z</time>
      </trkpt>
      <trkpt lat="13.63465" lon="-89.21481">
        <ele>816.802</ele>
        <time>2019-12-07T13:04:50Z</time>
      </trkpt>
      <trkpt lat="13.634828" lon="-89.21497">
        <ele>817.409</ele>
        <time>2019-12-07T13:05:00Z</time>
      </trkpt>
      <trkpt lat="13.6349325" lon="-89.21508">
        <ele>819.785</ele>
        <time>2019-12-07T13:05:10Z</time>
      </trkpt>
      <trkpt lat="13.635002" lon="-89.215195">
        <ele>820.794</ele>
        <time>2019-12-07T13:05:30Z</time>
      </trkpt>
      <trkpt lat="13.635022" lon="-89.21526">
        <ele>823.06</ele>
        <time>2019-12-07T13:05:39Z</time>
      </trkpt>
      <trkpt lat="13.635008" lon="-89.21531">
        <ele>825.11</ele>
        <time>2019-12-07T13:05:45Z</time>
      </trkpt>
      <trkpt lat="13.634953" lon="-89.215324">
        <ele>829.68</ele>
        <time>2019-12-07T13:05:59Z</time>
      </trkpt>
      <trkpt lat="13.63485" lon="-89.21526">
        <ele>830.795</ele>
        <time>2019-12-07T13:06:05Z</time>
      </trkpt>
      <trkpt lat="13.634745" lon="-89.21528">
        <ele>833.314</ele>
        <time>2019-12-07T13:06:15Z</time>
      </trkpt>
      <trkpt lat="13.634694" lon="-89.21532">
        <ele>833.447</ele>
        <time>2019-12-07T13:06:20Z</time>
      </trkpt>
      <trkpt lat="13.634672" lon="-89.215385">
        <ele>834.648</ele>
        <time>2019-12-07T13:06:30Z</time>
      </trkpt>
      <trkpt lat="13.634653" lon="-89.21543">
        <ele>836.45</ele>
        <time>2019-12-07T13:06:40Z</time>
      </trkpt>
      <trkpt lat="13.6345825" lon="-89.21546">
        <ele>838.865</ele>
        <time>2019-12-07T13:07:00Z</time>
      </trkpt>
      <trkpt lat="13.634553" lon="-89.21551">
        <ele>840.875</ele>
        <time>2019-12-07T13:07:05Z</time>
      </trkpt>
      <trkpt lat="13.63454" lon="-89.2156">
        <ele>843.859</ele>
        <time>2019-12-07T13:07:19Z</time>
      </trkpt>
      <trkpt lat="13.634513" lon="-89.21567">
        <ele>848.863</ele>
        <time>2019-12-07T13:07:25Z</time>
      </trkpt>
      <trkpt lat="13.63446" lon="-89.21573">
        <ele>851.398</ele>
        <time>2019-12-07T13:07:35Z</time>
      </trkpt>
      <trkpt lat="13.634445" lon="-89.215805">
        <ele>853.162</ele>
        <time>2019-12-07T13:07:45Z</time>
      </trkpt>
      <trkpt lat="13.634352" lon="-89.21592">
        <ele>855.41</ele>
        <time>2019-12-07T13:08:20Z</time>
      </trkpt>
      <trkpt lat="13.634326" lon="-89.21598">
        <ele>856.33</ele>
        <time>2019-12-07T13:08:30Z</time>
      </trkpt>
      <trkpt lat="13.6343155" lon="-89.21603">
        <ele>860.126</ele>
        <time>2019-12-07T13:09:19Z</time>
      </trkpt>
      <trkpt lat="13.63435" lon="-89.21608">
        <ele>863.731</ele>
        <time>2019-12-07T13:09:40Z</time>
      </trkpt>
      <trkpt lat="13.634382" lon="-89.21616">
        <ele>865.093</ele>
        <time>2019-12-07T13:09:50Z</time>
      </trkpt>
      <trkpt lat="13.634407" lon="-89.21625">
        <ele>865.987</ele>
        <time>2019-12-07T13:10:00Z</time>
      </trkpt>
      <trkpt lat="13.634421" lon="-89.21629">
        <ele>865.69</ele>
        <time>2019-12-07T13:10:10Z</time>
      </trkpt>
      <trkpt lat="13.63442" lon="-89.21633">
        <ele>867.023</ele>
        <time>2019-12-07T13:10:19Z</time>
      </trkpt>
      <trkpt lat="13.634435" lon="-89.21639">
        <ele>869.033</ele>
        <time>2019-12-07T13:10:29Z</time>
      </trkpt>
      <trkpt lat="13.634459" lon="-89.21644">
        <ele>871.804</ele>
        <time>2019-12-07T13:10:49Z</time>
      </trkpt>
      <trkpt lat="13.634469" lon="-89.216515">
        <ele>873.557</ele>
        <time>2019-12-07T13:10:55Z</time>
      </trkpt>
      <trkpt lat="13.634492" lon="-89.21663">
        <ele>874.64</ele>
        <time>2019-12-07T13:11:05Z</time>
      </trkpt>
      <trkpt lat="13.634521" lon="-89.216705">
        <ele>875.249</ele>
        <time>2019-12-07T13:11:14Z</time>
      </trkpt>
      <trkpt lat="13.634555" lon="-89.21677">
        <ele>876.686</ele>
        <time>2019-12-07T13:11:20Z</time>
      </trkpt>
      <trkpt lat="13.634565" lon="-89.21683">
        <ele>878.602</ele>
        <time>2019-12-07T13:11:30Z</time>
      </trkpt>
      <trkpt lat="13.634598" lon="-89.21687">
        <ele>879.547</ele>
        <time>2019-12-07T13:11:40Z</time>
      </trkpt>
      <trkpt lat="13.634615" lon="-89.216934">
        <ele>879.838</ele>
        <time>2019-12-07T13:11:50Z</time>
      </trkpt>
      <trkpt lat="13.634629" lon="-89.21701">
        <ele>881.683</ele>
        <time>2019-12-07T13:11:55Z</time>
      </trkpt>
      <trkpt lat="13.634579" lon="-89.217186">
        <ele>881.114</ele>
        <time>2019-12-07T13:12:05Z</time>
      </trkpt>
      <trkpt lat="13.634589" lon="-89.21726">
        <ele>880.82</ele>
        <time>2019-12-07T13:12:15Z</time>
      </trkpt>
      <trkpt lat="13.634611" lon="-89.21732">
        <ele>880.398</ele>
        <time>2019-12-07T13:12:24Z</time>
      </trkpt>
      <trkpt lat="13.634638" lon="-89.21754">
        <ele>878.453</ele>
        <time>2019-12-07T13:12:35Z</time>
      </trkpt>
      <trkpt lat="13.634737" lon="-89.2176">
        <ele>879.194</ele>
        <time>2019-12-07T13:12:44Z</time>
      </trkpt>
      <trkpt lat="13.63499" lon="-89.21771">
        <ele>880.471</ele>
        <time>2019-12-07T13:13:00Z</time>
      </trkpt>
      <trkpt lat="13.634751" lon="-89.21778">
        <ele>880.78</ele>
        <time>2019-12-07T13:13:10Z</time>
      </trkpt>
      <trkpt lat="13.634832" lon="-89.21784">
        <ele>880.935</ele>
        <time>2019-12-07T13:13:21Z</time>
      </trkpt>
      <trkpt lat="13.634926" lon="-89.21791">
        <ele>881.868</ele>
        <time>2019-12-07T13:13:35Z</time>
      </trkpt>
      <trkpt lat="13.635022" lon="-89.21794">
        <ele>883.009</ele>
        <time>2019-12-07T13:13:45Z</time>
      </trkpt>
      <trkpt lat="13.635084" lon="-89.21796">
        <ele>884.755</ele>
        <time>2019-12-07T13:13:56Z</time>
      </trkpt>
      <trkpt lat="13.635139" lon="-89.21798">
        <ele>886.267</ele>
        <time>2019-12-07T13:14:06Z</time>
      </trkpt>
      <trkpt lat="13.635156" lon="-89.218025">
        <ele>886.958</ele>
        <time>2019-12-07T13:14:15Z</time>
      </trkpt>
      <trkpt lat="13.635108" lon="-89.218056">
        <ele>890.0</ele>
        <time>2019-12-07T13:14:20Z</time>
      </trkpt>
      <trkpt lat="13.635008" lon="-89.21812">
        <ele>892.549</ele>
        <time>2019-12-07T13:14:25Z</time>
      </trkpt>
      <trkpt lat="13.634959" lon="-89.21815">
        <ele>894.776</ele>
        <time>2019-12-07T13:14:31Z</time>
      </trkpt>
      <trkpt lat="13.635027" lon="-89.2183">
        <ele>896.841</ele>
        <time>2019-12-07T13:14:41Z</time>
      </trkpt>
      <trkpt lat="13.63506" lon="-89.21833">
        <ele>898.558</ele>
        <time>2019-12-07T13:14:51Z</time>
      </trkpt>
      <trkpt lat="13.635091" lon="-89.21833">
        <ele>899.283</ele>
        <time>2019-12-07T13:15:05Z</time>
      </trkpt>
      <trkpt lat="13.635137" lon="-89.218315">
        <ele>898.253</ele>
        <time>2019-12-07T13:15:16Z</time>
      </trkpt>
      <trkpt lat="13.635205" lon="-89.2183">
        <ele>896.938</ele>
        <time>2019-12-07T13:15:26Z</time>
      </trkpt>
      <trkpt lat="13.6352625" lon="-89.21829">
        <ele>896.431</ele>
        <time>2019-12-07T13:15:36Z</time>
      </trkpt>
      <trkpt lat="13.635334" lon="-89.21826">
        <ele>895.984</ele>
        <time>2019-12-07T13:15:46Z</time>
      </trkpt>
      <trkpt lat="13.635366" lon="-89.21829">
        <ele>895.787</ele>
        <time>2019-12-07T13:15:55Z</time>
      </trkpt>
      <trkpt lat="13.635415" lon="-89.21831">
        <ele>896.288</ele>
        <time>2019-12-07T13:16:01Z</time>
      </trkpt>
      <trkpt lat="13.635514" lon="-89.21837">
        <ele>896.937</ele>
        <time>2019-12-07T13:16:11Z</time>
      </trkpt>
      <trkpt lat="13.635633" lon="-89.21849">
        <ele>898.442</ele>
        <time>2019-12-07T13:16:21Z</time>
      </trkpt>
      <trkpt lat="13.635838" lon="-89.2186">
        <ele>901.172</ele>
        <time>2019-12-07T13:16:30Z</time>
      </trkpt>
      <trkpt lat="13.635959" lon="-89.21865">
        <ele>903.531</ele>
        <time>2019-12-07T13:16:35Z</time>
      </trkpt>
      <trkpt lat="13.636098" lon="-89.2187">
        <ele>904.178</ele>
        <time>2019-12-07T13:16:40Z</time>
      </trkpt>
      <trkpt lat="13.63619" lon="-89.21874">
        <ele>905.234</ele>
        <time>2019-12-07T13:16:45Z</time>
      </trkpt>
      <trkpt lat="13.636278" lon="-89.21877">
        <ele>906.629</ele>
        <time>2019-12-07T13:16:50Z</time>
      </trkpt>
      <trkpt lat="13.636394" lon="-89.21879">
        <ele>907.684</ele>
        <time>2019-12-07T13:16:56Z</time>
      </trkpt>
      <trkpt lat="13.636548" lon="-89.21883">
        <ele>908.147</ele>
        <time>2019-12-07T13:17:06Z</time>
      </trkpt>
      <trkpt lat="13.636703" lon="-89.218864">
        <ele>908.161</ele>
        <time>2019-12-07T13:17:15Z</time>
      </trkpt>
      <trkpt lat="13.636775" lon="-89.21889">
        <ele>908.016</ele>
        <time>2019-12-07T13:17:20Z</time>
      </trkpt>
      <trkpt lat="13.6368475" lon="-89.21891">
        <ele>908.362</ele>
        <time>2019-12-07T13:17:25Z</time>
      </trkpt>
      <trkpt lat="13.636931" lon="-89.21891">
        <ele>908.447</ele>
        <time>2019-12-07T13:17:30Z</time>
      </trkpt>
      <trkpt lat="13.636978" lon="-89.21891">
        <ele>909.188</ele>
        <time>2019-12-07T13:17:35Z</time>
      </trkpt>
      <trkpt lat="13.637031" lon="-89.21891">
        <ele>909.884</ele>
        <time>2019-12-07T13:17:40Z</time>
      </trkpt>
      <trkpt lat="13.637095" lon="-89.2189">
        <ele>909.242</ele>
        <time>2019-12-07T13:17:45Z</time>
      </trkpt>
      <trkpt lat="13.637147" lon="-89.21892">
        <ele>909.819</ele>
        <time>2019-12-07T13:17:51Z</time>
      </trkpt>
      <trkpt lat="13.637164" lon="-89.21892">
        <ele>911.819</ele>
        <time>2019-12-07T13:18:50Z</time>
      </trkpt>
      <trkpt lat="13.637203" lon="-89.21891">
        <ele>913.052</ele>
        <time>2019-12-07T13:21:30Z</time>
      </trkpt>
      <trkpt lat="13.637243" lon="-89.218895">
        <ele>914.41</ele>
        <time>2019-12-07T13:21:35Z</time>
      </trkpt>
      <trkpt lat="13.637344" lon="-89.218864">
        <ele>915.989</ele>
        <time>2019-12-07T13:21:40Z</time>
      </trkpt>
      <trkpt lat="13.637444" lon="-89.21885">
        <ele>917.089</ele>
        <time>2019-12-07T13:21:46Z</time>
      </trkpt>
      <trkpt lat="13.637489" lon="-89.21885">
        <ele>918.025</ele>
        <time>2019-12-07T13:21:56Z</time>
      </trkpt>
      <trkpt lat="13.637641" lon="-89.21882">
        <ele>919.891</ele>
        <time>2019-12-07T13:22:05Z</time>
      </trkpt>
      <trkpt lat="13.637728" lon="-89.2188">
        <ele>920.744</ele>
        <time>2019-12-07T13:22:10Z</time>
      </trkpt>
      <trkpt lat="13.637813" lon="-89.21877">
        <ele>921.967</ele>
        <time>2019-12-07T13:22:15Z</time>
      </trkpt>
      <trkpt lat="13.637884" lon="-89.21875">
        <ele>923.517</ele>
        <time>2019-12-07T13:22:20Z</time>
      </trkpt>
      <trkpt lat="13.637964" lon="-89.21874">
        <ele>925.126</ele>
        <time>2019-12-07T13:22:25Z</time>
      </trkpt>
      <trkpt lat="13.6380415" lon="-89.21874">
        <ele>925.799</ele>
        <time>2019-12-07T13:22:30Z</time>
      </trkpt>
      <trkpt lat="13.638105" lon="-89.218735">
        <ele>926.639</ele>
        <time>2019-12-07T13:22:35Z</time>
      </trkpt>
      <trkpt lat="13.638205" lon="-89.21876">
        <ele>927.356</ele>
        <time>2019-12-07T13:22:41Z</time>
      </trkpt>
      <trkpt lat="13.638344" lon="-89.21879">
        <ele>928.617</ele>
        <time>2019-12-07T13:22:51Z</time>
      </trkpt>
      <trkpt lat="13.638425" lon="-89.2188">
        <ele>930.683</ele>
        <time>2019-12-07T13:23:00Z</time>
      </trkpt>
      <trkpt lat="13.63847" lon="-89.2188">
        <ele>932.735</ele>
        <time>2019-12-07T13:23:05Z</time>
      </trkpt>
      <trkpt lat="13.638554" lon="-89.21878">
        <ele>933.897</ele>
        <time>2019-12-07T13:23:10Z</time>
      </trkpt>
      <trkpt lat="13.638614" lon="-89.21875">
        <ele>935.711</ele>
        <time>2019-12-07T13:23:15Z</time>
      </trkpt>
      <trkpt lat="13.638661" lon="-89.21873">
        <ele>936.632</ele>
        <time>2019-12-07T13:23:20Z</time>
      </trkpt>
      <trkpt lat="13.638703" lon="-89.218704">
        <ele>936.545</ele>
        <time>2019-12-07T13:23:26Z</time>
      </trkpt>
      <trkpt lat="13.638853" lon="-89.21864">
        <ele>938.012</ele>
        <time>2019-12-07T13:23:36Z</time>
      </trkpt>
      <trkpt lat="13.638947" lon="-89.21861">
        <ele>941.085</ele>
        <time>2019-12-07T13:23:45Z</time>
      </trkpt>
      <trkpt lat="13.639007" lon="-89.21858">
        <ele>941.826</ele>
        <time>2019-12-07T13:23:50Z</time>
      </trkpt>
      <trkpt lat="13.639066" lon="-89.21852">
        <ele>942.137</ele>
        <time>2019-12-07T13:23:55Z</time>
      </trkpt>
      <trkpt lat="13.639087" lon="-89.218445">
        <ele>942.601</ele>
        <time>2019-12-07T13:24:00Z</time>
      </trkpt>
      <trkpt lat="13.639086" lon="-89.218376">
        <ele>942.973</ele>
        <time>2019-12-07T13:24:05Z</time>
      </trkpt>
      <trkpt lat="13.639076" lon="-89.2183">
        <ele>943.321</ele>
        <time>2019-12-07T13:24:11Z</time>
      </trkpt>
      <trkpt lat="13.639058" lon="-89.218155">
        <ele>942.907</ele>
        <time>2019-12-07T13:24:21Z</time>
      </trkpt>
      <trkpt lat="13.639047" lon="-89.21806">
        <ele>943.169</ele>
        <time>2019-12-07T13:24:30Z</time>
      </trkpt>
      <trkpt lat="13.639108" lon="-89.218">
        <ele>943.798</ele>
        <time>2019-12-07T13:24:35Z</time>
      </trkpt>
      <trkpt lat="13.6391945" lon="-89.21797">
        <ele>946.325</ele>
        <time>2019-12-07T13:24:40Z</time>
      </trkpt>
      <trkpt lat="13.639306" lon="-89.21797">
        <ele>948.786</ele>
        <time>2019-12-07T13:24:45Z</time>
      </trkpt>
      <trkpt lat="13.639421" lon="-89.21798">
        <ele>949.89</ele>
        <time>2019-12-07T13:24:50Z</time>
      </trkpt>
      <trkpt lat="13.6395445" lon="-89.21799">
        <ele>951.457</ele>
        <time>2019-12-07T13:24:55Z</time>
      </trkpt>
      <trkpt lat="13.639651" lon="-89.217995">
        <ele>952.707</ele>
        <time>2019-12-07T13:25:00Z</time>
      </trkpt>
      <trkpt lat="13.63984" lon="-89.21801">
        <ele>953.431</ele>
        <time>2019-12-07T13:25:06Z</time>
      </trkpt>
      <trkpt lat="13.640105" lon="-89.21803">
        <ele>953.369</ele>
        <time>2019-12-07T13:25:16Z</time>
      </trkpt>
      <trkpt lat="13.640243" lon="-89.217995">
        <ele>955.545</ele>
        <time>2019-12-07T13:25:25Z</time>
      </trkpt>
      <trkpt lat="13.640302" lon="-89.21795">
        <ele>956.335</ele>
        <time>2019-12-07T13:25:30Z</time>
      </trkpt>
      <trkpt lat="13.640372" lon="-89.21789">
        <ele>955.998</ele>
        <time>2019-12-07T13:25:35Z</time>
      </trkpt>
      <trkpt lat="13.640438" lon="-89.217834">
        <ele>955.061</ele>
        <time>2019-12-07T13:25:40Z</time>
      </trkpt>
      <trkpt lat="13.640475" lon="-89.21778">
        <ele>954.497</ele>
        <time>2019-12-07T13:25:45Z</time>
      </trkpt>
      <trkpt lat="13.640502" lon="-89.217674">
        <ele>952.979</ele>
        <time>2019-12-07T13:25:51Z</time>
      </trkpt>
      <trkpt lat="13.640556" lon="-89.21746">
        <ele>952.903</ele>
        <time>2019-12-07T13:26:01Z</time>
      </trkpt>
      <trkpt lat="13.640606" lon="-89.217354">
        <ele>952.724</ele>
        <time>2019-12-07T13:26:10Z</time>
      </trkpt>
      <trkpt lat="13.640645" lon="-89.217316">
        <ele>954.816</ele>
        <time>2019-12-07T13:26:15Z</time>
      </trkpt>
      <trkpt lat="13.640701" lon="-89.217285">
        <ele>957.737</ele>
        <time>2019-12-07T13:26:20Z</time>
      </trkpt>
      <trkpt lat="13.640759" lon="-89.21725">
        <ele>960.051</ele>
        <time>2019-12-07T13:26:25Z</time>
      </trkpt>
      <trkpt lat="13.640819" lon="-89.21721">
        <ele>961.229</ele>
        <time>2019-12-07T13:26:30Z</time>
      </trkpt>
      <trkpt lat="13.640891" lon="-89.217155">
        <ele>962.02</ele>
        <time>2019-12-07T13:26:36Z</time>
      </trkpt>
      <trkpt lat="13.641039" lon="-89.217">
        <ele>962.759</ele>
        <time>2019-12-07T13:26:46Z</time>
      </trkpt>
      <trkpt lat="13.641224" lon="-89.21688">
        <ele>964.842</ele>
        <time>2019-12-07T13:26:56Z</time>
      </trkpt>
      <trkpt lat="13.641357" lon="-89.21675">
        <ele>967.687</ele>
        <time>2019-12-07T13:27:05Z</time>
      </trkpt>
      <trkpt lat="13.64142" lon="-89.2166">
        <ele>968.326</ele>
        <time>2019-12-07T13:27:14Z</time>
      </trkpt>
      <trkpt lat="13.641444" lon="-89.216515">
        <ele>969.144</ele>
        <time>2019-12-07T13:27:19Z</time>
      </trkpt>
      <trkpt lat="13.641458" lon="-89.21647">
        <ele>969.306</ele>
        <time>2019-12-07T13:27:25Z</time>
      </trkpt>
      <trkpt lat="13.641482" lon="-89.216415">
        <ele>971.046</ele>
        <time>2019-12-07T13:27:31Z</time>
      </trkpt>
      <trkpt lat="13.641624" lon="-89.21634">
        <ele>972.606</ele>
        <time>2019-12-07T13:27:41Z</time>
      </trkpt>
      <trkpt lat="13.641778" lon="-89.216286">
        <ele>974.57</ele>
        <time>2019-12-07T13:27:50Z</time>
      </trkpt>
      <trkpt lat="13.64187" lon="-89.21624">
        <ele>975.576</ele>
        <time>2019-12-07T13:27:55Z</time>
      </trkpt>
      <trkpt lat="13.641913" lon="-89.216194">
        <ele>977.218</ele>
        <time>2019-12-07T13:28:00Z</time>
      </trkpt>
      <trkpt lat="13.641915" lon="-89.21615">
        <ele>979.556</ele>
        <time>2019-12-07T13:28:06Z</time>
      </trkpt>
      <trkpt lat="13.641902" lon="-89.21603">
        <ele>980.385</ele>
        <time>2019-12-07T13:28:16Z</time>
      </trkpt>
      <trkpt lat="13.641871" lon="-89.21585">
        <ele>981.756</ele>
        <time>2019-12-07T13:28:26Z</time>
      </trkpt>
      <trkpt lat="13.64187" lon="-89.21571">
        <ele>984.018</ele>
        <time>2019-12-07T13:28:36Z</time>
      </trkpt>
      <trkpt lat="13.641917" lon="-89.215614">
        <ele>985.321</ele>
        <time>2019-12-07T13:28:45Z</time>
      </trkpt>
      <trkpt lat="13.641948" lon="-89.215576">
        <ele>986.169</ele>
        <time>2019-12-07T13:28:51Z</time>
      </trkpt>
      <trkpt lat="13.641968" lon="-89.21546">
        <ele>986.652</ele>
        <time>2019-12-07T13:29:01Z</time>
      </trkpt>
      <trkpt lat="13.641949" lon="-89.21533">
        <ele>988.106</ele>
        <time>2019-12-07T13:29:11Z</time>
      </trkpt>
      <trkpt lat="13.641935" lon="-89.21522">
        <ele>989.397</ele>
        <time>2019-12-07T13:29:21Z</time>
      </trkpt>
      <trkpt lat="13.641941" lon="-89.215065">
        <ele>989.901</ele>
        <time>2019-12-07T13:29:30Z</time>
      </trkpt>
      <trkpt lat="13.641969" lon="-89.215004">
        <ele>989.456</ele>
        <time>2019-12-07T13:29:35Z</time>
      </trkpt>
      <trkpt lat="13.641996" lon="-89.21495">
        <ele>986.781</ele>
        <time>2019-12-07T13:29:40Z</time>
      </trkpt>
      <trkpt lat="13.642026" lon="-89.21491">
        <ele>985.256</ele>
        <time>2019-12-07T13:29:45Z</time>
      </trkpt>
      <trkpt lat="13.642079" lon="-89.21483">
        <ele>984.219</ele>
        <time>2019-12-07T13:29:56Z</time>
      </trkpt>
      <trkpt lat="13.642089" lon="-89.214745">
        <ele>983.627</ele>
        <time>2019-12-07T13:30:05Z</time>
      </trkpt>
      <trkpt lat="13.642124" lon="-89.21468">
        <ele>980.093</ele>
        <time>2019-12-07T13:30:15Z</time>
      </trkpt>
      <trkpt lat="13.642156" lon="-89.21463">
        <ele>975.3</ele>
        <time>2019-12-07T13:30:20Z</time>
      </trkpt>
      <trkpt lat="13.642196" lon="-89.21457">
        <ele>970.544</ele>
        <time>2019-12-07T13:30:25Z</time>
      </trkpt>
      <trkpt lat="13.642255" lon="-89.21451">
        <ele>969.244</ele>
        <time>2019-12-07T13:30:30Z</time>
      </trkpt>
      <trkpt lat="13.642327" lon="-89.21445">
        <ele>967.835</ele>
        <time>2019-12-07T13:30:35Z</time>
      </trkpt>
      <trkpt lat="13.6424675" lon="-89.214386">
        <ele>965.699</ele>
        <time>2019-12-07T13:30:41Z</time>
      </trkpt>
      <trkpt lat="13.642597" lon="-89.21432">
        <ele>964.474</ele>
        <time>2019-12-07T13:30:51Z</time>
      </trkpt>
      <trkpt lat="13.642674" lon="-89.2143">
        <ele>960.493</ele>
        <time>2019-12-07T13:31:01Z</time>
      </trkpt>
      <trkpt lat="13.642748" lon="-89.214294">
        <ele>959.032</ele>
        <time>2019-12-07T13:31:15Z</time>
      </trkpt>
      <trkpt lat="13.642806" lon="-89.214294">
        <ele>958.118</ele>
        <time>2019-12-07T13:31:20Z</time>
      </trkpt>
      <trkpt lat="13.642846" lon="-89.21431">
        <ele>958.105</ele>
        <time>2019-12-07T13:31:26Z</time>
      </trkpt>
      <trkpt lat="13.642976" lon="-89.21429">
        <ele>957.428</ele>
        <time>2019-12-07T13:31:36Z</time>
      </trkpt>
      <trkpt lat="13.64309" lon="-89.21422">
        <ele>955.642</ele>
        <time>2019-12-07T13:31:46Z</time>
      </trkpt>
      <trkpt lat="13.643245" lon="-89.21418">
        <ele>951.768</ele>
        <time>2019-12-07T13:31:55Z</time>
      </trkpt>
      <trkpt lat="13.643364" lon="-89.21416">
        <ele>950.665</ele>
        <time>2019-12-07T13:32:00Z</time>
      </trkpt>
      <trkpt lat="13.643465" lon="-89.21415">
        <ele>949.276</ele>
        <time>2019-12-07T13:32:05Z</time>
      </trkpt>
      <trkpt lat="13.643596" lon="-89.21419">
        <ele>948.706</ele>
        <time>2019-12-07T13:32:10Z</time>
      </trkpt>
      <trkpt lat="13.64373" lon="-89.21429">
        <ele>948.615</ele>
        <time>2019-12-07T13:32:15Z</time>
      </trkpt>
      <trkpt lat="13.6438875" lon="-89.21442">
        <ele>948.849</ele>
        <time>2019-12-07T13:32:21Z</time>
      </trkpt>
      <trkpt lat="13.644196" lon="-89.214554">
        <ele>948.28</ele>
        <time>2019-12-07T13:32:31Z</time>
      </trkpt>
      <trkpt lat="13.644377" lon="-89.21474">
        <ele>945.984</ele>
        <time>2019-12-07T13:32:40Z</time>
      </trkpt>
      <trkpt lat="13.64448" lon="-89.214836">
        <ele>944.094</ele>
        <time>2019-12-07T13:32:45Z</time>
      </trkpt>
      <trkpt lat="13.644575" lon="-89.21495">
        <ele>943.589</ele>
        <time>2019-12-07T13:32:50Z</time>
      </trkpt>
      <trkpt lat="13.644674" lon="-89.215065">
        <ele>943.939</ele>
        <time>2019-12-07T13:32:55Z</time>
      </trkpt>
      <trkpt lat="13.6447115" lon="-89.21513">
        <ele>944.985</ele>
        <time>2019-12-07T13:33:00Z</time>
      </trkpt>
      <trkpt lat="13.644716" lon="-89.21526">
        <ele>945.951</ele>
        <time>2019-12-07T13:33:06Z</time>
      </trkpt>
      <trkpt lat="13.644804" lon="-89.21553">
        <ele>947.353</ele>
        <time>2019-12-07T13:33:16Z</time>
      </trkpt>
      <trkpt lat="13.645016" lon="-89.21568">
        <ele>950.083</ele>
        <time>2019-12-07T13:33:25Z</time>
      </trkpt>
      <trkpt lat="13.645155" lon="-89.21575">
        <ele>951.884</ele>
        <time>2019-12-07T13:33:30Z</time>
      </trkpt>
      <trkpt lat="13.645283" lon="-89.2158">
        <ele>953.993</ele>
        <time>2019-12-07T13:33:35Z</time>
      </trkpt>
      <trkpt lat="13.64537" lon="-89.21575">
        <ele>953.89</ele>
        <time>2019-12-07T13:33:40Z</time>
      </trkpt>
      <trkpt lat="13.645431" lon="-89.21567">
        <ele>956.113</ele>
        <time>2019-12-07T13:33:45Z</time>
      </trkpt>
      <trkpt lat="13.64548" lon="-89.21555">
        <ele>956.437</ele>
        <time>2019-12-07T13:33:50Z</time>
      </trkpt>
      <trkpt lat="13.645502" lon="-89.21535">
        <ele>958.674</ele>
        <time>2019-12-07T13:34:00Z</time>
      </trkpt>
      <trkpt lat="13.645578" lon="-89.21521">
        <ele>959.798</ele>
        <time>2019-12-07T13:34:11Z</time>
      </trkpt>
      <trkpt lat="13.645702" lon="-89.21511">
        <ele>961.075</ele>
        <time>2019-12-07T13:34:20Z</time>
      </trkpt>
      <trkpt lat="13.645752" lon="-89.215034">
        <ele>962.231</ele>
        <time>2019-12-07T13:34:25Z</time>
      </trkpt>
      <trkpt lat="13.645766" lon="-89.21498">
        <ele>963.12</ele>
        <time>2019-12-07T13:34:29Z</time>
      </trkpt>
      <trkpt lat="13.645782" lon="-89.21493">
        <ele>964.585</ele>
        <time>2019-12-07T13:34:35Z</time>
      </trkpt>
      <trkpt lat="13.6458845" lon="-89.2149">
        <ele>965.394</ele>
        <time>2019-12-07T13:34:46Z</time>
      </trkpt>
      <trkpt lat="13.646069" lon="-89.21485">
        <ele>966.256</ele>
        <time>2019-12-07T13:34:56Z</time>
      </trkpt>
      <trkpt lat="13.6461935" lon="-89.21481">
        <ele>967.852</ele>
        <time>2019-12-07T13:35:05Z</time>
      </trkpt>
      <trkpt lat="13.646277" lon="-89.2148">
        <ele>969.953</ele>
        <time>2019-12-07T13:35:10Z</time>
      </trkpt>
      <trkpt lat="13.646357" lon="-89.2148">
        <ele>971.123</ele>
        <time>2019-12-07T13:35:15Z</time>
      </trkpt>
      <trkpt lat="13.646433" lon="-89.214836">
        <ele>972.719</ele>
        <time>2019-12-07T13:35:20Z</time>
      </trkpt>
      <trkpt lat="13.646525" lon="-89.21493">
        <ele>973.402</ele>
        <time>2019-12-07T13:35:25Z</time>
      </trkpt>
      <trkpt lat="13.6465645" lon="-89.21503">
        <ele>974.484</ele>
        <time>2019-12-07T13:35:31Z</time>
      </trkpt>
      <trkpt lat="13.646653" lon="-89.21518">
        <ele>975.815</ele>
        <time>2019-12-07T13:35:41Z</time>
      </trkpt>
      <trkpt lat="13.646699" lon="-89.21531">
        <ele>977.103</ele>
        <time>2019-12-07T13:35:50Z</time>
      </trkpt>
      <trkpt lat="13.646723" lon="-89.215385">
        <ele>977.596</ele>
        <time>2019-12-07T13:35:55Z</time>
      </trkpt>
      <trkpt lat="13.646753" lon="-89.21546">
        <ele>978.247</ele>
        <time>2019-12-07T13:36:05Z</time>
      </trkpt>
      <trkpt lat="13.646803" lon="-89.2155">
        <ele>979.091</ele>
        <time>2019-12-07T13:36:10Z</time>
      </trkpt>
      <trkpt lat="13.646865" lon="-89.21552">
        <ele>979.871</ele>
        <time>2019-12-07T13:36:16Z</time>
      </trkpt>
      <trkpt lat="13.646968" lon="-89.215576">
        <ele>980.7</ele>
        <time>2019-12-07T13:36:26Z</time>
      </trkpt>
      <trkpt lat="13.647033" lon="-89.21564">
        <ele>980.964</ele>
        <time>2019-12-07T13:36:36Z</time>
      </trkpt>
      <trkpt lat="13.647095" lon="-89.21573">
        <ele>982.368</ele>
        <time>2019-12-07T13:36:45Z</time>
      </trkpt>
      <trkpt lat="13.647106" lon="-89.215775">
        <ele>983.27</ele>
        <time>2019-12-07T13:36:50Z</time>
      </trkpt>
      <trkpt lat="13.647121" lon="-89.21585">
        <ele>984.298</ele>
        <time>2019-12-07T13:36:55Z</time>
      </trkpt>
      <trkpt lat="13.647175" lon="-89.21594">
        <ele>984.342</ele>
        <time>2019-12-07T13:37:01Z</time>
      </trkpt>
      <trkpt lat="13.647206" lon="-89.21604">
        <ele>984.743</ele>
        <time>2019-12-07T13:37:11Z</time>
      </trkpt>
      <trkpt lat="13.647197" lon="-89.21609">
        <ele>984.436</ele>
        <time>2019-12-07T13:37:21Z</time>
      </trkpt>
      <trkpt lat="13.647256" lon="-89.21615">
        <ele>984.135</ele>
        <time>2019-12-07T13:37:40Z</time>
      </trkpt>
      <trkpt lat="13.647279" lon="-89.216286">
        <ele>983.495</ele>
        <time>2019-12-07T13:38:45Z</time>
      </trkpt>
      <trkpt lat="13.6472845" lon="-89.21636">
        <ele>982.939</ele>
        <time>2019-12-07T13:38:55Z</time>
      </trkpt>
      <trkpt lat="13.647297" lon="-89.21643">
        <ele>981.252</ele>
        <time>2019-12-07T13:39:00Z</time>
      </trkpt>
      <trkpt lat="13.647302" lon="-89.21649">
        <ele>979.656</ele>
        <time>2019-12-07T13:39:05Z</time>
      </trkpt>
      <trkpt lat="13.647306" lon="-89.216545">
        <ele>978.484</ele>
        <time>2019-12-07T13:39:10Z</time>
      </trkpt>
      <trkpt lat="13.647298" lon="-89.21663">
        <ele>977.512</ele>
        <time>2019-12-07T13:39:15Z</time>
      </trkpt>
      <trkpt lat="13.647303" lon="-89.2167">
        <ele>976.994</ele>
        <time>2019-12-07T13:39:20Z</time>
      </trkpt>
      <trkpt lat="13.647291" lon="-89.216774">
        <ele>976.623</ele>
        <time>2019-12-07T13:39:26Z</time>
      </trkpt>
      <trkpt lat="13.647262" lon="-89.21689">
        <ele>976.262</ele>
        <time>2019-12-07T13:39:35Z</time>
      </trkpt>
      <trkpt lat="13.647278" lon="-89.21716">
        <ele>975.45</ele>
        <time>2019-12-07T13:39:46Z</time>
      </trkpt>
      <trkpt lat="13.647305" lon="-89.2174">
        <ele>973.059</ele>
        <time>2019-12-07T13:39:55Z</time>
      </trkpt>
      <trkpt lat="13.647305" lon="-89.2174">
        <ele>972.078</ele>
        <time>2019-12-07T13:40:09Z</time>
      </trkpt>
      <trkpt lat="13.647674" lon="-89.21778">
        <ele>971.779</ele>
        <time>2019-12-07T13:40:15Z</time>
      </trkpt>
      <trkpt lat="13.647766" lon="-89.21788">
        <ele>970.997</ele>
        <time>2019-12-07T13:40:21Z</time>
      </trkpt>
      <trkpt lat="13.647832" lon="-89.21809">
        <ele>970.921</ele>
        <time>2019-12-07T13:40:31Z</time>
      </trkpt>
      <trkpt lat="13.647874" lon="-89.2184">
        <ele>970.817</ele>
        <time>2019-12-07T13:40:40Z</time>
      </trkpt>
      <trkpt lat="13.6479" lon="-89.21861">
        <ele>970.174</ele>
        <time>2019-12-07T13:40:50Z</time>
      </trkpt>
      <trkpt lat="13.647932" lon="-89.218704">
        <ele>970.264</ele>
        <time>2019-12-07T13:40:55Z</time>
      </trkpt>
      <trkpt lat="13.647977" lon="-89.21883">
        <ele>970.292</ele>
        <time>2019-12-07T13:41:00Z</time>
      </trkpt>
      <trkpt lat="13.647989" lon="-89.21889">
        <ele>970.403</ele>
        <time>2019-12-07T13:41:06Z</time>
      </trkpt>
      <trkpt lat="13.647995" lon="-89.21894">
        <ele>970.268</ele>
        <time>2019-12-07T13:41:15Z</time>
      </trkpt>
      <trkpt lat="13.648028" lon="-89.219">
        <ele>970.911</ele>
        <time>2019-12-07T13:41:25Z</time>
      </trkpt>
      <trkpt lat="13.648081" lon="-89.219086">
        <ele>971.78</ele>
        <time>2019-12-07T13:41:30Z</time>
      </trkpt>
      <trkpt lat="13.648121" lon="-89.21916">
        <ele>972.877</ele>
        <time>2019-12-07T13:41:35Z</time>
      </trkpt>
      <trkpt lat="13.6481695" lon="-89.219246">
        <ele>973.11</ele>
        <time>2019-12-07T13:41:40Z</time>
      </trkpt>
      <trkpt lat="13.648217" lon="-89.21936">
        <ele>973.995</ele>
        <time>2019-12-07T13:41:45Z</time>
      </trkpt>
      <trkpt lat="13.648261" lon="-89.21949">
        <ele>975.008</ele>
        <time>2019-12-07T13:41:51Z</time>
      </trkpt>
      <trkpt lat="13.648356" lon="-89.21973">
        <ele>976.002</ele>
        <time>2019-12-07T13:42:01Z</time>
      </trkpt>
      <trkpt lat="13.648433" lon="-89.21997">
        <ele>977.511</ele>
        <time>2019-12-07T13:42:11Z</time>
      </trkpt>
      <trkpt lat="13.648452" lon="-89.220184">
        <ele>979.74</ele>
        <time>2019-12-07T13:42:20Z</time>
      </trkpt>
      <trkpt lat="13.648459" lon="-89.22029">
        <ele>980.342</ele>
        <time>2019-12-07T13:42:25Z</time>
      </trkpt>
      <trkpt lat="13.648436" lon="-89.220406">
        <ele>980.264</ele>
        <time>2019-12-07T13:42:30Z</time>
      </trkpt>
      <trkpt lat="13.648393" lon="-89.22051">
        <ele>980.197</ele>
        <time>2019-12-07T13:42:35Z</time>
      </trkpt>
      <trkpt lat="13.648362" lon="-89.22063">
        <ele>980.061</ele>
        <time>2019-12-07T13:42:40Z</time>
      </trkpt>
      <trkpt lat="13.648349" lon="-89.220764">
        <ele>979.819</ele>
        <time>2019-12-07T13:42:46Z</time>
      </trkpt>
      <trkpt lat="13.6483135" lon="-89.22099">
        <ele>979.519</ele>
        <time>2019-12-07T13:42:56Z</time>
      </trkpt>
      <trkpt lat="13.648298" lon="-89.22108">
        <ele>980.297</ele>
        <time>2019-12-07T13:43:05Z</time>
      </trkpt>
      <trkpt lat="13.64827" lon="-89.221176">
        <ele>980.996</ele>
        <time>2019-12-07T13:43:10Z</time>
      </trkpt>
      <trkpt lat="13.648209" lon="-89.22126">
        <ele>981.554</ele>
        <time>2019-12-07T13:43:15Z</time>
      </trkpt>
      <trkpt lat="13.648134" lon="-89.221375">
        <ele>981.77</ele>
        <time>2019-12-07T13:43:20Z</time>
      </trkpt>
      <trkpt lat="13.648055" lon="-89.221466">
        <ele>982.365</ele>
        <time>2019-12-07T13:43:25Z</time>
      </trkpt>
      <trkpt lat="13.64796" lon="-89.22159">
        <ele>983.301</ele>
        <time>2019-12-07T13:43:31Z</time>
      </trkpt>
      <trkpt lat="13.647844" lon="-89.22177">
        <ele>984.242</ele>
        <time>2019-12-07T13:43:41Z</time>
      </trkpt>
      <trkpt lat="13.647744" lon="-89.22197">
        <ele>985.72</ele>
        <time>2019-12-07T13:43:50Z</time>
      </trkpt>
      <trkpt lat="13.647686" lon="-89.22209">
        <ele>988.095</ele>
        <time>2019-12-07T13:43:55Z</time>
      </trkpt>
      <trkpt lat="13.647614" lon="-89.22219">
        <ele>989.357</ele>
        <time>2019-12-07T13:44:00Z</time>
      </trkpt>
      <trkpt lat="13.647558" lon="-89.222275">
        <ele>990.522</ele>
        <time>2019-12-07T13:44:05Z</time>
      </trkpt>
      <trkpt lat="13.6474695" lon="-89.22237">
        <ele>991.842</ele>
        <time>2019-12-07T13:44:10Z</time>
      </trkpt>
      <trkpt lat="13.647388" lon="-89.22244">
        <ele>993.337</ele>
        <time>2019-12-07T13:44:16Z</time>
      </trkpt>
      <trkpt lat="13.647264" lon="-89.2226">
        <ele>993.797</ele>
        <time>2019-12-07T13:44:26Z</time>
      </trkpt>
      <trkpt lat="13.647138" lon="-89.22278">
        <ele>995.103</ele>
        <time>2019-12-07T13:44:36Z</time>
      </trkpt>
      <trkpt lat="13.647045" lon="-89.2229">
        <ele>996.178</ele>
        <time>2019-12-07T13:44:45Z</time>
      </trkpt>
      <trkpt lat="13.646979" lon="-89.22295">
        <ele>997.23</ele>
        <time>2019-12-07T13:44:50Z</time>
      </trkpt>
      <trkpt lat="13.646914" lon="-89.22301">
        <ele>997.819</ele>
        <time>2019-12-07T13:44:55Z</time>
      </trkpt>
      <trkpt lat="13.646857" lon="-89.22306">
        <ele>997.986</ele>
        <time>2019-12-07T13:45:00Z</time>
      </trkpt>
      <trkpt lat="13.646799" lon="-89.22313">
        <ele>998.257</ele>
        <time>2019-12-07T13:45:05Z</time>
      </trkpt>
      <trkpt lat="13.64675" lon="-89.22319">
        <ele>998.308</ele>
        <time>2019-12-07T13:45:11Z</time>
      </trkpt>
      <trkpt lat="13.646716" lon="-89.22327">
        <ele>998.581</ele>
        <time>2019-12-07T13:45:21Z</time>
      </trkpt>
      <trkpt lat="13.646673" lon="-89.22336">
        <ele>998.105</ele>
        <time>2019-12-07T13:45:30Z</time>
      </trkpt>
      <trkpt lat="13.646651" lon="-89.22342">
        <ele>998.099</ele>
        <time>2019-12-07T13:45:35Z</time>
      </trkpt>
      <trkpt lat="13.646642" lon="-89.22349">
        <ele>997.261</ele>
        <time>2019-12-07T13:45:40Z</time>
      </trkpt>
      <trkpt lat="13.646626" lon="-89.22355">
        <ele>995.845</ele>
        <time>2019-12-07T13:45:45Z</time>
      </trkpt>
      <trkpt lat="13.646631" lon="-89.223656">
        <ele>991.73</ele>
        <time>2019-12-07T13:45:56Z</time>
      </trkpt>
      <trkpt lat="13.646636" lon="-89.22373">
        <ele>989.805</ele>
        <time>2019-12-07T13:46:06Z</time>
      </trkpt>
      <trkpt lat="13.6467085" lon="-89.2237">
        <ele>988.161</ele>
        <time>2019-12-07T13:46:31Z</time>
      </trkpt>
      <trkpt lat="13.646712" lon="-89.223656">
        <ele>986.905</ele>
        <time>2019-12-07T13:46:41Z</time>
      </trkpt>
      <trkpt lat="13.646623" lon="-89.22367">
        <ele>986.254</ele>
        <time>2019-12-07T13:46:55Z</time>
      </trkpt>
      <trkpt lat="13.646568" lon="-89.223724">
        <ele>985.292</ele>
        <time>2019-12-07T13:47:01Z</time>
      </trkpt>
      <trkpt lat="13.646488" lon="-89.223854">
        <ele>984.227</ele>
        <time>2019-12-07T13:47:10Z</time>
      </trkpt>
      <trkpt lat="13.646479" lon="-89.22397">
        <ele>983.692</ele>
        <time>2019-12-07T13:47:15Z</time>
      </trkpt>
      <trkpt lat="13.646497" lon="-89.22413">
        <ele>982.894</ele>
        <time>2019-12-07T13:47:20Z</time>
      </trkpt>
      <trkpt lat="13.646538" lon="-89.22424">
        <ele>982.877</ele>
        <time>2019-12-07T13:47:25Z</time>
      </trkpt>
      <trkpt lat="13.646573" lon="-89.22436">
        <ele>982.663</ele>
        <time>2019-12-07T13:47:30Z</time>
      </trkpt>
      <trkpt lat="13.646634" lon="-89.22448">
        <ele>982.671</ele>
        <time>2019-12-07T13:47:36Z</time>
      </trkpt>
      <trkpt lat="13.64677" lon="-89.22467">
        <ele>982.558</ele>
        <time>2019-12-07T13:47:45Z</time>
      </trkpt>
      <trkpt lat="13.646852" lon="-89.224785">
        <ele>982.045</ele>
        <time>2019-12-07T13:47:50Z</time>
      </trkpt>
      <trkpt lat="13.646937" lon="-89.22489">
        <ele>981.856</ele>
        <time>2019-12-07T13:47:55Z</time>
      </trkpt>
      <trkpt lat="13.647025" lon="-89.22501">
        <ele>981.757</ele>
        <time>2019-12-07T13:48:00Z</time>
      </trkpt>
      <trkpt lat="13.647117" lon="-89.225136">
        <ele>981.542</ele>
        <time>2019-12-07T13:48:05Z</time>
      </trkpt>
      <trkpt lat="13.647205" lon="-89.225266">
        <ele>981.491</ele>
        <time>2019-12-07T13:48:10Z</time>
      </trkpt>
      <trkpt lat="13.647296" lon="-89.22538">
        <ele>981.744</ele>
        <time>2019-12-07T13:48:15Z</time>
      </trkpt>
      <trkpt lat="13.647399" lon="-89.22551">
        <ele>981.473</ele>
        <time>2019-12-07T13:48:21Z</time>
      </trkpt>
      <trkpt lat="13.647554" lon="-89.22572">
        <ele>981.912</ele>
        <time>2019-12-07T13:48:31Z</time>
      </trkpt>
      <trkpt lat="13.647678" lon="-89.22591">
        <ele>982.148</ele>
        <time>2019-12-07T13:48:40Z</time>
      </trkpt>
      <trkpt lat="13.647743" lon="-89.226">
        <ele>981.679</ele>
        <time>2019-12-07T13:48:45Z</time>
      </trkpt>
      <trkpt lat="13.647818" lon="-89.226105">
        <ele>981.971</ele>
        <time>2019-12-07T13:48:50Z</time>
      </trkpt>
      <trkpt lat="13.647903" lon="-89.22623">
        <ele>981.76</ele>
        <time>2019-12-07T13:48:55Z</time>
      </trkpt>
      <trkpt lat="13.647961" lon="-89.22634">
        <ele>982.142</ele>
        <time>2019-12-07T13:49:00Z</time>
      </trkpt>
      <trkpt lat="13.6480465" lon="-89.22647">
        <ele>981.922</ele>
        <time>2019-12-07T13:49:06Z</time>
      </trkpt>
      <trkpt lat="13.64821" lon="-89.226654">
        <ele>982.195</ele>
        <time>2019-12-07T13:49:16Z</time>
      </trkpt>
      <trkpt lat="13.648402" lon="-89.22683">
        <ele>982.972</ele>
        <time>2019-12-07T13:49:26Z</time>
      </trkpt>
      <trkpt lat="13.64854" lon="-89.227">
        <ele>983.907</ele>
        <time>2019-12-07T13:49:35Z</time>
      </trkpt>
      <trkpt lat="13.6486" lon="-89.22712">
        <ele>982.856</ele>
        <time>2019-12-07T13:49:40Z</time>
      </trkpt>
      <trkpt lat="13.648632" lon="-89.22721">
        <ele>980.159</ele>
        <time>2019-12-07T13:49:45Z</time>
      </trkpt>
      <trkpt lat="13.648673" lon="-89.22731">
        <ele>978.636</ele>
        <time>2019-12-07T13:49:50Z</time>
      </trkpt>
      <trkpt lat="13.648721" lon="-89.22741">
        <ele>977.265</ele>
        <time>2019-12-07T13:49:55Z</time>
      </trkpt>
      <trkpt lat="13.648772" lon="-89.22754">
        <ele>975.429</ele>
        <time>2019-12-07T13:50:01Z</time>
      </trkpt>
      <trkpt lat="13.648883" lon="-89.227715">
        <ele>971.492</ele>
        <time>2019-12-07T13:50:11Z</time>
      </trkpt>
      <trkpt lat="13.6490755" lon="-89.22791">
        <ele>967.682</ele>
        <time>2019-12-07T13:50:20Z</time>
      </trkpt>
      <trkpt lat="13.649278" lon="-89.22806">
        <ele>964.345</ele>
        <time>2019-12-07T13:50:30Z</time>
      </trkpt>
      <trkpt lat="13.649371" lon="-89.22812">
        <ele>962.566</ele>
        <time>2019-12-07T13:50:35Z</time>
      </trkpt>
      <trkpt lat="13.649463" lon="-89.22817">
        <ele>961.356</ele>
        <time>2019-12-07T13:50:40Z</time>
      </trkpt>
      <trkpt lat="13.649595" lon="-89.22825">
        <ele>960.67</ele>
        <time>2019-12-07T13:50:46Z</time>
      </trkpt>
      <trkpt lat="13.649846" lon="-89.22833">
        <ele>959.314</ele>
        <time>2019-12-07T13:50:55Z</time>
      </trkpt>
      <trkpt lat="13.65005" lon="-89.22842">
        <ele>957.508</ele>
        <time>2019-12-07T13:51:05Z</time>
      </trkpt>
      <trkpt lat="13.650225" lon="-89.2285">
        <ele>956.811</ele>
        <time>2019-12-07T13:51:14Z</time>
      </trkpt>
      <trkpt lat="13.650299" lon="-89.228584">
        <ele>956.204</ele>
        <time>2019-12-07T13:51:19Z</time>
      </trkpt>
      <trkpt lat="13.650354" lon="-89.22869">
        <ele>955.264</ele>
        <time>2019-12-07T13:51:25Z</time>
      </trkpt>
      <trkpt lat="13.650399" lon="-89.22882">
        <ele>954.425</ele>
        <time>2019-12-07T13:51:31Z</time>
      </trkpt>
      <trkpt lat="13.650532" lon="-89.22906">
        <ele>953.813</ele>
        <time>2019-12-07T13:51:41Z</time>
      </trkpt>
      <trkpt lat="13.650649" lon="-89.22924">
        <ele>952.477</ele>
        <time>2019-12-07T13:51:50Z</time>
      </trkpt>
      <trkpt lat="13.650713" lon="-89.22935">
        <ele>952.146</ele>
        <time>2019-12-07T13:51:55Z</time>
      </trkpt>
      <trkpt lat="13.65079" lon="-89.229454">
        <ele>950.986</ele>
        <time>2019-12-07T13:52:00Z</time>
      </trkpt>
      <trkpt lat="13.65088" lon="-89.22956">
        <ele>950.9</ele>
        <time>2019-12-07T13:52:05Z</time>
      </trkpt>
      <trkpt lat="13.650981" lon="-89.22964">
        <ele>951.045</ele>
        <time>2019-12-07T13:52:10Z</time>
      </trkpt>
      <trkpt lat="13.651097" lon="-89.229706">
        <ele>951.829</ele>
        <time>2019-12-07T13:52:15Z</time>
      </trkpt>
      <trkpt lat="13.651211" lon="-89.22975">
        <ele>952.541</ele>
        <time>2019-12-07T13:52:20Z</time>
      </trkpt>
      <trkpt lat="13.65136" lon="-89.22976">
        <ele>953.358</ele>
        <time>2019-12-07T13:52:26Z</time>
      </trkpt>
      <trkpt lat="13.651641" lon="-89.22974">
        <ele>954.257</ele>
        <time>2019-12-07T13:52:36Z</time>
      </trkpt>
      <trkpt lat="13.651861" lon="-89.22968">
        <ele>955.599</ele>
        <time>2019-12-07T13:52:45Z</time>
      </trkpt>
      <trkpt lat="13.651985" lon="-89.229675">
        <ele>956.712</ele>
        <time>2019-12-07T13:52:50Z</time>
      </trkpt>
      <trkpt lat="13.652108" lon="-89.22962">
        <ele>957.44</ele>
        <time>2019-12-07T13:52:55Z</time>
      </trkpt>
      <trkpt lat="13.652195" lon="-89.22958">
        <ele>957.82</ele>
        <time>2019-12-07T13:53:00Z</time>
      </trkpt>
      <trkpt lat="13.652277" lon="-89.22956">
        <ele>958.002</ele>
        <time>2019-12-07T13:53:05Z</time>
      </trkpt>
      <trkpt lat="13.65238" lon="-89.22951">
        <ele>958.698</ele>
        <time>2019-12-07T13:53:11Z</time>
      </trkpt>
      <trkpt lat="13.652594" lon="-89.22948">
        <ele>959.591</ele>
        <time>2019-12-07T13:53:20Z</time>
      </trkpt>
      <trkpt lat="13.652821" lon="-89.22954">
        <ele>959.624</ele>
        <time>2019-12-07T13:53:31Z</time>
      </trkpt>
      <trkpt lat="13.653039" lon="-89.22961">
        <ele>960.055</ele>
        <time>2019-12-07T13:53:40Z</time>
      </trkpt>
      <trkpt lat="13.653132" lon="-89.22962">
        <ele>960.249</ele>
        <time>2019-12-07T13:53:45Z</time>
      </trkpt>
      <trkpt lat="13.653235" lon="-89.22965">
        <ele>959.945</ele>
        <time>2019-12-07T13:53:50Z</time>
      </trkpt>
      <trkpt lat="13.653336" lon="-89.229675">
        <ele>959.397</ele>
        <time>2019-12-07T13:53:56Z</time>
      </trkpt>
      <trkpt lat="13.653579" lon="-89.22963">
        <ele>958.479</ele>
        <time>2019-12-07T13:54:06Z</time>
      </trkpt>
      <trkpt lat="13.65378" lon="-89.22957">
        <ele>956.94</ele>
        <time>2019-12-07T13:54:16Z</time>
      </trkpt>
      <trkpt lat="13.654009" lon="-89.229485">
        <ele>955.607</ele>
        <time>2019-12-07T13:54:25Z</time>
      </trkpt>
      <trkpt lat="13.654211" lon="-89.2294">
        <ele>953.506</ele>
        <time>2019-12-07T13:54:35Z</time>
      </trkpt>
      <trkpt lat="13.654321" lon="-89.229355">
        <ele>952.324</ele>
        <time>2019-12-07T13:54:39Z</time>
      </trkpt>
      <trkpt lat="13.654407" lon="-89.229324">
        <ele>950.882</ele>
        <time>2019-12-07T13:54:44Z</time>
      </trkpt>
      <trkpt lat="13.65453" lon="-89.229324">
        <ele>949.914</ele>
        <time>2019-12-07T13:54:50Z</time>
      </trkpt>
      <trkpt lat="13.654733" lon="-89.22934">
        <ele>947.434</ele>
        <time>2019-12-07T13:55:00Z</time>
      </trkpt>
      <trkpt lat="13.655012" lon="-89.22938">
        <ele>945.484</ele>
        <time>2019-12-07T13:55:10Z</time>
      </trkpt>
      <trkpt lat="13.655201" lon="-89.22936">
        <ele>942.602</ele>
        <time>2019-12-07T13:55:19Z</time>
      </trkpt>
      <trkpt lat="13.655306" lon="-89.22932">
        <ele>941.17</ele>
        <time>2019-12-07T13:55:24Z</time>
      </trkpt>
      <trkpt lat="13.655429" lon="-89.22932">
        <ele>940.896</ele>
        <time>2019-12-07T13:55:29Z</time>
      </trkpt>
      <trkpt lat="13.655552" lon="-89.22929">
        <ele>942.889</ele>
        <time>2019-12-07T13:55:36Z</time>
      </trkpt>
      <trkpt lat="13.655807" lon="-89.22923">
        <ele>945.681</ele>
        <time>2019-12-07T13:55:46Z</time>
      </trkpt>
      <trkpt lat="13.655941" lon="-89.229195">
        <ele>946.074</ele>
        <time>2019-12-07T13:55:56Z</time>
      </trkpt>
      <trkpt lat="13.655995" lon="-89.2293">
        <ele>946.332</ele>
        <time>2019-12-07T13:59:30Z</time>
      </trkpt>
      <trkpt lat="13.656032" lon="-89.22939">
        <ele>946.906</ele>
        <time>2019-12-07T13:59:34Z</time>
      </trkpt>
      <trkpt lat="13.656084" lon="-89.229485">
        <ele>945.635</ele>
        <time>2019-12-07T13:59:40Z</time>
      </trkpt>
      <trkpt lat="13.656179" lon="-89.22963">
        <ele>943.418</ele>
        <time>2019-12-07T13:59:51Z</time>
      </trkpt>
      <trkpt lat="13.656265" lon="-89.22975">
        <ele>944.746</ele>
        <time>2019-12-07T14:00:00Z</time>
      </trkpt>
      <trkpt lat="13.656332" lon="-89.22983">
        <ele>945.703</ele>
        <time>2019-12-07T14:00:05Z</time>
      </trkpt>
      <trkpt lat="13.656376" lon="-89.22991">
        <ele>945.196</ele>
        <time>2019-12-07T14:00:10Z</time>
      </trkpt>
      <trkpt lat="13.656403" lon="-89.22998">
        <ele>944.551</ele>
        <time>2019-12-07T14:00:15Z</time>
      </trkpt>
      <trkpt lat="13.656441" lon="-89.230064">
        <ele>944.243</ele>
        <time>2019-12-07T14:00:19Z</time>
      </trkpt>
      <trkpt lat="13.656502" lon="-89.23018">
        <ele>944.186</ele>
        <time>2019-12-07T14:00:25Z</time>
      </trkpt>
      <trkpt lat="13.656395" lon="-89.230354">
        <ele>944.86</ele>
        <time>2019-12-07T14:00:35Z</time>
      </trkpt>
      <trkpt lat="13.656259" lon="-89.23049">
        <ele>945.477</ele>
        <time>2019-12-07T14:00:45Z</time>
      </trkpt>
      <trkpt lat="13.656171" lon="-89.2306">
        <ele>946.918</ele>
        <time>2019-12-07T14:00:55Z</time>
      </trkpt>
      <trkpt lat="13.6561165" lon="-89.23065">
        <ele>948.645</ele>
        <time>2019-12-07T14:00:59Z</time>
      </trkpt>
      <trkpt lat="13.656089" lon="-89.230705">
        <ele>951.805</ele>
        <time>2019-12-07T14:01:04Z</time>
      </trkpt>
      <trkpt lat="13.656085" lon="-89.230835">
        <ele>953.624</ele>
        <time>2019-12-07T14:01:10Z</time>
      </trkpt>
      <trkpt lat="13.656155" lon="-89.23109">
        <ele>955.961</ele>
        <time>2019-12-07T14:01:20Z</time>
      </trkpt>
      <trkpt lat="13.656205" lon="-89.23123">
        <ele>957.315</ele>
        <time>2019-12-07T14:01:30Z</time>
      </trkpt>
      <trkpt lat="13.656224" lon="-89.23139">
        <ele>957.275</ele>
        <time>2019-12-07T14:01:44Z</time>
      </trkpt>
      <trkpt lat="13.6562395" lon="-89.231445">
        <ele>957.19</ele>
        <time>2019-12-07T14:01:49Z</time>
      </trkpt>
      <trkpt lat="13.6562805" lon="-89.231544">
        <ele>956.26</ele>
        <time>2019-12-07T14:01:59Z</time>
      </trkpt>
      <trkpt lat="13.656375" lon="-89.231674">
        <ele>951.39</ele>
        <time>2019-12-07T14:02:06Z</time>
      </trkpt>
      <trkpt lat="13.656489" lon="-89.2318">
        <ele>946.258</ele>
        <time>2019-12-07T14:02:16Z</time>
      </trkpt>
      <trkpt lat="13.656581" lon="-89.23185">
        <ele>941.026</ele>
        <time>2019-12-07T14:02:25Z</time>
      </trkpt>
      <trkpt lat="13.656629" lon="-89.231865">
        <ele>938.156</ele>
        <time>2019-12-07T14:02:30Z</time>
      </trkpt>
      <trkpt lat="13.656662" lon="-89.2318">
        <ele>936.663</ele>
        <time>2019-12-07T14:02:45Z</time>
      </trkpt>
      <trkpt lat="13.656714" lon="-89.23171">
        <ele>934.749</ele>
        <time>2019-12-07T14:02:50Z</time>
      </trkpt>
      <trkpt lat="13.65685" lon="-89.231636">
        <ele>931.174</ele>
        <time>2019-12-07T14:03:00Z</time>
      </trkpt>
      <trkpt lat="13.656997" lon="-89.2315">
        <ele>929.748</ele>
        <time>2019-12-07T14:03:11Z</time>
      </trkpt>
      <trkpt lat="13.657114" lon="-89.23141">
        <ele>928.678</ele>
        <time>2019-12-07T14:03:19Z</time>
      </trkpt>
      <trkpt lat="13.657214" lon="-89.231346">
        <ele>927.784</ele>
        <time>2019-12-07T14:03:25Z</time>
      </trkpt>
      <trkpt lat="13.657339" lon="-89.231346">
        <ele>927.463</ele>
        <time>2019-12-07T14:03:30Z</time>
      </trkpt>
      <trkpt lat="13.657482" lon="-89.2314">
        <ele>927.181</ele>
        <time>2019-12-07T14:03:36Z</time>
      </trkpt>
      <trkpt lat="13.657694" lon="-89.23151">
        <ele>926.886</ele>
        <time>2019-12-07T14:03:46Z</time>
      </trkpt>
      <trkpt lat="13.657739" lon="-89.23167">
        <ele>926.377</ele>
        <time>2019-12-07T14:03:56Z</time>
      </trkpt>
      <trkpt lat="13.657773" lon="-89.231834">
        <ele>926.709</ele>
        <time>2019-12-07T14:04:04Z</time>
      </trkpt>
      <trkpt lat="13.6578455" lon="-89.23193">
        <ele>927.855</ele>
        <time>2019-12-07T14:04:10Z</time>
      </trkpt>
      <trkpt lat="13.65789" lon="-89.231964">
        <ele>928.291</ele>
        <time>2019-12-07T14:04:15Z</time>
      </trkpt>
      <trkpt lat="13.657982" lon="-89.23205">
        <ele>927.788</ele>
        <time>2019-12-07T14:04:20Z</time>
      </trkpt>
      <trkpt lat="13.658011" lon="-89.23211">
        <ele>927.853</ele>
        <time>2019-12-07T14:04:25Z</time>
      </trkpt>
      <trkpt lat="13.658026" lon="-89.23219">
        <ele>927.378</ele>
        <time>2019-12-07T14:04:31Z</time>
      </trkpt>
      <trkpt lat="13.65803" lon="-89.23236">
        <ele>927.472</ele>
        <time>2019-12-07T14:04:41Z</time>
      </trkpt>
      <trkpt lat="13.658035" lon="-89.232506">
        <ele>927.951</ele>
        <time>2019-12-07T14:04:50Z</time>
      </trkpt>
      <trkpt lat="13.658002" lon="-89.23264">
        <ele>928.117</ele>
        <time>2019-12-07T14:05:00Z</time>
      </trkpt>
      <trkpt lat="13.657963" lon="-89.23272">
        <ele>927.981</ele>
        <time>2019-12-07T14:05:05Z</time>
      </trkpt>
      <trkpt lat="13.657963" lon="-89.23278">
        <ele>927.796</ele>
        <time>2019-12-07T14:05:10Z</time>
      </trkpt>
      <trkpt lat="13.657967" lon="-89.23293">
        <ele>927.285</ele>
        <time>2019-12-07T14:05:16Z</time>
      </trkpt>
      <trkpt lat="13.6579485" lon="-89.23316">
        <ele>925.974</ele>
        <time>2019-12-07T14:05:26Z</time>
      </trkpt>
      <trkpt lat="13.657931" lon="-89.233376">
        <ele>925.311</ele>
        <time>2019-12-07T14:05:36Z</time>
      </trkpt>
      <trkpt lat="13.65789" lon="-89.23355">
        <ele>924.48</ele>
        <time>2019-12-07T14:05:45Z</time>
      </trkpt>
      <trkpt lat="13.657832" lon="-89.23364">
        <ele>923.606</ele>
        <time>2019-12-07T14:05:50Z</time>
      </trkpt>
      <trkpt lat="13.657788" lon="-89.23371">
        <ele>922.119</ele>
        <time>2019-12-07T14:05:54Z</time>
      </trkpt>
      <trkpt lat="13.65776" lon="-89.23378">
        <ele>919.857</ele>
        <time>2019-12-07T14:06:00Z</time>
      </trkpt>
      <trkpt lat="13.657743" lon="-89.23397">
        <ele>917.113</ele>
        <time>2019-12-07T14:06:11Z</time>
      </trkpt>
      <trkpt lat="13.657698" lon="-89.23419">
        <ele>914.899</ele>
        <time>2019-12-07T14:06:21Z</time>
      </trkpt>
      <trkpt lat="13.657778" lon="-89.23441">
        <ele>912.812</ele>
        <time>2019-12-07T14:06:35Z</time>
      </trkpt>
      <trkpt lat="13.65786" lon="-89.23456">
        <ele>912.384</ele>
        <time>2019-12-07T14:06:40Z</time>
      </trkpt>
      <trkpt lat="13.6579075" lon="-89.23472">
        <ele>911.202</ele>
        <time>2019-12-07T14:06:45Z</time>
      </trkpt>
      <trkpt lat="13.658001" lon="-89.23498">
        <ele>909.121</ele>
        <time>2019-12-07T14:06:55Z</time>
      </trkpt>
      <trkpt lat="13.658122" lon="-89.23517">
        <ele>907.249</ele>
        <time>2019-12-07T14:07:06Z</time>
      </trkpt>
      <trkpt lat="13.658231" lon="-89.23539">
        <ele>905.422</ele>
        <time>2019-12-07T14:07:15Z</time>
      </trkpt>
      <trkpt lat="13.658319" lon="-89.235565">
        <ele>904.477</ele>
        <time>2019-12-07T14:07:24Z</time>
      </trkpt>
      <trkpt lat="13.658361" lon="-89.2356">
        <ele>904.033</ele>
        <time>2019-12-07T14:07:30Z</time>
      </trkpt>
      <trkpt lat="13.658445" lon="-89.235695">
        <ele>903.773</ele>
        <time>2019-12-07T14:07:34Z</time>
      </trkpt>
      <trkpt lat="13.658503" lon="-89.23581">
        <ele>903.39</ele>
        <time>2019-12-07T14:07:41Z</time>
      </trkpt>
      <trkpt lat="13.658589" lon="-89.23596">
        <ele>903.654</ele>
        <time>2019-12-07T14:07:51Z</time>
      </trkpt>
      <trkpt lat="13.658685" lon="-89.236084">
        <ele>903.604</ele>
        <time>2019-12-07T14:08:00Z</time>
      </trkpt>
      <trkpt lat="13.658858" lon="-89.236244">
        <ele>903.658</ele>
        <time>2019-12-07T14:08:09Z</time>
      </trkpt>
      <trkpt lat="13.658976" lon="-89.23633">
        <ele>904.28</ele>
        <time>2019-12-07T14:08:14Z</time>
      </trkpt>
      <trkpt lat="13.659075" lon="-89.23638">
        <ele>904.297</ele>
        <time>2019-12-07T14:08:19Z</time>
      </trkpt>
      <trkpt lat="13.659191" lon="-89.23641">
        <ele>903.902</ele>
        <time>2019-12-07T14:08:25Z</time>
      </trkpt>
      <trkpt lat="13.659338" lon="-89.23644">
        <ele>903.171</ele>
        <time>2019-12-07T14:08:35Z</time>
      </trkpt>
      <trkpt lat="13.659436" lon="-89.23653">
        <ele>902.937</ele>
        <time>2019-12-07T14:08:45Z</time>
      </trkpt>
      <trkpt lat="13.6595955" lon="-89.23666">
        <ele>902.987</ele>
        <time>2019-12-07T14:08:54Z</time>
      </trkpt>
      <trkpt lat="13.659691" lon="-89.23673">
        <ele>903.284</ele>
        <time>2019-12-07T14:08:59Z</time>
      </trkpt>
      <trkpt lat="13.659786" lon="-89.23679">
        <ele>903.295</ele>
        <time>2019-12-07T14:09:05Z</time>
      </trkpt>
      <trkpt lat="13.659903" lon="-89.23688">
        <ele>903.372</ele>
        <time>2019-12-07T14:09:11Z</time>
      </trkpt>
      <trkpt lat="13.660095" lon="-89.236984">
        <ele>903.46</ele>
        <time>2019-12-07T14:09:21Z</time>
      </trkpt>
      <trkpt lat="13.660131" lon="-89.23711">
        <ele>903.668</ele>
        <time>2019-12-07T14:09:30Z</time>
      </trkpt>
      <trkpt lat="13.660055" lon="-89.23725">
        <ele>904.217</ele>
        <time>2019-12-07T14:09:40Z</time>
      </trkpt>
      <trkpt lat="13.659995" lon="-89.23731">
        <ele>903.851</ele>
        <time>2019-12-07T14:09:45Z</time>
      </trkpt>
      <trkpt lat="13.659939" lon="-89.23742">
        <ele>904.543</ele>
        <time>2019-12-07T14:09:49Z</time>
      </trkpt>
      <trkpt lat="13.659898" lon="-89.2375">
        <ele>904.874</ele>
        <time>2019-12-07T14:09:55Z</time>
      </trkpt>
      <trkpt lat="13.659848" lon="-89.2376">
        <ele>905.174</ele>
        <time>2019-12-07T14:09:59Z</time>
      </trkpt>
      <trkpt lat="13.659788" lon="-89.23772">
        <ele>905.947</ele>
        <time>2019-12-07T14:10:05Z</time>
      </trkpt>
      <trkpt lat="13.659656" lon="-89.237915">
        <ele>907.114</ele>
        <time>2019-12-07T14:10:15Z</time>
      </trkpt>
      <trkpt lat="13.659536" lon="-89.238106">
        <ele>908.109</ele>
        <time>2019-12-07T14:10:26Z</time>
      </trkpt>
      <trkpt lat="13.659478" lon="-89.23826">
        <ele>909.241</ele>
        <time>2019-12-07T14:10:35Z</time>
      </trkpt>
      <trkpt lat="13.65942" lon="-89.23836">
        <ele>909.821</ele>
        <time>2019-12-07T14:10:40Z</time>
      </trkpt>
      <trkpt lat="13.65938" lon="-89.23846">
        <ele>910.347</ele>
        <time>2019-12-07T14:10:45Z</time>
      </trkpt>
      <trkpt lat="13.659345" lon="-89.23856">
        <ele>911.319</ele>
        <time>2019-12-07T14:10:51Z</time>
      </trkpt>
      <trkpt lat="13.6592655" lon="-89.23871">
        <ele>911.923</ele>
        <time>2019-12-07T14:11:01Z</time>
      </trkpt>
      <trkpt lat="13.659176" lon="-89.23878">
        <ele>911.079</ele>
        <time>2019-12-07T14:11:11Z</time>
      </trkpt>
      <trkpt lat="13.659083" lon="-89.23886">
        <ele>910.033</ele>
        <time>2019-12-07T14:11:19Z</time>
      </trkpt>
      <trkpt lat="13.659038" lon="-89.23891">
        <ele>909.868</ele>
        <time>2019-12-07T14:11:24Z</time>
      </trkpt>
      <trkpt lat="13.658996" lon="-89.23895">
        <ele>909.496</ele>
        <time>2019-12-07T14:11:30Z</time>
      </trkpt>
      <trkpt lat="13.658928" lon="-89.23902">
        <ele>909.357</ele>
        <time>2019-12-07T14:11:36Z</time>
      </trkpt>
      <trkpt lat="13.658819" lon="-89.23911">
        <ele>909.382</ele>
        <time>2019-12-07T14:11:46Z</time>
      </trkpt>
      <trkpt lat="13.658667" lon="-89.23925">
        <ele>909.643</ele>
        <time>2019-12-07T14:11:56Z</time>
      </trkpt>
      <trkpt lat="13.658515" lon="-89.239265">
        <ele>910.176</ele>
        <time>2019-12-07T14:12:05Z</time>
      </trkpt>
      <trkpt lat="13.658422" lon="-89.23931">
        <ele>910.356</ele>
        <time>2019-12-07T14:12:09Z</time>
      </trkpt>
      <trkpt lat="13.658369" lon="-89.239395">
        <ele>911.12</ele>
        <time>2019-12-07T14:12:14Z</time>
      </trkpt>
      <trkpt lat="13.658324" lon="-89.23948">
        <ele>911.198</ele>
        <time>2019-12-07T14:12:19Z</time>
      </trkpt>
      <trkpt lat="13.658263" lon="-89.23961">
        <ele>911.791</ele>
        <time>2019-12-07T14:12:24Z</time>
      </trkpt>
      <trkpt lat="13.658195" lon="-89.23974">
        <ele>911.953</ele>
        <time>2019-12-07T14:12:31Z</time>
      </trkpt>
      <trkpt lat="13.658072" lon="-89.23998">
        <ele>912.32</ele>
        <time>2019-12-07T14:12:41Z</time>
      </trkpt>
      <trkpt lat="13.658066" lon="-89.24024">
        <ele>912.54</ele>
        <time>2019-12-07T14:12:51Z</time>
      </trkpt>
      <trkpt lat="13.65808" lon="-89.24045">
        <ele>912.376</ele>
        <time>2019-12-07T14:13:00Z</time>
      </trkpt>
      <trkpt lat="13.6581" lon="-89.240555">
        <ele>912.393</ele>
        <time>2019-12-07T14:13:05Z</time>
      </trkpt>
      <trkpt lat="13.658147" lon="-89.24067">
        <ele>912.037</ele>
        <time>2019-12-07T14:13:09Z</time>
      </trkpt>
      <trkpt lat="13.658196" lon="-89.24081">
        <ele>912.496</ele>
        <time>2019-12-07T14:13:16Z</time>
      </trkpt>
      <trkpt lat="13.658286" lon="-89.24111">
        <ele>912.506</ele>
        <time>2019-12-07T14:13:26Z</time>
      </trkpt>
      <trkpt lat="13.658337" lon="-89.24135">
        <ele>912.752</ele>
        <time>2019-12-07T14:13:36Z</time>
      </trkpt>
      <trkpt lat="13.658383" lon="-89.24146">
        <ele>913.405</ele>
        <time>2019-12-07T14:13:45Z</time>
      </trkpt>
      <trkpt lat="13.658434" lon="-89.2415">
        <ele>914.159</ele>
        <time>2019-12-07T14:13:50Z</time>
      </trkpt>
      <trkpt lat="13.658499" lon="-89.24154">
        <ele>914.002</ele>
        <time>2019-12-07T14:13:55Z</time>
      </trkpt>
      <trkpt lat="13.658576" lon="-89.24161">
        <ele>913.992</ele>
        <time>2019-12-07T14:14:01Z</time>
      </trkpt>
      <trkpt lat="13.65865" lon="-89.24175">
        <ele>914.19</ele>
        <time>2019-12-07T14:14:11Z</time>
      </trkpt>
      <trkpt lat="13.65869" lon="-89.24191">
        <ele>914.606</ele>
        <time>2019-12-07T14:14:21Z</time>
      </trkpt>
      <trkpt lat="13.658748" lon="-89.24211">
        <ele>914.901</ele>
        <time>2019-12-07T14:14:30Z</time>
      </trkpt>
      <trkpt lat="13.658797" lon="-89.242256">
        <ele>915.688</ele>
        <time>2019-12-07T14:14:40Z</time>
      </trkpt>
      <trkpt lat="13.658846" lon="-89.24234">
        <ele>915.856</ele>
        <time>2019-12-07T14:14:45Z</time>
      </trkpt>
      <trkpt lat="13.65889" lon="-89.242386">
        <ele>916.358</ele>
        <time>2019-12-07T14:14:50Z</time>
      </trkpt>
      <trkpt lat="13.65893" lon="-89.24244">
        <ele>916.632</ele>
        <time>2019-12-07T14:14:56Z</time>
      </trkpt>
      <trkpt lat="13.658987" lon="-89.24251">
        <ele>916.837</ele>
        <time>2019-12-07T14:15:06Z</time>
      </trkpt>
      <trkpt lat="13.659006" lon="-89.242645">
        <ele>917.716</ele>
        <time>2019-12-07T14:15:15Z</time>
      </trkpt>
      <trkpt lat="13.659064" lon="-89.24291">
        <ele>917.736</ele>
        <time>2019-12-07T14:15:25Z</time>
      </trkpt>
      <trkpt lat="13.659119" lon="-89.243">
        <ele>918.213</ele>
        <time>2019-12-07T14:15:30Z</time>
      </trkpt>
      <trkpt lat="13.659181" lon="-89.2431">
        <ele>917.879</ele>
        <time>2019-12-07T14:15:35Z</time>
      </trkpt>
      <trkpt lat="13.659258" lon="-89.2432">
        <ele>916.625</ele>
        <time>2019-12-07T14:15:41Z</time>
      </trkpt>
      <trkpt lat="13.659425" lon="-89.24334">
        <ele>916.63</ele>
        <time>2019-12-07T14:15:50Z</time>
      </trkpt>
      <trkpt lat="13.659282" lon="-89.24348">
        <ele>916.276</ele>
        <time>2019-12-07T14:16:01Z</time>
      </trkpt>
      <trkpt lat="13.659229" lon="-89.243675">
        <ele>916.158</ele>
        <time>2019-12-07T14:16:10Z</time>
      </trkpt>
      <trkpt lat="13.659232" lon="-89.24377">
        <ele>916.018</ele>
        <time>2019-12-07T14:16:15Z</time>
      </trkpt>
      <trkpt lat="13.6592455" lon="-89.243835">
        <ele>916.072</ele>
        <time>2019-12-07T14:16:19Z</time>
      </trkpt>
      <trkpt lat="13.659175" lon="-89.24399">
        <ele>916.57</ele>
        <time>2019-12-07T14:16:55Z</time>
      </trkpt>
      <trkpt lat="13.659188" lon="-89.24404">
        <ele>917.739</ele>
        <time>2019-12-07T14:17:00Z</time>
      </trkpt>
      <trkpt lat="13.659205" lon="-89.244095">
        <ele>919.273</ele>
        <time>2019-12-07T14:17:05Z</time>
      </trkpt>
      <trkpt lat="13.659195" lon="-89.24419">
        <ele>919.391</ele>
        <time>2019-12-07T14:17:10Z</time>
      </trkpt>
      <trkpt lat="13.659215" lon="-89.24431">
        <ele>919.152</ele>
        <time>2019-12-07T14:17:15Z</time>
      </trkpt>
      <trkpt lat="13.659202" lon="-89.24446">
        <ele>917.641</ele>
        <time>2019-12-07T14:17:21Z</time>
      </trkpt>
      <trkpt lat="13.659191" lon="-89.24471">
        <ele>915.135</ele>
        <time>2019-12-07T14:17:31Z</time>
      </trkpt>
      <trkpt lat="13.659181" lon="-89.24488">
        <ele>912.136</ele>
        <time>2019-12-07T14:17:40Z</time>
      </trkpt>
      <trkpt lat="13.659063" lon="-89.24504">
        <ele>910.725</ele>
        <time>2019-12-07T14:17:50Z</time>
      </trkpt>
      <trkpt lat="13.659019" lon="-89.24511">
        <ele>909.418</ele>
        <time>2019-12-07T14:17:55Z</time>
      </trkpt>
      <trkpt lat="13.658941" lon="-89.24521">
        <ele>907.886</ele>
        <time>2019-12-07T14:18:00Z</time>
      </trkpt>
      <trkpt lat="13.658869" lon="-89.24531">
        <ele>906.041</ele>
        <time>2019-12-07T14:18:05Z</time>
      </trkpt>
      <trkpt lat="13.658724" lon="-89.24542">
        <ele>902.837</ele>
        <time>2019-12-07T14:18:15Z</time>
      </trkpt>
      <trkpt lat="13.658599" lon="-89.24557">
        <ele>900.176</ele>
        <time>2019-12-07T14:18:25Z</time>
      </trkpt>
      <trkpt lat="13.658679" lon="-89.24575">
        <ele>897.522</ele>
        <time>2019-12-07T14:18:35Z</time>
      </trkpt>
      <trkpt lat="13.658735" lon="-89.24584">
        <ele>897.243</ele>
        <time>2019-12-07T14:18:39Z</time>
      </trkpt>
      <trkpt lat="13.658752" lon="-89.24591">
        <ele>895.475</ele>
        <time>2019-12-07T14:18:45Z</time>
      </trkpt>
      <trkpt lat="13.658829" lon="-89.24607">
        <ele>893.679</ele>
        <time>2019-12-07T14:18:50Z</time>
      </trkpt>
      <trkpt lat="13.658971" lon="-89.24625">
        <ele>892.314</ele>
        <time>2019-12-07T14:19:01Z</time>
      </trkpt>
      <trkpt lat="13.659045" lon="-89.246376">
        <ele>890.811</ele>
        <time>2019-12-07T14:19:10Z</time>
      </trkpt>
      <trkpt lat="13.659123" lon="-89.24646">
        <ele>887.323</ele>
        <time>2019-12-07T14:19:19Z</time>
      </trkpt>
      <trkpt lat="13.659176" lon="-89.24654">
        <ele>884.423</ele>
        <time>2019-12-07T14:19:25Z</time>
      </trkpt>
      <trkpt lat="13.659227" lon="-89.24659">
        <ele>881.481</ele>
        <time>2019-12-07T14:19:30Z</time>
      </trkpt>
      <trkpt lat="13.659297" lon="-89.24664">
        <ele>879.987</ele>
        <time>2019-12-07T14:19:35Z</time>
      </trkpt>
      <trkpt lat="13.659366" lon="-89.2467">
        <ele>879.087</ele>
        <time>2019-12-07T14:19:39Z</time>
      </trkpt>
      <trkpt lat="13.659426" lon="-89.24678">
        <ele>878.194</ele>
        <time>2019-12-07T14:19:46Z</time>
      </trkpt>
      <trkpt lat="13.65956" lon="-89.246925">
        <ele>874.926</ele>
        <time>2019-12-07T14:19:56Z</time>
      </trkpt>
      <trkpt lat="13.659681" lon="-89.24706">
        <ele>873.354</ele>
        <time>2019-12-07T14:20:06Z</time>
      </trkpt>
      <trkpt lat="13.659758" lon="-89.24715">
        <ele>872.027</ele>
        <time>2019-12-07T14:20:15Z</time>
      </trkpt>
      <trkpt lat="13.659817" lon="-89.24722">
        <ele>871.352</ele>
        <time>2019-12-07T14:20:20Z</time>
      </trkpt>
      <trkpt lat="13.659866" lon="-89.2473">
        <ele>870.456</ele>
        <time>2019-12-07T14:20:25Z</time>
      </trkpt>
      <trkpt lat="13.659921" lon="-89.247406">
        <ele>869.346</ele>
        <time>2019-12-07T14:20:31Z</time>
      </trkpt>
      <trkpt lat="13.660087" lon="-89.24752">
        <ele>868.024</ele>
        <time>2019-12-07T14:20:40Z</time>
      </trkpt>
      <trkpt lat="13.660254" lon="-89.24754">
        <ele>866.624</ele>
        <time>2019-12-07T14:20:51Z</time>
      </trkpt>
      <trkpt lat="13.660362" lon="-89.24761">
        <ele>864.517</ele>
        <time>2019-12-07T14:21:00Z</time>
      </trkpt>
      <trkpt lat="13.66042" lon="-89.247635">
        <ele>861.773</ele>
        <time>2019-12-07T14:21:05Z</time>
      </trkpt>
      <trkpt lat="13.660469" lon="-89.24766">
        <ele>860.928</ele>
        <time>2019-12-07T14:21:10Z</time>
      </trkpt>
      <trkpt lat="13.660536" lon="-89.247696">
        <ele>859.859</ele>
        <time>2019-12-07T14:21:16Z</time>
      </trkpt>
      <trkpt lat="13.660654" lon="-89.24775">
        <ele>858.524</ele>
        <time>2019-12-07T14:21:26Z</time>
      </trkpt>
      <trkpt lat="13.660789" lon="-89.247795">
        <ele>857.388</ele>
        <time>2019-12-07T14:21:36Z</time>
      </trkpt>
      <trkpt lat="13.660897" lon="-89.24781">
        <ele>856.853</ele>
        <time>2019-12-07T14:21:45Z</time>
      </trkpt>
      <trkpt lat="13.661007" lon="-89.247826">
        <ele>856.58</ele>
        <time>2019-12-07T14:21:54Z</time>
      </trkpt>
      <trkpt lat="13.661068" lon="-89.247856">
        <ele>855.755</ele>
        <time>2019-12-07T14:22:00Z</time>
      </trkpt>
      <trkpt lat="13.661179" lon="-89.24789">
        <ele>854.806</ele>
        <time>2019-12-07T14:22:05Z</time>
      </trkpt>
      <trkpt lat="13.661261" lon="-89.24793">
        <ele>853.655</ele>
        <time>2019-12-07T14:22:11Z</time>
      </trkpt>
      <trkpt lat="13.6614065" lon="-89.24798">
        <ele>852.169</ele>
        <time>2019-12-07T14:22:21Z</time>
      </trkpt>
      <trkpt lat="13.661452" lon="-89.248">
        <ele>850.749</ele>
        <time>2019-12-07T14:22:31Z</time>
      </trkpt>
      <trkpt lat="13.661548" lon="-89.24804">
        <ele>850.015</ele>
        <time>2019-12-07T14:22:40Z</time>
      </trkpt>
      <trkpt lat="13.661604" lon="-89.24807">
        <ele>848.565</ele>
        <time>2019-12-07T14:22:45Z</time>
      </trkpt>
      <trkpt lat="13.661667" lon="-89.248085">
        <ele>847.294</ele>
        <time>2019-12-07T14:22:50Z</time>
      </trkpt>
      <trkpt lat="13.661746" lon="-89.24811">
        <ele>846.166</ele>
        <time>2019-12-07T14:22:56Z</time>
      </trkpt>
      <trkpt lat="13.661879" lon="-89.24811">
        <ele>845.707</ele>
        <time>2019-12-07T14:23:06Z</time>
      </trkpt>
      <trkpt lat="13.661944" lon="-89.24801">
        <ele>845.063</ele>
        <time>2019-12-07T14:23:15Z</time>
      </trkpt>
      <trkpt lat="13.661957" lon="-89.24795">
        <ele>844.077</ele>
        <time>2019-12-07T14:23:20Z</time>
      </trkpt>
      <trkpt lat="13.661944" lon="-89.24787">
        <ele>843.13</ele>
        <time>2019-12-07T14:23:25Z</time>
      </trkpt>
      <trkpt lat="13.661906" lon="-89.24779">
        <ele>841.591</ele>
        <time>2019-12-07T14:23:30Z</time>
      </trkpt>
      <trkpt lat="13.6618805" lon="-89.24771">
        <ele>840.562</ele>
        <time>2019-12-07T14:23:35Z</time>
      </trkpt>
      <trkpt lat="13.661865" lon="-89.24763">
        <ele>839.194</ele>
        <time>2019-12-07T14:23:41Z</time>
      </trkpt>
      <trkpt lat="13.661812" lon="-89.247505">
        <ele>837.417</ele>
        <time>2019-12-07T14:23:51Z</time>
      </trkpt>
      <trkpt lat="13.661726" lon="-89.24736">
        <ele>835.821</ele>
        <time>2019-12-07T14:24:01Z</time>
      </trkpt>
      <trkpt lat="13.661584" lon="-89.24727">
        <ele>834.865</ele>
        <time>2019-12-07T14:24:10Z</time>
      </trkpt>
      <trkpt lat="13.6614485" lon="-89.247185">
        <ele>833.478</ele>
        <time>2019-12-07T14:24:19Z</time>
      </trkpt>
      <trkpt lat="13.661365" lon="-89.24712">
        <ele>833.143</ele>
        <time>2019-12-07T14:24:24Z</time>
      </trkpt>
      <trkpt lat="13.661347" lon="-89.24708">
        <ele>832.098</ele>
        <time>2019-12-07T14:24:29Z</time>
      </trkpt>
      <trkpt lat="13.661403" lon="-89.247">
        <ele>830.72</ele>
        <time>2019-12-07T14:24:35Z</time>
      </trkpt>
      <trkpt lat="13.661528" lon="-89.24699">
        <ele>830.983</ele>
        <time>2019-12-07T14:24:45Z</time>
      </trkpt>
      <trkpt lat="13.661703" lon="-89.246994">
        <ele>832.88</ele>
        <time>2019-12-07T14:24:55Z</time>
      </trkpt>
      <trkpt lat="13.661798" lon="-89.247025">
        <ele>833.585</ele>
        <time>2019-12-07T14:25:04Z</time>
      </trkpt>
      <trkpt lat="13.661846" lon="-89.247055">
        <ele>833.679</ele>
        <time>2019-12-07T14:25:11Z</time>
      </trkpt>
      <trkpt lat="13.661954" lon="-89.2471">
        <ele>834.339</ele>
        <time>2019-12-07T14:25:20Z</time>
      </trkpt>
      <trkpt lat="13.66206" lon="-89.24719">
        <ele>834.66</ele>
        <time>2019-12-07T14:25:31Z</time>
      </trkpt>
      <trkpt lat="13.66213" lon="-89.24726">
        <ele>834.999</ele>
        <time>2019-12-07T14:25:41Z</time>
      </trkpt>
      <trkpt lat="13.662131" lon="-89.247375">
        <ele>834.337</ele>
        <time>2019-12-07T14:25:50Z</time>
      </trkpt>
      <trkpt lat="13.662117" lon="-89.247444">
        <ele>834.331</ele>
        <time>2019-12-07T14:25:55Z</time>
      </trkpt>
      <trkpt lat="13.662085" lon="-89.24749">
        <ele>833.876</ele>
        <time>2019-12-07T14:26:00Z</time>
      </trkpt>
      <trkpt lat="13.662074" lon="-89.24756">
        <ele>833.124</ele>
        <time>2019-12-07T14:26:06Z</time>
      </trkpt>
      <trkpt lat="13.662103" lon="-89.24766">
        <ele>832.133</ele>
        <time>2019-12-07T14:26:16Z</time>
      </trkpt>
      <trkpt lat="13.662121" lon="-89.24785">
        <ele>831.054</ele>
        <time>2019-12-07T14:26:26Z</time>
      </trkpt>
      <trkpt lat="13.662117" lon="-89.248055">
        <ele>829.543</ele>
        <time>2019-12-07T14:26:35Z</time>
      </trkpt>
      <trkpt lat="13.662109" lon="-89.24816">
        <ele>826.975</ele>
        <time>2019-12-07T14:26:40Z</time>
      </trkpt>
      <trkpt lat="13.662112" lon="-89.24827">
        <ele>825.935</ele>
        <time>2019-12-07T14:26:45Z</time>
      </trkpt>
      <trkpt lat="13.662111" lon="-89.24838">
        <ele>824.539</ele>
        <time>2019-12-07T14:26:50Z</time>
      </trkpt>
      <trkpt lat="13.662094" lon="-89.24852">
        <ele>823.606</ele>
        <time>2019-12-07T14:26:55Z</time>
      </trkpt>
      <trkpt lat="13.662075" lon="-89.24865">
        <ele>823.854</ele>
        <time>2019-12-07T14:27:01Z</time>
      </trkpt>
      <trkpt lat="13.6619835" lon="-89.248856">
        <ele>824.434</ele>
        <time>2019-12-07T14:27:11Z</time>
      </trkpt>
      <trkpt lat="13.661955" lon="-89.24905">
        <ele>824.784</ele>
        <time>2019-12-07T14:27:20Z</time>
      </trkpt>
      <trkpt lat="13.661948" lon="-89.24917">
        <time>2019-12-07T14:27:25Z</time>
      </trkpt>
      <trkpt lat="13.661951" lon="-89.2493">
        <time>2019-12-07T14:27:30Z</time>
      </trkpt>
      <trkpt lat="13.661942" lon="-89.24939">
        <time>2019-12-07T14:27:35Z</time>
      </trkpt>
      <trkpt lat="13.661869" lon="-89.24941">
        <time>2019-12-07T14:27:40Z</time>
      </trkpt>
      <trkpt lat="13.661805" lon="-89.24941">
        <time>2019-12-07T14:27:46Z</time>
      </trkpt>
      <trkpt lat="13.661693" lon="-89.249405">
        <time>2019-12-07T14:27:56Z</time>
      </trkpt>
    </trkseg>
  </trk>
</gpx>
